BA288 / G-CIVN 7700 Squawk Report (19th of July, 2019)

Aircraft B744 Reg No. G-CIVN Age 21 years old
Model 747 Jet engines 4 First flight 18-09-97
Registered 30-09-97 Rollout N/A Delivered 29-09-97
Construction No. 28848 Line No. 1129 Series 436
ADSHEX 40068F Airline name British Airways Owner N/A
Airfield based Heathrow~Gtr London~G First tracked 2017-07-13 02:35:00

Flight history for G-CIVN

Time Lat Lon Altitude Heading Speed Vertical Rate
2019-07-19 14:08:19 GMT 51.472744 -0.462873 0 56 0 0
2019-07-19 14:08:08 GMT 51.472717 -0.462952 0 56 1 0
2019-07-19 14:07:55 GMT 51.472675 -0.463040 0 56 2 0
2019-07-19 14:07:34 GMT 51.472519 -0.463409 0 56 4 0
2019-07-19 14:07:29 GMT 51.472469 -0.463541 0 56 5 0
2019-07-19 14:07:23 GMT 51.472389 -0.463690 0 61 6 0
2019-07-19 14:07:15 GMT 51.472286 -0.463913 0 90 6 0
2019-07-19 14:06:56 GMT 51.472401 -0.464668 0 90 7 0
2019-07-19 14:06:50 GMT 51.472389 -0.464993 0 90 9 0
2019-07-19 14:06:37 GMT 51.472389 -0.465880 0 90 11 0
2019-07-19 14:06:30 GMT 51.472389 -0.466423 0 90 11 0
2019-07-19 14:06:10 GMT 51.472389 -0.467968 0 98 10 0
2019-07-19 14:06:00 GMT 51.472485 -0.468559 0 160 9 0
2019-07-19 14:05:55 GMT 51.472675 -0.468645 0 180 12 0
2019-07-19 14:05:44 GMT 51.473251 -0.468655 0 180 12 0
2019-07-19 14:03:54 GMT 51.477608 -0.456211 0 270 80 0
2019-07-19 14:03:50 GMT 51.477604 -0.454330 0 270 92 0
2019-07-19 14:03:41 GMT 51.477642 -0.447340 550 270 145 -640
2019-07-19 14:03:33 GMT 51.477695 -0.438232 0 270 142 0
2019-07-19 14:03:27 GMT 51.477676 -0.426463 275 270 144 -832
2019-07-19 14:03:21 GMT 51.477722 -0.422157 325 270 144 -704
2019-07-19 14:03:17 GMT 51.477722 -0.422157 325 270 144 -768
2019-07-19 14:03:11 GMT 51.477722 -0.411468 450 270 144 -960
2019-07-19 14:03:07 GMT 51.477722 -0.411468 475 270 144 -832
2019-07-19 14:03:01 GMT 51.477814 -0.400927 650 270 140 -832
2019-07-19 14:02:57 GMT 51.477814 -0.400927 950 270 138 -704
2019-07-19 14:02:54 GMT 51.477814 -0.396696 700 270 141 -640
2019-07-19 14:02:51 GMT 51.477814 -0.394543 875 270 140 -832
2019-07-19 14:02:47 GMT 51.477814 -0.390386 700 270 140 -832
2019-07-19 14:02:43 GMT 51.477859 -0.386229 825 270 138 -704
2019-07-19 14:02:40 GMT 51.477882 -0.382004 825 270 138 -704
2019-07-19 14:02:37 GMT 51.477859 -0.379993 850 270 138 -832
2019-07-19 14:02:31 GMT 51.477905 -0.373832 925 270 137 -960
2019-07-19 14:02:27 GMT 51.477882 -0.368729 975 270 138 -896
2019-07-19 14:02:20 GMT 51.477928 -0.362549 1,075 270 138 -832
2019-07-19 14:02:16 GMT 51.477951 -0.355423 1,425 270 152 -1088
2019-07-19 14:02:10 GMT 51.477951 -0.351340 1,225 270 139 -832
2019-07-19 14:02:05 GMT 51.477951 -0.347109 1,225 270 140 -704
2019-07-19 14:02:02 GMT 51.477978 -0.344009 1,275 270 141 -832
2019-07-19 14:01:59 GMT 51.477951 -0.334341 1,400 270 152 -768
2019-07-19 14:01:54 GMT 51.477951 -0.334341 1,375 270 148 -768
2019-07-19 14:01:51 GMT 51.477951 -0.332262 1,425 270 152 -768
2019-07-19 14:01:48 GMT 51.477997 -0.328848 1,625 270 148 -768
2019-07-19 14:01:45 GMT 51.478024 -0.322113 1,850 270 149 -640
2019-07-19 14:01:39 GMT 51.478024 -0.317612 1,575 270 151 -960
2019-07-19 14:01:36 GMT 51.478024 -0.315323 1,675 270 148 -768
2019-07-19 14:01:33 GMT 51.478043 -0.311997 1,650 270 148 -832
2019-07-19 14:01:30 GMT 51.478069 -0.308685 1,700 270 148 -704
2019-07-19 14:01:25 GMT 51.478043 -0.303238 1,775 270 149 -704
2019-07-19 14:01:22 GMT 51.478043 -0.298858 2,175 270 145 -704
2019-07-19 14:01:18 GMT 51.478069 -0.295563 1,850 270 149 -640
2019-07-19 14:01:15 GMT 51.478088 -0.289950 1,900 270 148 -704
2019-07-19 14:01:12 GMT 51.478069 -0.286713 1,950 270 148 -704
2019-07-19 14:01:08 GMT 51.478115 -0.284500 1,975 270 148 -704
2019-07-19 14:01:05 GMT 51.478088 -0.281191 2,000 270 148 -832
2019-07-19 14:01:02 GMT 51.478115 -0.277939 2,075 270 145 -704
2019-07-19 14:00:56 GMT 51.478115 -0.271454 2,150 270 145 -768
2019-07-19 14:00:53 GMT 51.478134 -0.268126 2,175 270 145 -704
2019-07-19 14:00:49 GMT 51.478165 -0.258484 2,325 270 145 -768
2019-07-19 14:00:44 GMT 51.478165 -0.258484 2,350 270 145 -704
2019-07-19 14:00:41 GMT 51.478180 -0.255358 2,350 270 145 -832
2019-07-19 14:00:38 GMT 51.478165 -0.252075 2,375 270 145 -704
2019-07-19 14:00:35 GMT 51.478180 -0.248825 2,400 270 145 -832
2019-07-19 14:00:32 GMT 51.478165 -0.245590 2,500 270 143 -448
2019-07-19 14:00:29 GMT 51.478165 -0.241394 2,525 270 144 -768
2019-07-19 14:00:26 GMT 51.478210 -0.239258 2,525 270 144 -832
2019-07-19 14:00:23 GMT 51.478210 -0.234909 2,550 270 144 -896
2019-07-19 14:00:20 GMT 51.478226 -0.229599 2,650 270 143 -704
2019-07-19 14:00:13 GMT 51.478210 -0.224304 2,700 270 143 -704
2019-07-19 14:00:10 GMT 51.478210 -0.222092 2,750 270 143 -768
2019-07-19 14:00:07 GMT 51.478226 -0.218910 2,775 270 142 -640
2019-07-19 14:00:04 GMT 51.478226 -0.214753 2,800 270 142 -768
2019-07-19 14:00:01 GMT 51.478256 -0.209503 3,000 270 141 -768
2019-07-19 13:59:58 GMT 51.478271 -0.206365 2,875 270 141 -704
2019-07-19 13:59:55 GMT 51.478271 -0.206365 3,025 270 141 -960
2019-07-19 13:59:51 GMT 51.478271 -0.202208 2,975 271 149 -448
2019-07-19 13:59:48 GMT 51.478302 -0.199051 3,075 270 141 -832
2019-07-19 13:59:44 GMT 51.478348 -0.194855 3,075 270 141 -320
2019-07-19 13:59:41 GMT 51.478348 -0.190659 3,100 270 142 -512
2019-07-19 13:59:38 GMT 51.478317 -0.187510 3,225 270 143 -448
2019-07-19 13:59:34 GMT 51.478302 -0.184250 3,175 271 142 -512
2019-07-19 13:59:31 GMT 51.478226 -0.176895 3,175 271 143 -512
2019-07-19 13:59:28 GMT 51.478226 -0.176895 3,200 270 143 -256
2019-07-19 13:59:25 GMT 51.478210 -0.173645 3,225 270 143 -448
2019-07-19 13:59:22 GMT 51.478256 -0.171585 3,550 240 164 -576
2019-07-19 13:59:19 GMT 51.478271 -0.168358 3,250 270 145 -512
2019-07-19 13:59:16 GMT 51.478256 -0.162888 3,275 272 149 -448
2019-07-19 13:59:12 GMT 51.478210 -0.160675 3,300 269 151 -320
2019-07-19 13:59:09 GMT 51.478226 -0.157297 3,325 269 151 -320
2019-07-19 13:59:06 GMT 51.478409 -0.152769 3,350 257 156 -384
2019-07-19 13:59:02 GMT 51.478676 -0.149384 3,375 257 156 -384
2019-07-19 13:58:59 GMT 51.479420 -0.144958 3,375 252 157 -448
2019-07-19 13:58:56 GMT 51.479977 -0.142746 3,400 245 159 -576
2019-07-19 13:58:53 GMT 51.480927 -0.139482 3,425 243 161 -576
2019-07-19 13:58:50 GMT 51.482300 -0.135251 3,475 240 163 -704
2019-07-19 13:58:47 GMT 51.483421 -0.132141 3,950 239 170 -448
2019-07-19 13:58:43 GMT 51.485100 -0.127869 3,550 240 168 -704
2019-07-19 13:58:40 GMT 51.486008 -0.125675 3,575 239 168 -640
2019-07-19 13:58:37 GMT 51.487381 -0.121460 3,600 240 167 -576
2019-07-19 13:58:34 GMT 51.488216 -0.119247 3,625 240 168 -448
2019-07-19 13:58:30 GMT 51.490036 -0.113946 3,675 240 169 -512
2019-07-19 13:58:27 GMT 51.491428 -0.110626 3,700 239 170 -448
2019-07-19 13:58:24 GMT 51.492554 -0.107414 3,700 240 169 -704
2019-07-19 13:58:21 GMT 51.495071 -0.100807 3,775 240 170 -576
2019-07-19 13:58:18 GMT 51.495071 -0.100807 3,800 240 170 -640
2019-07-19 13:58:15 GMT 51.495895 -0.098654 3,825 241 170 -960
2019-07-19 13:58:12 GMT 51.497360 -0.094349 3,850 240 169 -896
2019-07-19 13:58:09 GMT 51.498413 -0.092196 3,875 240 169 -896
2019-07-19 13:58:05 GMT 51.501114 -0.084381 3,975 240 172 -768
2019-07-19 13:57:59 GMT 51.502789 -0.080032 4,075 240 172 -640
2019-07-19 13:57:56 GMT 51.505302 -0.073547 4,075 235 172 -64
2019-07-19 13:57:53 GMT 51.505302 -0.073547 4,075 236 172 -192
2019-07-19 13:57:50 GMT 51.506329 -0.071487 4,075 233 173 64
2019-07-19 13:57:47 GMT 51.509541 -0.065994 4,075 221 173 128
2019-07-19 13:57:41 GMT 51.511185 -0.063839 4,075 210 175 128
2019-07-19 13:57:38 GMT 51.515717 -0.060944 4,050 199 177 192
2019-07-19 13:57:32 GMT 51.518524 -0.060349 4,250 172 197 -896
2019-07-19 13:57:29 GMT 51.522247 -0.060196 4,050 172 189 -64
2019-07-19 13:57:26 GMT 51.524551 -0.060573 4,025 173 189 -64
2019-07-19 13:57:23 GMT 51.526382 -0.060944 4,050 171 192 -832
2019-07-19 13:57:20 GMT 51.528721 -0.061569 4,050 171 190 -256
2019-07-19 13:57:17 GMT 51.534397 -0.062866 4,125 171 194 -1152
2019-07-19 13:57:11 GMT 51.537518 -0.063705 4,225 172 196 -832
2019-07-19 13:57:07 GMT 51.540665 -0.064359 4,250 172 198 -1344
2019-07-19 13:57:04 GMT 51.542870 -0.065002 4,300 172 197 -1536
2019-07-19 13:57:01 GMT 51.545837 -0.065547 4,350 172 199 -1216
2019-07-19 13:56:58 GMT 51.548691 -0.066147 4,575 172 204 -1856
2019-07-19 13:56:54 GMT 51.553070 -0.067106 4,525 172 204 -1856
2019-07-19 13:56:50 GMT 51.559303 -0.068512 4,875 171 208 -1664
2019-07-19 13:56:47 GMT 51.561680 -0.068970 4,900 154 225 -1344
2019-07-19 13:56:41 GMT 51.564926 -0.069778 4,950 167 212 -1344
2019-07-19 13:56:38 GMT 51.567776 -0.070801 4,925 165 216 -1408
2019-07-19 13:56:35 GMT 51.570896 -0.072632 5,000 160 220 -1280
2019-07-19 13:56:32 GMT 51.574539 -0.074529 5,075 154 225 -1344
2019-07-19 13:56:29 GMT 51.576759 -0.076981 5,150 149 229 -1472
2019-07-19 13:56:26 GMT 51.582485 -0.084839 5,250 137 240 -1408
2019-07-19 13:56:23 GMT 51.582485 -0.084839 5,300 133 244 -1536
2019-07-19 13:56:20 GMT 51.584610 -0.087445 5,350 129 247 -1792
2019-07-19 13:56:17 GMT 51.586632 -0.092010 5,400 125 250 -1920
2019-07-19 13:56:14 GMT 51.587608 -0.095062 5,575 118 253 -1856
2019-07-19 13:56:11 GMT 51.589645 -0.099990 5,600 116 254 -1984
2019-07-19 13:56:08 GMT 51.591522 -0.106820 5,725 113 256 -1920
2019-07-19 13:56:05 GMT 51.592529 -0.110309 5,875 113 256 -1920
2019-07-19 13:56:02 GMT 51.594776 -0.119171 5,975 113 256 -1920
2019-07-19 13:55:59 GMT 51.595753 -0.122757 5,975 113 256 -1920
2019-07-19 13:55:56 GMT 51.597198 -0.127976 6,100 113 256 -1856
2019-07-19 13:55:53 GMT 51.598732 -0.133286 6,225 113 258 -1856
2019-07-19 13:55:50 GMT 51.601479 -0.143738 6,500 113 258 -1856
2019-07-19 13:55:47 GMT 51.601479 -0.143738 6,400 113 257 -1920
2019-07-19 13:55:41 GMT 51.605251 -0.157928 6,575 113 258 -1984
2019-07-19 13:55:35 GMT 51.606674 -0.163236 6,700 113 258 -1984
2019-07-19 13:55:32 GMT 51.610001 -0.175476 6,875 113 258 -1792
2019-07-19 13:55:29 GMT 51.610001 -0.175476 7,000 113 258 -1856
2019-07-19 13:55:26 GMT 51.611252 -0.180829 7,050 114 259 -1984
2019-07-19 13:55:23 GMT 51.612930 -0.186005 7,125 114 259 -1984
2019-07-19 13:55:20 GMT 51.615677 -0.196686 7,250 115 262 -1216
2019-07-19 13:55:14 GMT 51.616982 -0.200195 7,350 115 263 -1088
2019-07-19 13:55:11 GMT 51.618797 -0.207367 7,400 115 265 -832
2019-07-19 13:55:08 GMT 51.620590 -0.212749 7,425 115 265 -832
2019-07-19 13:55:05 GMT 51.621735 -0.216386 7,475 115 266 -704
2019-07-19 13:55:02 GMT 51.623840 -0.223438 7,500 115 267 -640
2019-07-19 13:54:59 GMT 51.624939 -0.227076 7,525 115 268 -576
2019-07-19 13:54:56 GMT 51.628529 -0.239868 7,575 115 271 -640
2019-07-19 13:54:53 GMT 51.628529 -0.239868 7,600 115 272 -704
2019-07-19 13:54:50 GMT 51.629738 -0.243530 7,650 115 275 -768
2019-07-19 13:54:46 GMT 51.632492 -0.252686 7,675 115 275 -768
2019-07-19 13:54:43 GMT 51.633545 -0.256397 7,700 115 276 -768
2019-07-19 13:54:40 GMT 51.635605 -0.263820 7,800 115 277 -896
2019-07-19 13:54:37 GMT 51.637512 -0.269470 7,825 115 279 -960
2019-07-19 13:54:34 GMT 51.639130 -0.275029 7,850 115 280 -896
2019-07-19 13:54:31 GMT 51.639908 -0.278815 7,875 115 280 -896
2019-07-19 13:54:28 GMT 51.642242 -0.286313 7,925 115 282 -704
2019-07-19 13:54:25 GMT 51.643661 -0.290247 7,975 115 284 -384
2019-07-19 13:54:22 GMT 51.645538 -0.297819 8,000 115 292 128
2019-07-19 13:54:19 GMT 51.647827 -0.305539 8,000 115 287 0
2019-07-19 13:54:16 GMT 51.649017 -0.309399 8,000 115 289 128
2019-07-19 13:54:13 GMT 51.650162 -0.313333 8,000 115 297 0
2019-07-19 13:54:10 GMT 51.652130 -0.319290 8,175 115 296 0
2019-07-19 13:54:07 GMT 51.653778 -0.325136 8,000 115 302 -192
2019-07-19 13:54:03 GMT 51.656506 -0.335236 8,025 115 302 -128
2019-07-19 13:54:00 GMT 51.658134 -0.339355 8,000 115 302 -192
2019-07-19 13:53:57 GMT 51.659683 -0.345475 8,025 115 301 -192
2019-07-19 13:53:54 GMT 51.661972 -0.353493 8,025 115 300 -320
2019-07-19 13:53:51 GMT 51.663483 -0.357650 8,050 115 299 -704
2019-07-19 13:53:48 GMT 51.665680 -0.365518 8,100 115 298 -1408
2019-07-19 13:53:45 GMT 51.667282 -0.369601 8,200 115 298 -1472
2019-07-19 13:53:42 GMT 51.669434 -0.377544 8,300 115 300 -1088
2019-07-19 13:53:39 GMT 51.671494 -0.383682 8,275 115 298 -1344
2019-07-19 13:53:36 GMT 51.672611 -0.387573 8,675 115 299 -1344
2019-07-19 13:53:33 GMT 51.675034 -0.395737 8,425 115 298 -1344
2019-07-19 13:53:30 GMT 51.678040 -0.405752 8,525 115 300 -1088
2019-07-19 13:53:27 GMT 51.678040 -0.405752 8,600 115 299 -1280
2019-07-19 13:53:24 GMT 51.679871 -0.413620 8,625 115 300 -1152
2019-07-19 13:53:21 GMT 51.681644 -0.419769 8,700 115 300 -1088
2019-07-19 13:53:18 GMT 51.683762 -0.425794 8,700 115 300 -1088
2019-07-19 13:53:15 GMT 51.685181 -0.429803 8,850 115 303 -704
2019-07-19 13:53:12 GMT 51.686951 -0.435867 8,900 126 298 64
2019-07-19 13:53:09 GMT 51.689137 -0.443954 8,900 115 302 -768
2019-07-19 13:53:06 GMT 51.690948 -0.450143 8,925 115 302 -704
2019-07-19 13:53:03 GMT 51.692768 -0.456238 8,950 115 303 -704
2019-07-19 13:53:00 GMT 51.694118 -0.460358 9,000 115 303 0
2019-07-19 13:52:57 GMT 51.696491 -0.468445 9,000 116 302 64
2019-07-19 13:52:53 GMT 51.699005 -0.476685 9,000 115 303 0
2019-07-19 13:52:50 GMT 51.700928 -0.482730 9,000 115 303 0
2019-07-19 13:52:47 GMT 51.702072 -0.486813 9,000 116 303 -64
2019-07-19 13:52:44 GMT 51.704128 -0.492935 9,000 126 298 0
2019-07-19 13:52:41 GMT 51.705780 -0.498839 9,000 116 302 64
2019-07-19 13:52:38 GMT 51.707710 -0.504990 9,000 118 302 64
2019-07-19 13:52:35 GMT 51.709396 -0.510938 9,000 121 301 -64
2019-07-19 13:52:32 GMT 51.712601 -0.518733 9,000 121 301 -64
2019-07-19 13:52:29 GMT 51.714462 -0.524521 9,000 121 301 -64
2019-07-19 13:52:26 GMT 51.716183 -0.528183 9,000 126 298 0
2019-07-19 13:52:23 GMT 51.718506 -0.533728 9,000 126 298 0
2019-07-19 13:52:20 GMT 51.720608 -0.539169 9,000 126 298 0
2019-07-19 13:52:17 GMT 51.723587 -0.544491 9,000 126 298 0
2019-07-19 13:52:14 GMT 51.726288 -0.551543 9,000 126 298 0
2019-07-19 13:52:11 GMT 51.729172 -0.557022 9,000 126 298 0
2019-07-19 13:52:08 GMT 51.730988 -0.560455 9,000 126 298 0
2019-07-19 13:52:04 GMT 51.734200 -0.567627 9,000 126 298 0
2019-07-19 13:52:01 GMT 51.736588 -0.572996 9,000 126 298 0
2019-07-19 13:51:58 GMT 51.739368 -0.578384 9,000 126 298 0
2019-07-19 13:51:55 GMT 51.741806 -0.583760 9,000 126 298 64
2019-07-19 13:51:52 GMT 51.744827 -0.590886 9,000 126 298 64
2019-07-19 13:51:49 GMT 51.746567 -0.594375 9,000 126 298 64
2019-07-19 13:51:46 GMT 51.749191 -0.599747 9,000 126 298 0
2019-07-19 13:51:43 GMT 51.751419 -0.605065 9,000 126 298 0
2019-07-19 13:51:40 GMT 51.753845 -0.610352 9,000 126 298 0
2019-07-19 13:51:37 GMT 51.756966 -0.617447 9,000 126 298 0
2019-07-19 13:51:34 GMT 51.759106 -0.621109 9,000 126 298 0
2019-07-19 13:51:31 GMT 51.762039 -0.628281 9,000 126 306 -64
2019-07-19 13:51:27 GMT 51.764832 -0.633792 9,000 126 318 0
2019-07-19 13:51:24 GMT 51.767391 -0.639191 9,000 126 306 -64
2019-07-19 13:51:21 GMT 51.770233 -0.646439 9,000 126 313 128
2019-07-19 13:51:18 GMT 51.772888 -0.652128 9,000 126 316 0
2019-07-19 13:51:13 GMT 51.777214 -0.661545 9,000 126 316 0
2019-07-19 13:51:10 GMT 51.780304 -0.667197 9,000 126 319 -64
2019-07-19 13:51:07 GMT 51.781631 -0.671057 9,000 126 342 0
2019-07-19 13:51:04 GMT 51.785019 -0.678703 9,000 126 350 -768
2019-07-19 13:51:01 GMT 51.788296 -0.684662 9,000 126 331 0
2019-07-19 13:50:57 GMT 51.790649 -0.690580 9,000 126 336 0
2019-07-19 13:50:54 GMT 51.794266 -0.698820 9,000 126 337 0
2019-07-19 13:50:51 GMT 51.796280 -0.702828 9,000 126 339 0
2019-07-19 13:50:48 GMT 51.800034 -0.710994 9,075 126 344 -64
2019-07-19 13:50:44 GMT 51.803375 -0.719382 9,000 126 348 -512
2019-07-19 13:50:41 GMT 51.806870 -0.725708 9,050 126 349 -704
2019-07-19 13:50:37 GMT 51.809647 -0.731927 9,125 126 353 -1088
2019-07-19 13:50:33 GMT 51.815002 -0.744546 9,150 126 354 -1088
2019-07-19 13:50:30 GMT 51.816551 -0.746841 9,275 126 404 -1088
2019-07-19 13:50:27 GMT 51.819996 -0.755463 9,275 126 358 -832
2019-07-19 13:50:24 GMT 51.822044 -0.759659 9,325 126 361 -832
2019-07-19 13:50:20 GMT 51.826141 -0.768509 9,375 126 363 -896
2019-07-19 13:50:17 GMT 51.830006 -0.777130 9,425 126 366 -960
2019-07-19 13:50:13 GMT 51.834614 -0.785980 9,475 126 368 -1024
2019-07-19 13:50:10 GMT 51.836708 -0.790482 9,475 126 369 -1024
2019-07-19 13:50:07 GMT 51.843155 -0.806085 9,725 126 387 -1088
2019-07-19 13:50:04 GMT 51.843155 -0.806085 9,625 126 386 -1088
2019-07-19 13:50:01 GMT 51.846298 -0.812988 9,675 126 377 -896
2019-07-19 13:49:58 GMT 51.848999 -0.817566 9,700 126 399 -1280
2019-07-19 13:49:54 GMT 51.853466 -0.826797 9,750 126 384 -960
2019-07-19 13:49:50 GMT 51.858124 -0.838301 9,825 126 388 -1088
2019-07-19 13:49:47 GMT 51.860870 -0.843052 10,075 126 391 -1088
2019-07-19 13:49:44 GMT 51.864761 -0.852331 9,950 126 393 -1024
2019-07-19 13:49:41 GMT 51.868038 -0.859375 10,075 126 396 -1088
2019-07-19 13:49:38 GMT 51.870411 -0.864182 10,025 126 395 -1216
2019-07-19 13:49:35 GMT 51.874321 -0.873718 10,075 126 404 -1088
2019-07-19 13:49:32 GMT 51.876465 -0.878448 10,125 126 395 -1216
2019-07-19 13:49:29 GMT 51.880562 -0.888214 10,275 126 395 -1088
2019-07-19 13:49:25 GMT 51.886093 -0.899988 10,400 126 395 -960
2019-07-19 13:49:22 GMT 51.887730 -0.902405 10,325 126 399 -1280
2019-07-19 13:49:19 GMT 51.891407 -0.911942 10,375 126 397 -1152
2019-07-19 13:49:16 GMT 51.894199 -0.916966 11,400 126 399 -1216
2019-07-19 13:49:13 GMT 51.897354 -0.924149 10,500 126 399 -1280
2019-07-19 13:49:10 GMT 51.900623 -0.931405 10,575 126 402 -960
2019-07-19 13:49:07 GMT 51.903442 -0.938644 10,575 126 400 -1088
2019-07-19 13:49:03 GMT 51.909561 -0.950631 10,700 126 404 -1088
2019-07-19 13:49:00 GMT 51.912781 -0.958023 10,725 126 406 -1408
2019-07-19 13:48:57 GMT 51.914978 -0.962753 10,775 126 407 -1664
2019-07-19 13:48:54 GMT 51.918777 -0.972672 10,975 126 410 -1920
2019-07-19 13:48:51 GMT 51.922924 -0.980137 10,925 126 410 -1920
2019-07-19 13:48:48 GMT 51.925297 -0.985003 11,025 126 410 -1920
2019-07-19 13:48:45 GMT 51.929070 -0.994969 11,175 126 414 -1792
2019-07-19 13:48:42 GMT 51.933289 -1.002274 11,250 126 414 -1792
2019-07-19 13:48:38 GMT 51.936192 -1.009722 11,350 126 415 -1792
2019-07-19 13:48:35 GMT 51.941391 -1.022491 11,475 125 416 -1856
2019-07-19 13:48:32 GMT 51.944229 -1.027451 11,600 126 416 -1856
2019-07-19 13:48:29 GMT 51.947968 -1.034912 12,875 146 423 -1600
2019-07-19 13:48:26 GMT 51.950340 -1.040013 11,700 128 417 -1856
2019-07-19 13:48:23 GMT 51.958603 -1.056900 12,200 140 424 -1408
2019-07-19 13:48:19 GMT 51.958603 -1.056900 12,000 132 419 -1856
2019-07-19 13:48:16 GMT 51.967846 -1.073286 12,125 133 420 -1856
2019-07-19 13:48:13 GMT 51.967846 -1.073286 12,075 133 420 -1856
2019-07-19 13:48:10 GMT 51.971695 -1.079941 12,200 135 421 -1664
2019-07-19 13:48:06 GMT 51.977188 -1.088791 12,300 136 423 -1472
2019-07-19 13:48:03 GMT 51.986115 -1.101532 12,425 139 424 -1408
2019-07-19 13:48:00 GMT 51.986115 -1.101532 12,450 139 424 -1408
2019-07-19 13:47:57 GMT 51.990330 -1.107814 12,550 140 424 -1408
2019-07-19 13:47:54 GMT 51.998199 -1.117706 12,800 143 424 -1536
2019-07-19 13:47:51 GMT 51.998199 -1.117706 12,625 142 425 -1472
2019-07-19 13:47:48 GMT 52.004333 -1.125336 12,800 145 424 -1600
2019-07-19 13:47:45 GMT 52.008904 -1.130886 12,850 147 423 -1536
2019-07-19 13:47:39 GMT 52.018681 -1.141244 12,925 148 422 -1536
2019-07-19 13:47:36 GMT 52.022869 -1.144618 13,125 148 422 -1472
2019-07-19 13:47:33 GMT 52.028923 -1.151210 13,075 148 423 -1600
2019-07-19 13:47:30 GMT 52.033539 -1.156082 13,175 148 423 -1600
2019-07-19 13:47:27 GMT 52.039536 -1.160941 13,375 148 423 -1600
2019-07-19 13:47:24 GMT 52.048241 -1.170829 13,525 148 421 -1408
2019-07-19 13:47:21 GMT 52.048241 -1.170829 13,800 148 420 -1472
2019-07-19 13:47:17 GMT 52.056110 -1.177420 13,475 148 422 -1408
2019-07-19 13:47:14 GMT 52.059322 -1.180795 13,550 148 421 -1408
2019-07-19 13:47:11 GMT 52.063339 -1.185760 13,625 148 419 -1472
2019-07-19 13:47:08 GMT 52.069469 -1.190604 13,775 148 416 -1472
2019-07-19 13:47:04 GMT 52.075802 -1.197117 13,825 148 412 -1728
2019-07-19 13:47:01 GMT 52.082458 -1.203788 13,975 148 412 -1664
2019-07-19 13:46:58 GMT 52.088184 -1.210144 14,000 148 412 -1664
2019-07-19 13:46:55 GMT 52.092186 -1.213518 14,075 148 411 -1600
2019-07-19 13:46:52 GMT 52.097820 -1.220032 14,625 148 412 -1728
2019-07-19 13:46:49 GMT 52.101776 -1.223328 14,225 148 413 -1792
2019-07-19 13:46:46 GMT 52.105591 -1.226578 14,350 148 412 -1728
2019-07-19 13:46:43 GMT 52.109070 -1.231461 14,350 148 412 -1792
2019-07-19 13:46:40 GMT 52.114159 -1.236276 14,400 148 412 -1792
2019-07-19 13:46:37 GMT 52.119781 -1.241150 14,550 148 412 -1792
2019-07-19 13:46:34 GMT 52.125504 -1.247635 14,625 148 413 -1792
2019-07-19 13:46:30 GMT 52.131432 -1.252284 14,975 148 411 -2048
2019-07-19 13:46:26 GMT 52.143719 -1.265233 15,100 148 411 -2112
2019-07-19 13:46:23 GMT 52.143719 -1.265233 15,025 148 411 -2112
2019-07-19 13:46:19 GMT 52.149078 -1.269989 15,250 148 412 -2048
2019-07-19 13:46:16 GMT 52.154148 -1.274806 15,325 148 415 -2048
2019-07-19 13:46:13 GMT 52.159966 -1.281398 15,375 148 414 -1984
2019-07-19 13:46:10 GMT 52.164871 -1.286240 15,500 148 415 -2048
2019-07-19 13:46:07 GMT 52.169277 -1.291129 15,775 148 415 -2048
2019-07-19 13:46:03 GMT 52.175171 -1.296082 15,650 148 415 -2048
2019-07-19 13:46:00 GMT 52.187153 -1.307530 16,100 148 417 -2048
2019-07-19 13:45:57 GMT 52.187153 -1.307530 15,900 148 418 -1984
2019-07-19 13:45:54 GMT 52.197067 -1.317496 15,950 148 419 -1984
2019-07-19 13:45:51 GMT 52.197067 -1.317496 16,050 148 418 -1984
2019-07-19 13:45:48 GMT 52.201813 -1.322403 16,400 148 419 -1984
2019-07-19 13:45:45 GMT 52.205063 -1.325836 16,225 148 419 -2048
2019-07-19 13:45:42 GMT 52.210281 -1.332474 16,300 148 419 -2176
2019-07-19 13:45:39 GMT 52.216763 -1.337585 16,975 147 419 -2496
2019-07-19 13:45:33 GMT 52.229610 -1.351004 16,800 147 418 -2368
2019-07-19 13:45:30 GMT 52.229610 -1.351004 17,325 146 418 -1856
2019-07-19 13:45:27 GMT 52.234589 -1.356201 16,975 146 418 -1856
2019-07-19 13:45:24 GMT 52.239616 -1.361285 17,150 146 418 -1920
2019-07-19 13:45:21 GMT 52.244064 -1.366348 17,450 146 418 -1984
2019-07-19 13:45:18 GMT 52.249161 -1.371565 17,250 147 418 -1792
2019-07-19 13:45:15 GMT 52.253128 -1.376648 17,300 147 418 -1792
2019-07-19 13:45:12 GMT 52.259308 -1.383667 17,350 147 420 -1728
2019-07-19 13:45:09 GMT 52.265266 -1.388750 17,475 147 420 -1728
2019-07-19 13:45:05 GMT 52.270157 -1.393814 17,750 147 429 -1728
2019-07-19 13:45:02 GMT 52.276657 -1.400757 17,700 147 422 -1728
2019-07-19 13:44:59 GMT 52.281467 -1.405779 17,800 147 423 -1728
2019-07-19 13:44:53 GMT 52.288879 -1.414261 18,000 147 423 -1728
2019-07-19 13:44:50 GMT 52.295746 -1.421204 18,025 147 424 -1728
2019-07-19 13:44:47 GMT 52.299774 -1.424713 18,125 147 424 -1728
2019-07-19 13:44:44 GMT 52.307117 -1.433323 18,275 147 426 -1664
2019-07-19 13:44:41 GMT 52.309570 -1.435013 18,375 147 426 -1728
2019-07-19 13:44:38 GMT 52.316071 -1.441879 18,375 147 426 -1728
2019-07-19 13:44:35 GMT 52.321411 -1.447056 18,600 147 427 -1728
2019-07-19 13:44:32 GMT 52.326599 -1.452179 18,550 147 427 -1728
2019-07-19 13:44:29 GMT 52.331371 -1.457336 18,600 147 427 -1728
2019-07-19 13:44:26 GMT 52.334351 -1.460868 18,775 147 429 -1792
2019-07-19 13:44:23 GMT 52.340103 -1.465988 18,950 147 429 -1792
2019-07-19 13:44:20 GMT 52.346878 -1.472931 18,825 147 429 -1728
2019-07-19 13:44:17 GMT 52.351204 -1.478054 19,025 147 431 -1792
2019-07-19 13:44:14 GMT 52.361629 -1.488569 19,125 147 431 -1792
2019-07-19 13:44:11 GMT 52.361629 -1.488569 19,275 147 433 -1664
2019-07-19 13:44:05 GMT 52.371269 -1.499084 19,425 147 434 -1664
2019-07-19 13:44:02 GMT 52.375595 -1.502694 19,400 147 434 -1728
2019-07-19 13:43:59 GMT 52.382626 -1.509757 19,500 148 434 -1792
2019-07-19 13:43:56 GMT 52.387024 -1.514969 19,575 148 434 -1664
2019-07-19 13:43:53 GMT 52.396912 -1.525269 19,725 148 434 -1792
2019-07-19 13:43:50 GMT 52.396912 -1.525269 19,750 148 434 -1792
2019-07-19 13:43:47 GMT 52.401352 -1.528702 20,125 148 434 -1856
2019-07-19 13:43:44 GMT 52.407578 -1.535568 19,900 148 435 -1664
2019-07-19 13:43:41 GMT 52.413116 -1.540676 20,125 148 436 -1472
2019-07-19 13:43:38 GMT 52.417465 -1.545944 20,050 148 437 -1600
2019-07-19 13:43:35 GMT 52.421951 -1.549377 20,175 148 437 -1536
2019-07-19 13:43:32 GMT 52.427132 -1.554644 20,225 148 438 -1408
2019-07-19 13:43:28 GMT 52.434586 -1.563416 20,350 148 439 -1856
2019-07-19 13:43:25 GMT 52.438614 -1.566772 20,400 148 442 -2176
2019-07-19 13:43:22 GMT 52.443935 -1.572065 20,550 148 441 -1920
2019-07-19 13:43:19 GMT 52.451244 -1.578971 20,600 148 442 -2176
2019-07-19 13:43:16 GMT 52.455688 -1.584320 20,750 148 443 -2176
2019-07-19 13:43:13 GMT 52.459488 -1.587753 20,825 148 445 -2240
2019-07-19 13:43:10 GMT 52.466812 -1.594696 20,975 148 446 -1984
2019-07-19 13:43:04 GMT 52.476009 -1.603533 21,200 149 449 -1984
2019-07-19 13:43:01 GMT 52.483612 -1.612396 21,375 149 450 -1920
2019-07-19 13:42:58 GMT 52.487869 -1.615906 21,375 149 453 -1792
2019-07-19 13:42:55 GMT 52.493980 -1.621111 21,675 148 457 -2240
2019-07-19 13:42:52 GMT 52.497894 -1.626358 21,575 149 457 -2048
2019-07-19 13:42:49 GMT 52.504917 -1.631862 21,925 149 460 -2368
2019-07-19 13:42:46 GMT 52.509476 -1.637039 21,775 149 458 -2304
2019-07-19 13:42:43 GMT 52.514137 -1.642535 21,925 149 458 -2240
2019-07-19 13:42:40 GMT 52.518791 -1.646066 21,925 149 459 -2304
2019-07-19 13:42:37 GMT 52.530579 -1.658783 22,175 148 461 -2304
2019-07-19 13:42:34 GMT 52.535843 -1.662369 22,300 148 463 -2304
2019-07-19 13:42:31 GMT 52.535843 -1.662369 22,400 148 463 -2304
2019-07-19 13:42:28 GMT 52.541229 -1.667725 22,450 148 463 -2304
2019-07-19 13:42:25 GMT 52.546143 -1.673355 22,700 148 463 -2304
2019-07-19 13:42:22 GMT 52.553009 -1.680527 22,750 148 466 -2368
2019-07-19 13:42:19 GMT 52.558594 -1.686087 23,175 147 468 -2304
2019-07-19 13:42:16 GMT 52.563721 -1.691666 22,825 148 466 -2368
2019-07-19 13:42:13 GMT 52.568436 -1.695328 22,900 147 468 -2240
2019-07-19 13:42:10 GMT 52.573910 -1.700997 23,200 147 468 -2176
2019-07-19 13:42:07 GMT 52.579742 -1.706848 23,325 147 468 -2176
2019-07-19 13:42:03 GMT 52.587364 -1.716378 23,350 147 469 -2240
2019-07-19 13:42:00 GMT 52.599514 -1.727757 23,750 147 468 -2368
2019-07-19 13:41:57 GMT 52.599514 -1.727757 23,725 146 455 -3264
2019-07-19 13:41:53 GMT 52.605843 -1.735683 24,025 146 467 -2368
2019-07-19 13:41:50 GMT 52.616364 -1.745377 24,125 146 463 -2304
2019-07-19 13:41:47 GMT 52.623322 -1.753006 24,700 146 461 -2432
2019-07-19 13:41:44 GMT 52.623322 -1.753006 24,125 146 464 -2304
2019-07-19 13:41:41 GMT 52.627632 -1.758833 24,200 146 464 -2304
2019-07-19 13:41:38 GMT 52.633484 -1.764526 24,350 146 462 -2432
2019-07-19 13:41:35 GMT 52.637878 -1.768494 24,400 146 461 -2368
2019-07-19 13:41:32 GMT 52.647263 -1.780014 24,650 146 458 -2368
2019-07-19 13:41:26 GMT 52.654633 -1.787720 25,425 146 455 -3264
2019-07-19 13:41:23 GMT 52.660591 -1.793440 24,800 146 456 -2496
2019-07-19 13:41:20 GMT 52.663803 -1.797285 25,950 146 454 -3328
2019-07-19 13:41:17 GMT 52.670647 -1.804975 25,200 146 453 -3328
2019-07-19 13:41:14 GMT 52.674274 -1.808820 25,400 146 454 -2624
2019-07-19 13:41:11 GMT 52.680420 -1.816511 25,550 146 454 -2624
2019-07-19 13:41:08 GMT 52.685032 -1.820435 25,600 146 455 -2560
2019-07-19 13:41:04 GMT 52.692337 -1.828203 26,075 145 456 -2624
2019-07-19 13:41:00 GMT 52.698856 -1.835815 26,075 145 457 -2560
2019-07-19 13:40:57 GMT 52.709843 -1.847743 26,225 145 458 -2496
2019-07-19 13:40:54 GMT 52.709843 -1.847743 26,300 145 459 -2432
2019-07-19 13:40:50 GMT 52.717712 -1.857758 26,350 144 459 -2432
2019-07-19 13:40:47 GMT 52.721100 -1.861954 26,550 144 461 -2368
2019-07-19 13:40:44 GMT 52.727112 -1.868147 26,700 140 470 -2176
2019-07-19 13:40:41 GMT 52.732315 -1.874619 26,800 141 466 -2304
2019-07-19 13:40:38 GMT 52.738174 -1.883316 27,350 140 469 -2240
2019-07-19 13:40:35 GMT 52.743267 -1.890041 26,950 140 469 -2176
2019-07-19 13:40:32 GMT 52.748337 -1.896744 27,325 140 473 -2240
2019-07-19 13:40:29 GMT 52.753460 -1.903695 27,350 140 471 -2112
2019-07-19 13:40:26 GMT 52.758408 -1.910629 27,625 140 481 -2304
2019-07-19 13:40:23 GMT 52.770126 -1.926453 27,475 140 484 -2240
2019-07-19 13:40:17 GMT 52.772781 -1.928940 27,875 140 478 -2304
2019-07-19 13:40:14 GMT 52.779190 -1.938019 27,875 140 481 -2304
2019-07-19 13:40:11 GMT 52.784325 -1.944972 27,925 140 478 -2304
2019-07-19 13:40:08 GMT 52.788097 -1.949681 28,125 140 482 -2304
2019-07-19 13:40:05 GMT 52.793449 -1.958862 28,100 140 480 -2304
2019-07-19 13:40:02 GMT 52.798553 -1.965866 28,200 140 481 -2304
2019-07-19 13:39:58 GMT 52.807091 -1.977774 28,400 140 482 -2304
2019-07-19 13:39:55 GMT 52.810455 -1.980209 28,800 140 484 -2304
2019-07-19 13:39:52 GMT 52.817276 -1.989594 28,650 140 487 -2240
2019-07-19 13:39:49 GMT 52.822586 -1.998901 28,825 140 485 -2112
2019-07-19 13:39:46 GMT 52.826340 -2.003860 28,800 140 487 -2112
2019-07-19 13:39:43 GMT 52.831436 -2.010890 28,950 140 487 -2304
2019-07-19 13:39:40 GMT 52.836868 -2.018051 29,025 140 488 -2304
2019-07-19 13:39:37 GMT 52.841866 -2.025251 29,200 140 489 -1984
2019-07-19 13:39:34 GMT 52.847031 -2.032318 29,300 140 490 -1920
2019-07-19 13:39:31 GMT 52.852245 -2.039690 29,375 140 494 -1664
2019-07-19 13:39:28 GMT 52.857925 -2.046814 29,425 140 494 -1664
2019-07-19 13:39:25 GMT 52.861267 -2.051697 29,500 140 497 -1984
2019-07-19 13:39:22 GMT 52.867950 -2.061386 29,650 140 497 -1984
2019-07-19 13:39:19 GMT 52.873333 -2.068804 29,700 140 498 -2048
2019-07-19 13:39:15 GMT 52.879669 -2.076187 30,625 138 511 -2624
2019-07-19 13:39:12 GMT 52.885483 -2.085953 30,025 139 500 -3008
2019-07-19 13:39:09 GMT 52.892372 -2.093366 30,175 139 501 -3072
2019-07-19 13:39:06 GMT 52.896835 -2.100906 30,300 139 501 -3072
2019-07-19 13:39:03 GMT 52.901321 -2.105789 30,625 139 501 -2688
2019-07-19 13:39:00 GMT 52.904987 -2.113142 30,525 139 501 -2944
2019-07-19 13:38:57 GMT 52.911484 -2.120590 30,875 139 503 -2496
2019-07-19 13:38:54 GMT 52.918121 -2.130814 30,875 139 503 -2304
2019-07-19 13:38:51 GMT 52.921692 -2.135773 30,950 139 504 -2112
2019-07-19 13:38:48 GMT 52.927101 -2.143511 31,450 139 511 -2560
2019-07-19 13:38:45 GMT 52.932999 -2.151031 31,175 137 502 -2688
2019-07-19 13:38:42 GMT 52.945862 -2.171478 31,350 138 508 -2368
2019-07-19 13:38:39 GMT 52.945862 -2.171478 31,500 139 511 -2560
2019-07-19 13:38:36 GMT 52.948750 -2.173802 31,550 139 488 -1344
2019-07-19 13:38:33 GMT 52.955963 -2.184161 31,625 138 510 -2496
2019-07-19 13:38:30 GMT 52.960144 -2.191772 31,750 139 512 -2624
2019-07-19 13:38:27 GMT 52.964767 -2.197113 31,875 138 511 -2624
2019-07-19 13:38:24 GMT 52.971954 -2.207184 32,050 138 513 -2624
2019-07-19 13:38:21 GMT 52.976398 -2.215158 32,125 138 513 -2752
2019-07-19 13:38:18 GMT 52.979939 -2.220337 32,375 138 513 -2624
2019-07-19 13:38:15 GMT 52.986099 -2.227936 32,425 138 513 -2624
2019-07-19 13:38:12 GMT 52.991158 -2.235796 32,500 138 514 -2624
2019-07-19 13:38:09 GMT 52.996857 -2.243576 32,600 138 514 -2560
2019-07-19 13:38:06 GMT 53.004425 -2.256592 32,875 138 510 -2560
2019-07-19 13:38:03 GMT 53.007431 -2.259140 32,950 138 512 -2624
2019-07-19 13:38:00 GMT 53.013702 -2.269745 33,050 138 512 -2624
2019-07-19 13:37:57 GMT 53.024460 -2.285309 33,275 137 509 -2624
2019-07-19 13:37:51 GMT 53.031555 -2.295990 33,550 137 505 -2688
2019-07-19 13:37:48 GMT 53.034988 -2.301178 34,025 137 505 -2688
2019-07-19 13:37:45 GMT 53.039803 -2.309012 33,800 137 505 -2688
2019-07-19 13:37:41 GMT 53.052383 -2.327423 33,975 137 503 -2624
2019-07-19 13:37:38 GMT 53.052383 -2.327423 34,075 137 502 -2624
2019-07-19 13:37:35 GMT 53.056423 -2.335301 34,275 137 502 -2688
2019-07-19 13:37:32 GMT 53.062683 -2.343140 34,350 137 501 -2624
2019-07-19 13:37:29 GMT 53.065338 -2.348251 34,450 137 500 -2816
2019-07-19 13:37:26 GMT 53.072617 -2.358704 34,525 137 500 -2624
2019-07-19 13:37:22 GMT 53.077652 -2.366690 34,825 137 497 -2560
2019-07-19 13:37:19 GMT 53.083145 -2.374344 34,900 137 491 -3840
2019-07-19 13:37:16 GMT 53.087845 -2.382071 35,125 137 495 -3520
2019-07-19 13:37:13 GMT 53.099762 -2.399885 35,475 137 490 -3648
2019-07-19 13:37:07 GMT 53.102966 -2.404986 36,025 139 486 -2048
2019-07-19 13:37:04 GMT 53.107956 -2.412388 35,850 138 487 -2624
2019-07-19 13:37:01 GMT 53.115078 -2.422324 35,925 138 486 -2240
2019-07-19 13:36:58 GMT 53.118618 -2.427171 35,925 139 486 -2048
2019-07-19 13:36:55 GMT 53.122787 -2.434570 36,075 139 486 -1920
2019-07-19 13:36:52 GMT 53.130112 -2.444066 36,225 139 486 -1856
2019-07-19 13:36:49 GMT 53.135563 -2.451486 36,325 139 488 -1600
2019-07-19 13:36:46 GMT 53.139194 -2.456333 36,425 139 488 -1408
2019-07-19 13:36:43 GMT 53.146175 -2.465865 36,400 139 488 -1344
2019-07-19 13:36:39 GMT 53.151760 -2.475559 36,525 139 491 -1152
2019-07-19 13:36:36 GMT 53.156464 -2.480487 36,625 139 494 -1088
2019-07-19 13:36:33 GMT 53.161697 -2.487854 36,700 139 496 -1024
2019-07-19 13:36:30 GMT 53.166843 -2.495351 36,750 139 496 -1280
2019-07-19 13:36:27 GMT 53.173038 -2.504964 36,750 139 497 -1408
2019-07-19 13:36:24 GMT 53.178360 -2.512495 36,825 139 498 -1216
2019-07-19 13:36:20 GMT 53.186188 -2.522382 36,925 139 498 -1152
2019-07-19 13:36:17 GMT 53.190681 -2.529683 36,975 139 511 -960
2019-07-19 13:36:14 GMT 53.195194 -2.534772 37,000 140 501 -320
2019-07-19 13:36:11 GMT 53.202179 -2.544708 37,000 139 505 -128
2019-07-19 13:36:08 GMT 53.206421 -2.552124 37,000 139 505 -128
2019-07-19 13:36:05 GMT 53.211723 -2.559572 37,025 139 505 -128
2019-07-19 13:36:02 GMT 53.217224 -2.566956 37,025 139 505 -128
2019-07-19 13:35:59 GMT 53.227455 -2.579606 37,050 140 507 -320
2019-07-19 13:35:56 GMT 53.227455 -2.579606 37,050 140 508 -512
2019-07-19 13:35:53 GMT 53.232971 -2.587280 37,300 139 511 -1344
2019-07-19 13:35:50 GMT 53.238304 -2.594712 37,100 139 511 -1344
2019-07-19 13:35:47 GMT 53.243729 -2.602347 37,175 139 511 -1344
2019-07-19 13:35:44 GMT 53.249195 -2.610061 37,225 139 512 -1472
2019-07-19 13:35:41 GMT 53.254669 -2.617728 37,400 139 515 -1408
2019-07-19 13:35:38 GMT 53.261444 -2.627773 37,400 139 514 -1536
2019-07-19 13:35:35 GMT 53.265381 -2.633030 37,525 139 514 -1536
2019-07-19 13:35:32 GMT 53.272659 -2.643075 37,950 139 519 -1472
2019-07-19 13:35:29 GMT 53.276615 -2.650936 37,625 139 516 -1600
2019-07-19 13:35:26 GMT 53.283924 -2.661034 37,725 139 517 -1664
2019-07-19 13:35:23 GMT 53.286758 -2.663714 37,750 139 517 -1664
2019-07-19 13:35:20 GMT 53.292210 -2.671374 37,850 140 518 -1536
2019-07-19 13:35:17 GMT 53.300171 -2.681795 38,000 139 521 -1536
2019-07-19 13:35:14 GMT 53.303894 -2.687046 38,050 139 520 -1472
2019-07-19 13:35:11 GMT 53.309898 -2.697224 38,075 139 521 -1536
2019-07-19 13:35:07 GMT 53.318607 -2.707726 38,250 139 523 -1472
2019-07-19 13:35:03 GMT 53.323975 -2.715428 38,275 139 524 -1408
2019-07-19 13:35:00 GMT 53.329880 -2.726100 38,325 139 525 -1344
2019-07-19 13:34:57 GMT 53.335327 -2.731358 38,425 139 518 -1536
2019-07-19 13:34:54 GMT 53.345947 -2.746974 38,500 139 524 -1408
2019-07-19 13:34:51 GMT 53.345947 -2.746974 38,650 139 522 -1408
2019-07-19 13:34:47 GMT 53.353271 -2.757411 38,650 139 521 -1472
2019-07-19 13:34:44 GMT 53.359104 -2.765162 38,700 139 521 -1472
2019-07-19 13:34:41 GMT 53.364761 -2.773028 38,850 139 517 -1536
2019-07-19 13:34:37 GMT 53.371857 -2.783465 39,000 139 513 0
2019-07-19 13:34:34 GMT 53.379044 -2.793666 38,950 139 515 -896
2019-07-19 13:34:31 GMT 53.388840 -2.809047 39,000 139 513 64
2019-07-19 13:34:28 GMT 53.388840 -2.809047 39,000 139 513 64
2019-07-19 13:34:25 GMT 53.400330 -2.824585 39,000 139 512 0
2019-07-19 13:34:22 GMT 53.400330 -2.824585 39,000 139 512 -64
2019-07-19 13:34:18 GMT 53.407791 -2.834630 39,000 139 512 -128
2019-07-19 13:34:15 GMT 53.411453 -2.839809 39,000 139 512 0
2019-07-19 13:34:12 GMT 53.416691 -2.847559 39,000 139 512 0
2019-07-19 13:34:09 GMT 53.424046 -2.857738 39,000 139 512 0
2019-07-19 13:34:06 GMT 53.429443 -2.865313 39,000 139 512 64
2019-07-19 13:34:03 GMT 53.434055 -2.873167 39,000 139 512 0
2019-07-19 13:34:00 GMT 53.440018 -2.880929 39,000 139 512 128
2019-07-19 13:33:57 GMT 53.443588 -2.886030 39,000 139 512 0
2019-07-19 13:33:54 GMT 53.454666 -2.901411 39,000 139 512 128
2019-07-19 13:33:48 GMT 53.462036 -2.911612 39,000 139 512 64
2019-07-19 13:33:45 GMT 53.466782 -2.919374 39,000 139 512 0
2019-07-19 13:33:42 GMT 53.472107 -2.926993 39,000 139 512 0
2019-07-19 13:33:39 GMT 53.476501 -2.932251 39,000 139 512 0
2019-07-19 13:33:36 GMT 53.482098 -2.939893 39,000 139 512 0
2019-07-19 13:33:33 GMT 53.486801 -2.947632 39,000 139 512 0
2019-07-19 13:33:30 GMT 53.498016 -2.962856 39,000 139 512 0
2019-07-19 13:33:24 GMT 53.503742 -2.970752 39,000 139 512 -64
2019-07-19 13:33:20 GMT 53.511887 -2.983416 39,000 139 512 -64
2019-07-19 13:33:17 GMT 53.516602 -2.988674 39,000 139 512 -64
2019-07-19 13:33:14 GMT 53.522095 -2.999032 39,000 139 512 0
2019-07-19 13:33:11 GMT 53.528229 -3.006700 39,000 139 512 -64
2019-07-19 13:33:08 GMT 53.532513 -3.011789 39,000 139 512 0
2019-07-19 13:33:05 GMT 53.537155 -3.019435 39,000 139 512 128
2019-07-19 13:33:02 GMT 53.544708 -3.029951 39,000 139 511 -64
2019-07-19 13:32:59 GMT 53.548050 -3.035052 39,000 139 512 64
2019-07-19 13:32:56 GMT 53.560818 -3.053068 39,000 139 512 64
2019-07-19 13:32:53 GMT 53.566132 -3.060713 39,000 139 511 64
2019-07-19 13:32:50 GMT 53.566132 -3.060713 39,000 139 511 -64
2019-07-19 13:32:47 GMT 53.571106 -3.068578 39,025 139 512 0
2019-07-19 13:32:44 GMT 53.575436 -3.073829 39,000 139 512 0
2019-07-19 13:32:41 GMT 53.580872 -3.081351 39,000 139 511 0
2019-07-19 13:32:38 GMT 53.587189 -3.091710 39,000 139 511 64
2019-07-19 13:32:35 GMT 53.591904 -3.096889 39,000 139 510 64
2019-07-19 13:32:32 GMT 53.596523 -3.104607 39,000 139 511 0
2019-07-19 13:32:29 GMT 53.604343 -3.115028 39,000 139 510 0
2019-07-19 13:32:26 GMT 53.608021 -3.120036 39,000 139 510 0
2019-07-19 13:32:23 GMT 53.614536 -3.130457 39,000 139 510 0
2019-07-19 13:32:20 GMT 53.618450 -3.135547 39,000 139 510 0
2019-07-19 13:32:17 GMT 53.624592 -3.145967 39,000 139 508 -64
2019-07-19 13:32:14 GMT 53.635395 -3.161316 39,000 139 510 64
2019-07-19 13:32:11 GMT 53.635395 -3.161316 39,000 139 510 64
2019-07-19 13:32:07 GMT 53.642654 -3.171818 39,000 139 510 64
2019-07-19 13:32:04 GMT 53.648666 -3.179443 39,000 139 510 64
2019-07-19 13:32:01 GMT 53.653271 -3.187328 39,000 139 510 64
2019-07-19 13:31:58 GMT 53.664162 -3.202757 39,000 139 510 64
2019-07-19 13:31:52 GMT 53.671005 -3.210519 39,000 139 509 0
2019-07-19 13:31:49 GMT 53.676311 -3.218186 39,000 139 509 0
2019-07-19 13:31:46 GMT 53.679852 -3.223276 39,000 139 509 64
2019-07-19 13:31:43 GMT 53.685486 -3.233777 39,000 139 509 64
2019-07-19 13:31:37 GMT 53.696705 -3.249207 39,000 139 509 0
2019-07-19 13:31:34 GMT 53.700706 -3.254457 39,000 139 509 0
2019-07-19 13:31:31 GMT 53.708157 -3.264636 39,000 139 509 0
2019-07-19 13:31:28 GMT 53.710808 -3.269887 39,000 139 509 0
2019-07-19 13:31:25 GMT 53.718956 -3.279984 39,000 139 509 0
2019-07-19 13:31:22 GMT 53.723236 -3.287737 39,000 139 509 0
2019-07-19 13:31:19 GMT 53.727448 -3.293073 39,000 139 509 0
2019-07-19 13:31:13 GMT 53.739483 -3.310924 39,000 139 508 -64
2019-07-19 13:31:10 GMT 53.745804 -3.318813 39,000 139 509 0
2019-07-19 13:31:07 GMT 53.751354 -3.326596 39,000 139 509 0
2019-07-19 13:31:03 GMT 53.755737 -3.334272 39,000 139 509 -64
2019-07-19 13:31:00 GMT 53.763519 -3.344788 39,000 139 509 0
2019-07-19 13:30:57 GMT 53.766266 -3.349810 39,000 139 509 64
2019-07-19 13:30:54 GMT 53.772903 -3.360247 39,000 139 509 0
2019-07-19 13:30:51 GMT 53.777893 -3.365426 39,000 139 509 0
2019-07-19 13:30:48 GMT 53.782310 -3.373126 39,000 139 508 64
2019-07-19 13:30:45 GMT 53.788467 -3.381042 39,000 139 508 0
2019-07-19 13:30:42 GMT 53.794876 -3.391323 39,000 139 508 0
2019-07-19 13:30:39 GMT 53.800701 -3.399057 39,000 139 508 0
2019-07-19 13:30:36 GMT 53.803959 -3.404146 39,000 139 508 0
2019-07-19 13:30:33 GMT 53.811359 -3.414567 39,000 139 508 0
2019-07-19 13:30:30 GMT 53.815704 -3.422241 39,000 139 508 0
2019-07-19 13:30:26 GMT 53.822300 -3.429996 39,000 139 508 0
2019-07-19 13:30:23 GMT 53.829750 -3.440579 39,000 139 508 0
2019-07-19 13:30:20 GMT 53.833603 -3.448295 39,000 139 507 0
2019-07-19 13:30:17 GMT 53.839806 -3.456008 39,000 139 507 0
2019-07-19 13:30:13 GMT 53.844589 -3.463754 39,000 139 507 64
2019-07-19 13:30:10 GMT 53.850185 -3.471599 39,000 139 507 64
2019-07-19 13:30:07 GMT 53.856400 -3.479370 39,000 139 507 0
2019-07-19 13:30:04 GMT 53.868946 -3.497449 39,000 139 508 0
2019-07-19 13:30:00 GMT 53.868946 -3.497449 39,000 139 507 0
2019-07-19 13:29:57 GMT 53.875835 -3.507708 39,000 139 507 0
2019-07-19 13:29:54 GMT 53.879513 -3.513121 39,000 139 507 64
2019-07-19 13:29:51 GMT 53.884048 -3.520726 39,000 139 508 0
2019-07-19 13:29:48 GMT 53.895493 -3.536342 39,000 139 507 0
2019-07-19 13:29:42 GMT 53.900787 -3.544141 39,000 138 507 0
2019-07-19 13:29:39 GMT 53.911404 -3.559732 39,000 139 507 0
2019-07-19 13:29:33 GMT 53.917828 -3.570153 39,000 139 508 0
2019-07-19 13:29:30 GMT 53.922913 -3.577855 39,000 139 507 64
2019-07-19 13:29:26 GMT 53.930237 -3.588370 39,000 139 507 0
2019-07-19 13:29:23 GMT 53.941086 -3.604065 39,000 139 508 0
2019-07-19 13:29:20 GMT 53.941086 -3.604065 39,000 139 508 0
2019-07-19 13:29:17 GMT 53.946503 -3.611675 39,000 139 508 0
2019-07-19 13:29:14 GMT 53.952415 -3.622176 39,000 139 507 0
2019-07-19 13:29:11 GMT 53.957794 -3.629883 39,000 139 508 64
2019-07-19 13:29:08 GMT 53.961411 -3.635141 39,000 139 508 0
2019-07-19 13:29:05 GMT 53.972992 -3.650914 39,000 138 507 0
2019-07-19 13:29:02 GMT 53.972992 -3.650914 39,000 139 507 0
2019-07-19 13:28:59 GMT 53.978622 -3.658609 39,000 138 507 0
2019-07-19 13:28:56 GMT 53.982300 -3.663779 39,000 138 507 0
2019-07-19 13:28:53 GMT 53.987274 -3.671631 39,000 139 508 64
2019-07-19 13:28:50 GMT 53.992496 -3.679531 39,000 139 508 64
2019-07-19 13:28:46 GMT 53.999943 -3.690033 39,000 138 507 0
2019-07-19 13:28:43 GMT 54.005901 -3.700373 39,000 138 507 0
2019-07-19 13:28:40 GMT 54.011032 -3.708200 39,000 138 507 64
2019-07-19 13:28:36 GMT 54.020100 -3.721376 39,000 138 507 0
2019-07-19 13:28:33 GMT 54.023685 -3.726385 39,000 139 508 0
2019-07-19 13:28:30 GMT 54.028610 -3.734331 39,000 138 507 0
2019-07-19 13:28:26 GMT 54.034580 -3.742137 39,000 138 507 0
2019-07-19 13:28:23 GMT 54.041004 -3.752639 39,000 138 507 0
2019-07-19 13:28:20 GMT 54.047379 -3.760463 39,000 138 507 0
2019-07-19 13:28:17 GMT 54.050949 -3.765564 39,000 138 507 0
2019-07-19 13:28:14 GMT 54.056690 -3.773561 39,000 138 507 0
2019-07-19 13:28:11 GMT 54.061340 -3.781416 39,000 138 507 0
2019-07-19 13:28:08 GMT 54.066559 -3.789152 39,000 138 506 0
2019-07-19 13:28:05 GMT 54.077778 -3.804985 39,000 138 507 0
2019-07-19 13:27:59 GMT 54.082306 -3.812727 39,000 138 506 0
2019-07-19 13:27:56 GMT 54.089905 -3.823242 39,000 138 506 0
2019-07-19 13:27:51 GMT 54.099098 -3.836329 39,000 138 506 0
2019-07-19 13:27:48 GMT 54.103271 -3.844116 39,000 138 506 0
2019-07-19 13:27:45 GMT 54.115860 -3.862583 39,000 138 506 0
2019-07-19 13:27:41 GMT 54.119259 -3.867591 39,000 138 506 0
2019-07-19 13:27:38 GMT 54.119259 -3.867591 39,000 138 506 0
2019-07-19 13:27:35 GMT 54.125381 -3.875663 39,000 138 506 64
2019-07-19 13:27:32 GMT 54.133038 -3.888675 39,000 138 506 64
2019-07-19 13:27:29 GMT 54.135681 -3.891200 39,000 138 506 64
2019-07-19 13:27:26 GMT 54.142181 -3.901716 39,000 138 505 64
2019-07-19 13:27:20 GMT 54.153030 -3.917332 39,000 138 504 0
2019-07-19 13:27:16 GMT 54.159897 -3.928005 39,000 138 506 64
2019-07-19 13:27:13 GMT 54.163513 -3.933184 39,000 138 505 0
2019-07-19 13:27:10 GMT 54.170700 -3.943621 39,000 138 505 0
2019-07-19 13:27:07 GMT 54.179169 -3.956775 39,000 138 505 0
2019-07-19 13:27:01 GMT 54.185440 -3.964730 39,000 138 504 0
2019-07-19 13:26:58 GMT 54.189877 -3.972527 39,000 138 504 0
2019-07-19 13:26:55 GMT 54.196953 -3.982867 39,000 138 505 64
2019-07-19 13:26:52 GMT 54.202423 -3.990705 39,000 138 505 0
2019-07-19 13:26:49 GMT 54.206039 -3.996120 39,000 138 503 0
2019-07-19 13:26:46 GMT 54.211853 -4.006635 39,000 138 503 0
2019-07-19 13:26:43 GMT 54.217026 -4.011893 39,000 138 504 0
2019-07-19 13:26:40 GMT 54.221535 -4.019542 39,000 138 503 0
2019-07-19 13:26:37 GMT 54.227188 -4.027509 39,000 138 503 64
2019-07-19 13:26:34 GMT 54.232910 -4.037868 39,000 138 503 64
2019-07-19 13:26:30 GMT 54.239735 -4.045877 39,000 138 503 0
2019-07-19 13:26:27 GMT 54.246159 -4.056379 39,000 138 503 0
2019-07-19 13:26:24 GMT 54.249699 -4.061468 39,000 138 503 0
2019-07-19 13:26:21 GMT 54.256306 -4.071889 39,000 138 503 0
2019-07-19 13:26:18 GMT 54.261337 -4.079930 39,000 138 503 0
2019-07-19 13:26:15 GMT 54.264999 -4.085188 39,000 138 502 0
2019-07-19 13:26:12 GMT 54.271111 -4.093053 39,000 138 502 0
2019-07-19 13:26:09 GMT 54.275711 -4.100725 39,000 138 502 -64
2019-07-19 13:26:06 GMT 54.282257 -4.111310 39,000 138 501 -64
2019-07-19 13:26:02 GMT 54.288475 -4.119124 39,000 138 501 0
2019-07-19 13:25:59 GMT 54.293793 -4.127063 39,000 138 501 0
2019-07-19 13:25:56 GMT 54.300476 -4.137403 39,000 138 500 0
2019-07-19 13:25:53 GMT 54.309097 -4.150585 39,000 138 500 64
2019-07-19 13:25:47 GMT 54.314964 -4.160989 39,000 138 500 0
2019-07-19 13:25:44 GMT 54.320435 -4.168746 39,000 138 500 64
2019-07-19 13:25:41 GMT 54.324005 -4.174078 39,000 138 500 64
2019-07-19 13:25:38 GMT 54.331696 -4.184337 39,000 138 499 0
2019-07-19 13:25:35 GMT 54.335175 -4.189588 39,000 138 498 0
2019-07-19 13:25:32 GMT 54.340473 -4.197610 39,000 138 499 64
2019-07-19 13:25:29 GMT 54.345703 -4.205421 39,000 138 499 0
2019-07-19 13:25:26 GMT 54.352432 -4.215761 39,000 138 498 0
2019-07-19 13:25:23 GMT 54.356583 -4.223661 39,000 138 498 0
2019-07-19 13:25:20 GMT 54.360958 -4.228654 39,000 138 498 0
2019-07-19 13:25:17 GMT 54.368034 -4.239141 39,000 138 498 64
2019-07-19 13:25:13 GMT 54.373215 -4.246943 39,000 138 498 0
2019-07-19 13:25:10 GMT 54.378460 -4.254872 39,000 138 498 0
2019-07-19 13:25:06 GMT 54.385536 -4.265275 39,000 138 498 0
2019-07-19 13:25:03 GMT 54.389877 -4.273197 39,000 138 498 0
2019-07-19 13:25:00 GMT 54.395267 -4.280839 39,000 138 498 64
2019-07-19 13:24:57 GMT 54.401093 -4.288869 39,000 138 498 64
2019-07-19 13:24:53 GMT 54.409512 -4.301897 39,000 138 498 64
2019-07-19 13:24:50 GMT 54.414825 -4.309630 39,000 138 498 0
2019-07-19 13:24:47 GMT 54.418541 -4.317377 39,000 138 498 0
2019-07-19 13:24:44 GMT 54.424576 -4.325301 39,000 138 498 0
2019-07-19 13:24:41 GMT 54.429016 -4.333274 39,000 138 498 64
2019-07-19 13:24:38 GMT 54.432507 -4.338268 39,000 138 498 0
2019-07-19 13:24:35 GMT 54.437439 -4.346305 39,000 138 498 0
2019-07-19 13:24:32 GMT 54.444191 -4.354082 39,000 138 498 0
2019-07-19 13:24:29 GMT 54.455383 -4.372316 39,000 138 497 0
2019-07-19 13:24:26 GMT 54.455383 -4.372316 39,000 138 497 0
2019-07-19 13:24:23 GMT 54.461369 -4.380299 39,000 138 498 0
2019-07-19 13:24:20 GMT 54.465866 -4.388149 39,000 138 498 0
2019-07-19 13:24:15 GMT 54.472733 -4.398570 39,000 138 497 0
2019-07-19 13:24:12 GMT 54.483398 -4.414242 39,000 138 496 0
2019-07-19 13:24:06 GMT 54.490265 -4.424663 39,000 138 496 0
2019-07-19 13:24:03 GMT 54.493927 -4.429833 39,000 138 497 0
2019-07-19 13:24:00 GMT 54.498425 -4.437644 39,000 138 497 0
2019-07-19 13:23:57 GMT 54.503998 -4.445585 39,000 138 497 0
2019-07-19 13:23:54 GMT 54.509365 -4.453291 39,000 138 497 64
2019-07-19 13:23:51 GMT 54.513565 -4.461257 39,000 138 497 0
2019-07-19 13:23:48 GMT 54.519096 -4.469105 39,000 138 497 0
2019-07-19 13:23:45 GMT 54.524460 -4.476848 39,000 138 497 0
2019-07-19 13:23:42 GMT 54.529709 -4.484836 39,000 138 496 0
2019-07-19 13:23:39 GMT 54.534622 -4.492600 39,000 138 497 0
2019-07-19 13:23:36 GMT 54.545151 -4.508514 39,000 138 497 0
2019-07-19 13:23:30 GMT 54.550919 -4.518935 39,000 138 497 0
2019-07-19 13:23:27 GMT 54.555313 -4.524105 39,000 138 497 0
2019-07-19 13:23:24 GMT 54.560528 -4.532110 39,000 138 497 0
2019-07-19 13:23:21 GMT 54.565750 -4.540100 39,000 138 497 64
2019-07-19 13:23:18 GMT 54.570766 -4.547757 39,000 138 497 0
2019-07-19 13:23:15 GMT 54.574905 -4.555691 39,000 138 497 0
2019-07-19 13:23:12 GMT 54.582642 -4.566273 39,000 138 497 0
2019-07-19 13:23:08 GMT 54.587994 -4.574224 39,000 138 497 0
2019-07-19 13:23:04 GMT 54.594650 -4.584628 39,000 138 497 64
2019-07-19 13:23:01 GMT 54.600746 -4.595115 39,000 138 497 0
2019-07-19 13:22:58 GMT 54.606125 -4.603110 39,000 138 497 0
2019-07-19 13:22:54 GMT 54.618252 -4.621416 39,000 138 497 0
2019-07-19 13:22:50 GMT 54.618252 -4.621416 39,000 138 499 0
2019-07-19 13:22:47 GMT 54.623886 -4.629606 39,000 138 497 0
2019-07-19 13:22:44 GMT 54.629330 -4.637396 39,000 138 497 0
2019-07-19 13:22:41 GMT 54.634552 -4.645197 39,000 138 498 0
2019-07-19 13:22:38 GMT 54.641281 -4.655780 39,000 138 498 0
2019-07-19 13:22:34 GMT 54.647781 -4.666281 39,000 138 498 0
2019-07-19 13:22:31 GMT 54.652096 -4.674266 39,000 138 498 0
2019-07-19 13:22:28 GMT 54.662018 -4.687688 39,000 138 498 0
2019-07-19 13:22:22 GMT 54.673462 -4.706143 39,000 138 498 0
2019-07-19 13:22:19 GMT 54.673462 -4.706143 39,000 138 498 0
2019-07-19 13:22:16 GMT 54.676720 -4.711470 39,000 138 498 0
2019-07-19 13:22:13 GMT 54.682480 -4.719274 39,000 138 499 0
2019-07-19 13:22:10 GMT 54.687195 -4.727367 39,000 138 499 64
2019-07-19 13:22:07 GMT 54.693897 -4.737937 39,000 138 499 0
2019-07-19 13:22:04 GMT 54.697994 -4.743181 39,000 138 499 0
2019-07-19 13:22:01 GMT 54.702850 -4.751183 39,000 138 499 0
2019-07-19 13:21:57 GMT 54.709763 -4.761927 39,000 138 500 0
2019-07-19 13:21:54 GMT 54.716034 -4.772429 39,000 138 500 0
2019-07-19 13:21:51 GMT 54.720566 -4.777841 39,000 138 499 64
2019-07-19 13:21:48 GMT 54.724342 -4.785794 39,000 138 499 0
2019-07-19 13:21:45 GMT 54.730499 -4.793755 39,000 138 500 0
2019-07-19 13:21:42 GMT 54.736771 -4.804499 39,000 138 500 0
2019-07-19 13:21:39 GMT 54.741337 -4.812428 39,000 138 500 0
2019-07-19 13:21:36 GMT 54.747574 -4.820413 39,000 138 499 0
2019-07-19 13:21:33 GMT 54.750137 -4.825745 39,000 138 499 0
2019-07-19 13:21:30 GMT 54.756699 -4.833818 39,000 138 499 0
2019-07-19 13:21:26 GMT 54.763687 -4.847071 39,000 138 499 0
2019-07-19 13:21:23 GMT 54.768723 -4.852403 39,000 137 500 0
2019-07-19 13:21:20 GMT 54.774124 -4.862985 39,000 137 500 0
2019-07-19 13:21:16 GMT 54.782768 -4.876348 39,000 137 500 0
2019-07-19 13:21:13 GMT 54.792114 -4.889885 39,000 138 501 0
2019-07-19 13:21:10 GMT 54.792114 -4.889885 39,000 138 501 0
2019-07-19 13:21:07 GMT 54.795502 -4.895136 39,000 137 500 0
2019-07-19 13:21:04 GMT 54.802368 -4.905799 39,000 137 500 0
2019-07-19 13:21:01 GMT 54.807766 -4.913968 39,000 137 500 0
2019-07-19 13:20:58 GMT 54.812393 -4.922037 39,000 137 500 0
2019-07-19 13:20:55 GMT 54.816925 -4.927449 39,000 137 500 0
2019-07-19 13:20:52 GMT 54.821404 -4.935275 39,000 137 500 0
2019-07-19 13:20:49 GMT 54.827644 -4.946012 39,000 137 500 0
2019-07-19 13:20:46 GMT 54.837433 -4.959439 39,000 137 500 0
2019-07-19 13:20:43 GMT 54.837433 -4.959439 39,000 137 500 0
2019-07-19 13:20:40 GMT 54.842354 -4.967735 39,000 137 500 0
2019-07-19 13:20:37 GMT 54.848125 -4.978305 39,000 137 501 0
2019-07-19 13:20:34 GMT 54.851616 -4.983798 39,000 137 501 0
2019-07-19 13:20:31 GMT 54.858742 -4.994368 39,000 137 501 64
2019-07-19 13:20:27 GMT 54.866653 -5.005188 39,000 137 501 0
2019-07-19 13:20:24 GMT 54.871994 -5.013401 39,000 137 501 64
2019-07-19 13:20:20 GMT 54.876896 -5.021418 39,000 137 502 0
2019-07-19 13:20:17 GMT 54.881927 -5.029315 39,000 137 501 0
2019-07-19 13:20:14 GMT 54.887375 -5.037555 39,000 137 502 0
2019-07-19 13:20:11 GMT 54.891678 -5.045633 39,000 137 501 64
2019-07-19 13:20:08 GMT 54.897518 -5.053711 39,000 137 501 0
2019-07-19 13:20:04 GMT 54.904129 -5.064364 39,000 137 502 0
2019-07-19 13:20:01 GMT 54.909622 -5.072372 39,000 137 502 0
2019-07-19 13:19:58 GMT 54.914696 -5.080677 39,000 137 502 64
2019-07-19 13:19:55 GMT 54.920326 -5.091248 39,000 137 502 0
2019-07-19 13:19:52 GMT 54.924564 -5.096824 39,000 137 502 0
2019-07-19 13:19:48 GMT 54.931454 -5.107644 39,000 137 502 -64
2019-07-19 13:19:45 GMT 54.936905 -5.115590 39,000 137 502 -64
2019-07-19 13:19:42 GMT 54.942253 -5.123707 39,000 137 502 -64
2019-07-19 13:19:39 GMT 54.947887 -5.134361 39,000 137 502 0
2019-07-19 13:19:35 GMT 54.954117 -5.142571 39,000 137 502 -64
2019-07-19 13:19:32 GMT 54.960388 -5.153396 39,000 137 502 -64
2019-07-19 13:19:29 GMT 54.964279 -5.158727 39,000 137 502 -64
2019-07-19 13:19:26 GMT 54.969208 -5.166987 39,000 137 502 -64
2019-07-19 13:19:23 GMT 54.975266 -5.175045 39,000 137 501 64
2019-07-19 13:19:20 GMT 54.979588 -5.183050 39,000 137 501 128
2019-07-19 13:19:17 GMT 54.985565 -5.191282 39,000 137 502 0
2019-07-19 13:19:14 GMT 54.990623 -5.199363 39,000 137 501 0
2019-07-19 13:19:11 GMT 54.997650 -5.210266 39,000 137 501 0
2019-07-19 13:19:08 GMT 55.001083 -5.218344 39,000 137 502 0
2019-07-19 13:19:05 GMT 55.011196 -5.231823 39,000 137 502 64
2019-07-19 13:18:59 GMT 55.015549 -5.240075 39,000 137 501 64
2019-07-19 13:18:56 GMT 55.028595 -5.261805 39,000 137 502 0
2019-07-19 13:18:52 GMT 55.028595 -5.261805 39,000 137 502 0
2019-07-19 13:18:49 GMT 55.033916 -5.270025 39,000 137 502 64
2019-07-19 13:18:46 GMT 55.038429 -5.275518 39,000 137 502 64
2019-07-19 13:18:43 GMT 55.044250 -5.286338 39,000 137 502 64
2019-07-19 13:18:40 GMT 55.050293 -5.294360 39,000 137 502 64
2019-07-19 13:18:36 GMT 55.061291 -5.313388 39,000 137 502 0
2019-07-19 13:18:33 GMT 55.066177 -5.318964 39,000 137 502 0
2019-07-19 13:18:30 GMT 55.071529 -5.329867 39,000 137 503 0
2019-07-19 13:18:24 GMT 55.076046 -5.335194 39,000 137 503 64
2019-07-19 13:18:21 GMT 55.081238 -5.343395 39,000 137 503 64
2019-07-19 13:18:18 GMT 55.086567 -5.351590 39,000 137 503 64
2019-07-19 13:18:14 GMT 55.092758 -5.362577 39,000 137 503 64
2019-07-19 13:18:11 GMT 55.098450 -5.370780 39,000 137 503 0
2019-07-19 13:18:08 GMT 55.103512 -5.378806 39,000 137 503 64
2019-07-19 13:18:05 GMT 55.110725 -5.389793 39,000 137 503 64
2019-07-19 13:18:02 GMT 55.114174 -5.395203 39,000 137 503 64
2019-07-19 13:17:58 GMT 55.125824 -5.414321 39,000 137 503 0
2019-07-19 13:17:52 GMT 55.131958 -5.425469 39,000 137 503 0
2019-07-19 13:17:49 GMT 55.141685 -5.439065 39,000 137 503 0
2019-07-19 13:17:46 GMT 55.141685 -5.439065 39,000 137 503 0
2019-07-19 13:17:43 GMT 55.147038 -5.450051 39,000 137 503 0
2019-07-19 13:17:40 GMT 55.152065 -5.455627 39,000 137 503 0
2019-07-19 13:17:37 GMT 55.165798 -5.477517 39,000 137 503 0
2019-07-19 13:17:33 GMT 55.165798 -5.477517 39,000 137 503 0
2019-07-19 13:17:30 GMT 55.169449 -5.485571 39,000 137 503 0
2019-07-19 13:17:27 GMT 55.173843 -5.491145 39,000 137 504 0
2019-07-19 13:17:24 GMT 55.179111 -5.499323 39,000 137 504 0
2019-07-19 13:17:21 GMT 55.191605 -5.518610 39,000 137 504 -64
2019-07-19 13:17:17 GMT 55.191605 -5.518610 39,000 137 504 -64
2019-07-19 13:17:12 GMT 55.201904 -5.535090 39,000 137 504 0
2019-07-19 13:17:09 GMT 55.207138 -5.543435 39,000 137 503 0
2019-07-19 13:17:06 GMT 55.209465 -5.548845 39,000 137 504 0
2019-07-19 13:17:03 GMT 55.217285 -5.559665 39,000 137 504 -64
2019-07-19 13:16:59 GMT 55.222549 -5.568049 39,000 137 504 0
2019-07-19 13:16:55 GMT 55.228638 -5.578954 39,000 137 504 64
2019-07-19 13:16:52 GMT 55.234322 -5.587214 39,000 137 504 64
2019-07-19 13:16:49 GMT 55.240978 -5.598283 39,000 137 504 0
2019-07-19 13:16:45 GMT 55.246445 -5.606743 39,000 137 503 0
2019-07-19 13:16:41 GMT 55.258297 -5.626082 39,000 137 504 0
2019-07-19 13:16:38 GMT 55.263794 -5.634371 39,000 137 503 64
2019-07-19 13:16:35 GMT 55.263794 -5.634371 39,000 137 504 0
2019-07-19 13:16:31 GMT 55.276062 -5.656263 39,000 137 504 0
2019-07-19 13:16:28 GMT 55.276062 -5.656263 39,000 137 503 0
2019-07-19 13:16:23 GMT 55.283707 -5.667168 39,000 137 504 0
2019-07-19 13:16:20 GMT 55.293961 -5.683971 39,000 137 503 -64
2019-07-19 13:16:14 GMT 55.306152 -5.703319 39,000 137 503 64
2019-07-19 13:16:10 GMT 55.306152 -5.703319 39,000 137 503 0
2019-07-19 13:16:07 GMT 55.311493 -5.711679 39,000 137 503 0
2019-07-19 13:16:04 GMT 55.316441 -5.719965 39,000 137 503 -64
2019-07-19 13:16:01 GMT 55.323990 -5.733490 39,000 137 503 0
2019-07-19 13:15:57 GMT 55.328568 -5.739225 39,000 137 503 0
2019-07-19 13:15:54 GMT 55.332874 -5.747597 39,000 137 503 64
2019-07-19 13:15:50 GMT 55.341202 -5.761279 39,000 137 503 0
2019-07-19 13:15:47 GMT 55.346233 -5.769487 39,000 137 503 0
2019-07-19 13:15:44 GMT 55.350704 -5.774980 39,000 137 503 0
2019-07-19 13:15:40 GMT 55.359783 -5.791709 39,000 137 503 0
2019-07-19 13:15:36 GMT 55.366379 -5.799812 39,000 137 503 0
2019-07-19 13:15:33 GMT 55.376038 -5.816534 39,000 137 503 64
2019-07-19 13:15:29 GMT 55.376038 -5.816534 39,000 137 503 0
2019-07-19 13:15:26 GMT 55.380451 -5.824835 39,000 137 503 0
2019-07-19 13:15:22 GMT 55.393997 -5.847057 39,000 137 503 64
2019-07-19 13:15:19 GMT 55.398327 -5.852717 39,000 137 503 0
2019-07-19 13:15:12 GMT 55.406387 -5.866376 39,000 137 503 0
2019-07-19 13:15:09 GMT 55.410736 -5.872031 39,000 137 502 64
2019-07-19 13:15:06 GMT 55.415783 -5.880182 39,000 137 502 0
2019-07-19 13:15:02 GMT 55.424332 -5.894165 39,000 137 502 0
2019-07-19 13:14:59 GMT 55.428398 -5.902405 39,000 137 502 64
2019-07-19 13:14:56 GMT 55.433533 -5.910806 39,000 137 503 64
2019-07-19 13:14:53 GMT 55.437973 -5.916299 39,000 137 502 0
2019-07-19 13:14:50 GMT 55.443157 -5.924461 39,000 137 502 0
2019-07-19 13:14:47 GMT 55.449116 -5.935793 39,000 137 502 -64
2019-07-19 13:14:44 GMT 55.453163 -5.941372 39,000 137 502 0
2019-07-19 13:14:41 GMT 55.460541 -5.955006 39,000 137 502 -64
2019-07-19 13:14:38 GMT 55.463314 -5.957851 39,000 137 502 0
2019-07-19 13:14:35 GMT 55.468643 -5.966242 39,000 137 501 0
2019-07-19 13:14:32 GMT 55.473927 -5.974588 39,000 137 501 0
2019-07-19 13:14:29 GMT 55.478394 -5.982971 39,000 137 501 0
2019-07-19 13:14:26 GMT 55.484169 -5.991325 39,000 136 503 0
2019-07-19 13:14:23 GMT 55.489243 -5.999617 39,000 137 501 0
2019-07-19 13:14:20 GMT 55.496181 -6.013470 39,000 137 501 64
2019-07-19 13:14:17 GMT 55.500324 -6.018791 39,000 137 502 64
2019-07-19 13:14:14 GMT 55.504372 -6.024628 39,000 137 502 64
2019-07-19 13:14:11 GMT 55.508514 -6.032826 39,000 137 501 64
2019-07-19 13:14:07 GMT 55.516342 -6.043979 39,000 136 502 0
2019-07-19 13:14:04 GMT 55.522293 -6.055048 39,000 137 502 0
2019-07-19 13:14:01 GMT 55.526001 -6.060625 39,000 137 502 0
2019-07-19 13:13:57 GMT 55.533794 -6.074495 39,000 137 502 0
2019-07-19 13:13:54 GMT 55.538681 -6.082847 39,000 137 502 0
2019-07-19 13:13:51 GMT 55.548271 -6.096897 39,000 137 502 -64
2019-07-19 13:13:48 GMT 55.554092 -6.108141 39,000 137 502 -64
2019-07-19 13:13:45 GMT 55.554092 -6.108141 39,000 137 501 0
2019-07-19 13:13:42 GMT 55.558884 -6.113634 39,000 136 502 64
2019-07-19 13:13:39 GMT 55.565727 -6.124878 39,000 136 502 64
2019-07-19 13:13:36 GMT 55.570129 -6.133118 39,000 136 502 64
2019-07-19 13:13:33 GMT 55.574249 -6.141615 39,000 136 502 64
2019-07-19 13:13:30 GMT 55.579090 -6.147108 39,000 136 502 64
2019-07-19 13:13:27 GMT 55.589237 -6.163759 39,000 136 502 64
2019-07-19 13:13:24 GMT 55.589237 -6.163759 39,000 137 503 0
2019-07-19 13:13:21 GMT 55.594391 -6.172236 39,000 137 501 0
2019-07-19 13:13:16 GMT 55.602364 -6.186247 39,000 136 502 0
2019-07-19 13:13:13 GMT 55.607895 -6.194541 39,000 136 502 0
2019-07-19 13:13:09 GMT 55.614670 -6.205944 39,000 136 502 0
2019-07-19 13:13:04 GMT 55.623825 -6.222673 39,000 136 500 0
2019-07-19 13:12:58 GMT 55.640808 -6.250472 39,000 136 502 0
2019-07-19 13:12:54 GMT 55.645020 -6.256298 39,000 136 502 64
2019-07-19 13:12:48 GMT 55.649940 -6.264439 39,000 136 502 0
2019-07-19 13:12:45 GMT 55.655045 -6.272860 39,000 136 502 0
2019-07-19 13:12:42 GMT 55.660229 -6.281347 39,000 136 502 0
2019-07-19 13:12:39 GMT 55.667027 -6.292677 39,000 136 503 0
2019-07-19 13:12:36 GMT 55.671844 -6.300826 39,000 136 502 0
2019-07-19 13:12:33 GMT 55.680202 -6.314993 39,000 136 502 0
2019-07-19 13:12:27 GMT 55.685577 -6.323381 39,000 136 503 0
2019-07-19 13:12:24 GMT 55.691757 -6.334783 39,000 136 503 64
2019-07-19 13:12:20 GMT 55.698303 -6.345936 39,000 136 503 64
2019-07-19 13:12:17 GMT 55.701920 -6.351596 39,000 136 502 64
2019-07-19 13:12:14 GMT 55.707947 -6.359882 39,000 137 503 0
2019-07-19 13:12:11 GMT 55.713951 -6.371212 39,000 137 503 0
2019-07-19 13:12:05 GMT 55.723633 -6.388121 39,000 136 502 0
2019-07-19 13:12:02 GMT 55.728882 -6.396540 39,000 136 502 0
2019-07-19 13:11:58 GMT 55.734947 -6.404858 39,000 136 503 0
2019-07-19 13:11:53 GMT 55.744629 -6.421766 39,000 136 503 0
2019-07-19 13:11:50 GMT 55.749847 -6.430248 39,000 136 503 0
2019-07-19 13:11:44 GMT 55.760468 -6.447060 39,000 136 503 0
2019-07-19 13:11:41 GMT 55.763077 -6.452803 39,000 136 503 0
2019-07-19 13:11:38 GMT 55.767578 -6.461163 39,000 136 503 0
2019-07-19 13:11:35 GMT 55.774063 -6.469699 39,000 136 503 0
2019-07-19 13:11:32 GMT 55.779922 -6.480935 39,000 136 502 0
2019-07-19 13:11:29 GMT 55.788528 -6.495323 39,000 136 503 64
2019-07-19 13:11:23 GMT 55.794250 -6.503740 39,000 136 503 0
2019-07-19 13:11:20 GMT 55.799095 -6.512146 39,000 136 503 0
2019-07-19 13:11:17 GMT 55.803406 -6.520802 39,000 136 504 64
2019-07-19 13:11:14 GMT 55.809292 -6.529226 39,000 136 504 0
2019-07-19 13:11:11 GMT 55.815575 -6.540556 39,000 136 504 0
2019-07-19 13:11:07 GMT 55.826374 -6.557465 39,000 136 504 0
2019-07-19 13:11:04 GMT 55.826374 -6.557465 39,000 136 504 0
2019-07-19 13:11:01 GMT 55.833172 -6.568880 39,000 136 504 0
2019-07-19 13:10:58 GMT 55.838665 -6.580381 39,000 136 504 0
2019-07-19 13:10:55 GMT 55.841400 -6.583224 39,000 136 504 64
2019-07-19 13:10:51 GMT 55.849743 -6.597204 39,000 136 504 64
2019-07-19 13:10:48 GMT 55.853794 -6.603041 39,000 136 504 64
2019-07-19 13:10:45 GMT 55.857468 -6.611606 39,000 136 504 0
2019-07-19 13:10:42 GMT 55.864059 -6.622925 39,000 136 504 0
2019-07-19 13:10:39 GMT 55.869156 -6.631451 39,000 136 504 0
2019-07-19 13:10:36 GMT 55.872646 -6.637030 39,000 136 504 -128
2019-07-19 13:10:33 GMT 55.878754 -6.645563 39,000 136 505 -128
2019-07-19 13:10:30 GMT 55.884659 -6.657215 39,000 136 505 0
2019-07-19 13:10:27 GMT 55.889420 -6.662875 39,000 136 505 0
2019-07-19 13:10:24 GMT 55.894482 -6.671362 39,000 136 505 0
2019-07-19 13:10:21 GMT 55.903137 -6.688442 39,000 136 505 0
2019-07-19 13:10:14 GMT 55.912308 -6.702742 39,000 136 505 0
2019-07-19 13:10:10 GMT 55.919540 -6.714311 39,000 136 505 0
2019-07-19 13:10:07 GMT 55.923668 -6.722689 39,000 136 505 0
2019-07-19 13:10:04 GMT 55.927906 -6.728525 39,000 136 505 0
2019-07-19 13:10:01 GMT 55.933319 -6.737033 39,000 136 503 0
2019-07-19 13:09:58 GMT 55.938148 -6.745520 39,000 136 505 0
2019-07-19 13:09:54 GMT 55.944805 -6.757021 39,000 136 505 0
2019-07-19 13:09:51 GMT 55.950901 -6.768436 39,000 136 505 64
2019-07-19 13:09:48 GMT 55.955276 -6.774187 39,000 136 505 0
2019-07-19 13:09:43 GMT 55.962936 -6.788635 39,000 136 505 64
2019-07-19 13:09:40 GMT 55.968979 -6.797291 39,000 136 505 0
2019-07-19 13:09:37 GMT 55.972916 -6.805781 39,000 136 505 0
2019-07-19 13:09:34 GMT 55.979736 -6.817350 39,000 136 505 0
2019-07-19 13:09:31 GMT 55.985023 -6.825771 39,000 136 505 64
2019-07-19 13:09:28 GMT 55.988422 -6.831436 39,000 136 505 64
2019-07-19 13:09:25 GMT 55.993973 -6.840071 39,000 136 505 0
2019-07-19 13:09:22 GMT 55.998058 -6.848774 39,000 136 505 0
2019-07-19 13:09:18 GMT 56.005928 -6.860361 39,000 136 505 0
2019-07-19 13:09:15 GMT 56.015514 -6.877441 39,000 136 505 0
2019-07-19 13:09:12 GMT 56.015514 -6.877441 39,000 136 505 0
2019-07-19 13:09:07 GMT 56.024231 -6.891674 39,000 136 505 0
2019-07-19 13:09:04 GMT 56.029388 -6.900358 39,000 136 505 64
2019-07-19 13:09:01 GMT 56.033752 -6.908985 39,000 136 505 0
2019-07-19 13:08:58 GMT 56.040005 -6.917696 39,000 136 505 0
2019-07-19 13:08:55 GMT 56.044556 -6.926131 39,000 136 505 0
2019-07-19 13:08:52 GMT 56.051422 -6.937617 39,000 136 505 0
2019-07-19 13:08:49 GMT 56.054123 -6.943609 39,000 136 504 64
2019-07-19 13:08:46 GMT 56.061264 -6.954928 39,000 136 505 64
2019-07-19 13:08:42 GMT 56.071976 -6.972240 39,000 136 505 0
2019-07-19 13:08:39 GMT 56.071976 -6.972240 39,000 136 505 64
2019-07-19 13:08:36 GMT 56.077194 -6.983726 39,000 136 505 0
2019-07-19 13:08:33 GMT 56.081223 -6.989469 39,000 136 504 0
2019-07-19 13:08:30 GMT 56.088089 -7.000954 39,000 136 504 0
2019-07-19 13:08:26 GMT 56.095818 -7.015285 39,000 136 504 0
2019-07-19 13:08:23 GMT 56.101685 -7.023843 39,000 136 505 0
2019-07-19 13:08:20 GMT 56.104935 -7.029669 39,000 136 505 0
2019-07-19 13:08:17 GMT 56.109009 -7.035495 39,000 136 504 64
2019-07-19 13:08:14 GMT 56.113976 -7.044039 39,000 136 504 0
2019-07-19 13:08:11 GMT 56.120117 -7.055626 39,000 136 504 0
2019-07-19 13:08:08 GMT 56.123611 -7.061377 39,000 136 504 0
2019-07-19 13:08:05 GMT 56.130638 -7.072878 39,000 136 505 0
2019-07-19 13:08:01 GMT 56.136368 -7.084379 39,000 136 505 -64
2019-07-19 13:07:58 GMT 56.140465 -7.090302 39,000 136 505 0
2019-07-19 13:07:55 GMT 56.146515 -7.101803 39,000 136 505 0
2019-07-19 13:07:52 GMT 56.150799 -7.107725 39,000 136 504 0
2019-07-19 13:07:49 GMT 56.156384 -7.119055 39,000 136 504 0
2019-07-19 13:07:46 GMT 56.161514 -7.127797 39,000 136 504 -64
2019-07-19 13:07:42 GMT 56.167557 -7.136478 39,000 136 504 -64
2019-07-19 13:07:36 GMT 56.178680 -7.156677 39,000 136 504 0
2019-07-19 13:07:33 GMT 56.183895 -7.165403 39,000 136 504 0
2019-07-19 13:07:29 GMT 56.188660 -7.174155 39,000 136 504 0
2019-07-19 13:07:26 GMT 56.195251 -7.185558 39,000 136 504 0
2019-07-19 13:07:22 GMT 56.201492 -7.194242 39,000 136 504 0
2019-07-19 13:07:19 GMT 56.206421 -7.203036 39,000 136 504 0
2019-07-19 13:07:15 GMT 56.219055 -7.226257 39,000 136 504 64
2019-07-19 13:07:11 GMT 56.219055 -7.226257 39,000 136 504 0
2019-07-19 13:07:06 GMT 56.228668 -7.243403 39,000 136 504 0
2019-07-19 13:07:03 GMT 56.240456 -7.263680 39,000 136 504 64
2019-07-19 13:06:59 GMT 56.240456 -7.263680 39,000 136 504 0
2019-07-19 13:06:56 GMT 56.244644 -7.269516 39,000 136 504 0
2019-07-19 13:06:53 GMT 56.250744 -7.281189 39,000 136 504 0
2019-07-19 13:06:50 GMT 56.261360 -7.298698 39,000 136 504 0
2019-07-19 13:06:47 GMT 56.261360 -7.298698 39,000 136 504 0
2019-07-19 13:06:44 GMT 56.271042 -7.316036 39,000 135 503 0
2019-07-19 13:06:40 GMT 56.271042 -7.316036 39,000 136 504 0
2019-07-19 13:06:37 GMT 56.276276 -7.324885 39,000 136 504 0
2019-07-19 13:06:34 GMT 56.282169 -7.333546 39,000 135 503 64
2019-07-19 13:06:30 GMT 56.299484 -7.365501 39,000 135 503 64
2019-07-19 13:06:24 GMT 56.299484 -7.365501 39,000 135 503 0
2019-07-19 13:06:20 GMT 56.305443 -7.374144 39,000 135 503 0
2019-07-19 13:06:15 GMT 56.314709 -7.391653 39,000 135 503 64
2019-07-19 13:06:12 GMT 56.319534 -7.400374 39,000 135 503 64
2019-07-19 13:06:09 GMT 56.323792 -7.406283 39,000 135 503 0
2019-07-19 13:06:05 GMT 56.332119 -7.420835 39,000 135 504 0
2019-07-19 13:06:02 GMT 56.334724 -7.426586 39,000 135 504 64
2019-07-19 13:05:59 GMT 56.340042 -7.435164 39,000 135 503 0
2019-07-19 13:05:55 GMT 56.346771 -7.446983 39,000 135 503 0
2019-07-19 13:05:52 GMT 56.358559 -7.467527 39,000 135 503 0
2019-07-19 13:05:49 GMT 56.358559 -7.467527 39,000 135 503 64
2019-07-19 13:05:46 GMT 56.363571 -7.476196 39,000 135 503 0
2019-07-19 13:05:41 GMT 56.372337 -7.490616 39,000 135 503 0
2019-07-19 13:05:38 GMT 56.374805 -7.496367 39,000 135 502 0
2019-07-19 13:05:32 GMT 56.387054 -7.516812 39,000 135 502 0
2019-07-19 13:05:29 GMT 56.391006 -7.525549 39,000 135 502 0
2019-07-19 13:05:26 GMT 56.397171 -7.534291 39,000 135 502 0
2019-07-19 13:05:23 GMT 56.402039 -7.542973 39,000 135 502 0
2019-07-19 13:05:20 GMT 56.405346 -7.548809 39,000 135 502 0
2019-07-19 13:05:13 GMT 56.422012 -7.577991 39,000 135 502 128
2019-07-19 13:05:10 GMT 56.422012 -7.577991 39,000 135 502 0
2019-07-19 13:05:07 GMT 56.427689 -7.589664 39,000 135 502 64
2019-07-19 13:05:04 GMT 56.431881 -7.595587 39,000 135 502 192
2019-07-19 13:05:01 GMT 56.436996 -7.604537 39,000 135 502 0
2019-07-19 13:04:58 GMT 56.441887 -7.613182 39,000 135 502 0
2019-07-19 13:04:55 GMT 56.448963 -7.624941 39,000 135 503 0
2019-07-19 13:04:50 GMT 56.457413 -7.639493 39,000 135 502 0
2019-07-19 13:04:47 GMT 56.460976 -7.648115 39,000 135 502 0
2019-07-19 13:04:42 GMT 56.474167 -7.668790 39,000 135 502 0
2019-07-19 13:04:39 GMT 56.474167 -7.668790 39,000 135 502 0
2019-07-19 13:04:36 GMT 56.479935 -7.680276 39,000 135 502 64
2019-07-19 13:04:30 GMT 56.489639 -7.697920 39,000 135 502 0
2019-07-19 13:04:26 GMT 56.494724 -7.706823 39,000 135 502 0
2019-07-19 13:04:23 GMT 56.499481 -7.715482 39,000 135 502 0
2019-07-19 13:04:19 GMT 56.507126 -7.727300 39,000 135 502 0
2019-07-19 13:04:16 GMT 56.511112 -7.736006 39,000 135 502 64
2019-07-19 13:04:13 GMT 56.521259 -7.753687 39,000 135 502 0
2019-07-19 13:04:07 GMT 56.528709 -7.765360 39,000 135 502 0
2019-07-19 13:04:04 GMT 56.532013 -7.771196 39,000 135 502 0
2019-07-19 13:04:01 GMT 56.536926 -7.779902 39,000 135 502 0
2019-07-19 13:03:58 GMT 56.542419 -7.791637 39,000 135 502 0
2019-07-19 13:03:53 GMT 56.549423 -7.803372 39,000 135 502 0
2019-07-19 13:03:50 GMT 56.554825 -7.812395 39,000 135 502 0
2019-07-19 13:03:46 GMT 56.563477 -7.826843 39,000 135 502 0
2019-07-19 13:03:40 GMT 56.571304 -7.841578 39,000 135 502 0
2019-07-19 13:03:37 GMT 56.576294 -7.850481 39,000 135 502 0
2019-07-19 13:03:33 GMT 56.582794 -7.862216 39,000 135 502 0
2019-07-19 13:03:30 GMT 56.588295 -7.870846 39,000 135 502 0
2019-07-19 13:03:27 GMT 56.593552 -7.879944 39,000 135 502 64
2019-07-19 13:03:23 GMT 56.604401 -7.900322 39,000 135 503 64
2019-07-19 13:03:20 GMT 56.604401 -7.900322 39,000 135 502 0
2019-07-19 13:03:17 GMT 56.611340 -7.912105 39,000 135 502 64
2019-07-19 13:03:13 GMT 56.616924 -7.923889 39,000 135 502 -64
2019-07-19 13:03:10 GMT 56.621765 -7.930003 39,000 135 502 -64
2019-07-19 13:03:07 GMT 56.626099 -7.938738 39,000 135 502 -64
2019-07-19 13:03:03 GMT 56.635162 -7.956333 39,000 135 502 -64
2019-07-19 13:02:59 GMT 56.639923 -7.962513 39,000 135 502 0
2019-07-19 13:02:56 GMT 56.656357 -7.991781 39,000 135 502 0
2019-07-19 13:02:49 GMT 56.656357 -7.991781 39,000 135 502 64
2019-07-19 13:02:45 GMT 56.667946 -8.012489 39,000 135 503 64
2019-07-19 13:02:42 GMT 56.667946 -8.012489 39,000 135 503 64
2019-07-19 13:02:39 GMT 56.673019 -8.021564 39,000 135 502 64
2019-07-19 13:02:35 GMT 56.683399 -8.042169 39,000 135 503 0
2019-07-19 13:02:29 GMT 56.689545 -8.051176 39,000 135 503 0
2019-07-19 13:02:26 GMT 56.694618 -8.060066 39,000 135 503 -64
2019-07-19 13:02:19 GMT 56.705704 -8.080616 39,000 135 502 -64
2019-07-19 13:02:13 GMT 56.715683 -8.098555 39,000 135 502 64
2019-07-19 13:02:09 GMT 56.723808 -8.113403 39,000 135 502 64
2019-07-19 13:02:06 GMT 56.727207 -8.119162 39,000 135 502 64
2019-07-19 13:02:03 GMT 56.732162 -8.128166 39,000 135 502 0
2019-07-19 13:01:58 GMT 56.742233 -8.145933 39,000 135 502 0
2019-07-19 13:01:55 GMT 56.750298 -8.160981 39,000 135 503 64
2019-07-19 13:01:52 GMT 56.750298 -8.160981 39,000 135 503 64
2019-07-19 13:01:46 GMT 56.760258 -8.178612 39,000 135 503 64
2019-07-19 13:01:41 GMT 56.768692 -8.193483 39,000 135 503 64
2019-07-19 13:01:37 GMT 56.780277 -8.214407 39,000 135 503 0
2019-07-19 13:01:34 GMT 56.780277 -8.214407 39,000 135 503 0
2019-07-19 13:01:28 GMT 56.790527 -8.235197 39,000 135 503 -64
2019-07-19 13:01:22 GMT 56.799038 -8.250201 39,000 135 503 -128
2019-07-19 13:01:17 GMT 56.815887 -8.280059 39,000 135 503 64
2019-07-19 13:01:12 GMT 56.815887 -8.280059 39,000 135 503 64
2019-07-19 13:01:06 GMT 56.825432 -8.297867 39,000 135 504 0
2019-07-19 13:01:01 GMT 56.834976 -8.312702 39,000 135 504 0
2019-07-19 13:00:54 GMT 56.847473 -8.336477 39,000 135 504 0
2019-07-19 13:00:50 GMT 56.852245 -8.345711 39,000 135 504 0
2019-07-19 13:00:46 GMT 56.859184 -8.357406 39,000 135 504 0
2019-07-19 13:00:43 GMT 56.865654 -8.369367 39,000 135 504 0
2019-07-19 13:00:40 GMT 56.868679 -8.375480 39,000 135 504 0
2019-07-19 13:00:35 GMT 56.877640 -8.390551 39,000 135 504 64
2019-07-19 13:00:32 GMT 56.888699 -8.411540 39,000 135 504 64
2019-07-19 13:00:25 GMT 56.893021 -8.420591 39,000 135 504 0
2019-07-19 13:00:22 GMT 56.903458 -8.438702 39,000 135 504 64
2019-07-19 13:00:15 GMT 56.910370 -8.450632 39,000 135 504 0
2019-07-19 13:00:08 GMT 56.921329 -8.471522 39,000 135 504 0
2019-07-19 13:00:05 GMT 56.926941 -8.480759 39,000 135 505 64
2019-07-19 13:00:00 GMT 56.935959 -8.498783 39,000 135 505 0
2019-07-19 12:59:54 GMT 56.945259 -8.513873 39,000 135 506 64
2019-07-19 12:59:49 GMT 56.953491 -8.528910 39,000 135 505 0
2019-07-19 12:59:44 GMT 56.961643 -8.543819 39,000 135 506 64
2019-07-19 12:59:39 GMT 56.969833 -8.559122 39,000 135 506 0
2019-07-19 12:59:34 GMT 56.978497 -8.574032 39,000 135 506 -64
2019-07-19 12:59:28 GMT 56.988132 -8.592372 39,000 135 506 0
2019-07-19 12:59:24 GMT 56.995022 -8.604333 39,000 135 506 64
2019-07-19 12:59:19 GMT 57.005032 -8.622673 39,000 135 506 0
2019-07-19 12:59:13 GMT 57.011993 -8.637915 39,000 135 506 -64
2019-07-19 12:59:08 GMT 57.021416 -8.653062 39,000 134 506 0
2019-07-19 12:59:00 GMT 57.036732 -8.683452 39,000 134 506 0
2019-07-19 12:58:53 GMT 57.046234 -8.698511 39,000 134 506 -64
2019-07-19 12:58:47 GMT 57.056473 -8.719866 39,000 134 506 0
2019-07-19 12:58:42 GMT 57.063641 -8.732093 39,000 134 506 64
2019-07-19 12:58:36 GMT 57.073650 -8.750256 39,000 134 506 0
2019-07-19 12:58:32 GMT 57.079933 -8.762483 39,000 134 505 0
2019-07-19 12:58:25 GMT 57.092239 -8.783655 39,000 134 506 0
2019-07-19 12:58:20 GMT 57.100697 -8.798986 39,000 134 506 0
2019-07-19 12:58:12 GMT 57.125786 -8.847538 39,000 134 505 0
2019-07-19 12:58:05 GMT 57.125786 -8.847538 39,000 134 505 0
2019-07-19 12:58:00 GMT 57.134720 -8.862877 39,000 134 505 0
2019-07-19 12:57:54 GMT 57.143013 -8.878194 39,000 134 505 0
2019-07-19 12:57:51 GMT 57.147766 -8.887339 39,000 134 505 0
2019-07-19 12:57:47 GMT 57.154449 -8.899441 39,000 134 504 64
2019-07-19 12:57:44 GMT 57.160263 -8.911800 39,000 134 504 64
2019-07-19 12:57:40 GMT 57.165169 -8.920898 39,000 134 504 64
2019-07-19 12:57:37 GMT 57.170837 -8.929996 39,000 134 504 0
2019-07-19 12:57:33 GMT 57.177200 -8.942099 39,000 134 504 0
2019-07-19 12:57:30 GMT 57.182209 -8.951465 39,000 134 504 0
2019-07-19 12:57:23 GMT 57.193726 -8.972826 39,000 134 504 0
2019-07-19 12:57:20 GMT 57.198734 -8.981943 39,000 134 504 0
2019-07-19 12:57:16 GMT 57.204693 -8.994170 39,000 134 504 64
2019-07-19 12:57:13 GMT 57.210526 -9.003210 39,000 134 504 0
2019-07-19 12:57:10 GMT 57.215542 -9.012510 39,000 134 504 0
2019-07-19 12:57:06 GMT 57.222431 -9.024648 39,000 134 504 0
2019-07-19 12:57:03 GMT 57.226822 -9.033937 39,000 134 504 0
2019-07-19 12:56:59 GMT 57.233322 -9.046040 39,000 134 504 -64
2019-07-19 12:56:56 GMT 57.244404 -9.067442 39,000 134 505 64
2019-07-19 12:56:49 GMT 57.249344 -9.076681 39,000 134 505 64
2019-07-19 12:56:42 GMT 57.260464 -9.098186 39,000 134 504 0
2019-07-19 12:56:39 GMT 57.266464 -9.107237 39,000 134 505 0
2019-07-19 12:56:35 GMT 57.273544 -9.122639 39,000 134 505 -64
2019-07-19 12:56:31 GMT 57.278320 -9.131870 39,000 134 505 0
2019-07-19 12:56:28 GMT 57.283554 -9.141068 39,000 134 504 0
2019-07-19 12:56:22 GMT 57.294353 -9.159585 39,000 134 505 0
2019-07-19 12:56:18 GMT 57.300266 -9.171901 39,000 134 505 0
2019-07-19 12:56:11 GMT 57.311234 -9.193411 39,000 134 505 64
2019-07-19 12:56:07 GMT 57.319027 -9.208758 39,000 134 505 0
2019-07-19 12:56:03 GMT 57.324966 -9.218130 39,000 134 505 64
2019-07-19 12:55:58 GMT 57.333504 -9.233300 39,000 134 505 0
2019-07-19 12:55:50 GMT 57.345840 -9.258108 39,000 134 505 64
2019-07-19 12:55:47 GMT 57.350693 -9.267225 39,000 134 505 0
2019-07-19 12:55:40 GMT 57.362087 -9.288940 39,000 134 505 0
2019-07-19 12:55:37 GMT 57.367996 -9.298124 39,000 134 505 0
2019-07-19 12:55:31 GMT 57.377792 -9.316750 39,000 134 507 0
2019-07-19 12:55:27 GMT 57.384155 -9.328766 39,000 134 505 0
2019-07-19 12:55:20 GMT 57.395653 -9.350517 39,000 134 507 0
2019-07-19 12:55:16 GMT 57.400959 -9.362744 39,000 134 504 0
2019-07-19 12:55:09 GMT 57.412949 -9.384556 39,000 134 504 0
2019-07-19 12:55:06 GMT 57.418091 -9.393665 39,000 134 505 -64
2019-07-19 12:54:59 GMT 57.429382 -9.415455 39,000 134 505 0
2019-07-19 12:54:54 GMT 57.436619 -9.431142 39,000 134 505 0
2019-07-19 12:54:45 GMT 57.452362 -9.458885 39,000 134 504 0
2019-07-19 12:54:35 GMT 57.468430 -9.489870 39,000 134 505 0
2019-07-19 12:54:24 GMT 57.485497 -9.523995 39,000 134 505 0
2019-07-19 12:54:14 GMT 57.502487 -9.555270 39,000 134 506 0
2019-07-19 12:54:04 GMT 57.518780 -9.586457 39,000 134 506 0
2019-07-19 12:53:54 GMT 57.535774 -9.617556 39,000 134 506 0
2019-07-19 12:53:43 GMT 57.552704 -9.651833 39,000 134 507 0
2019-07-19 12:53:32 GMT 57.570499 -9.686220 39,000 134 507 0
2019-07-19 12:53:22 GMT 57.586933 -9.717496 39,000 134 507 0
2019-07-19 12:53:12 GMT 57.603924 -9.749037 39,000 134 507 0
2019-07-19 12:53:06 GMT 57.612770 -9.767997 39,000 134 507 -64
2019-07-19 12:53:02 GMT 57.620499 -9.780490 39,000 133 508 64
2019-07-19 12:52:57 GMT 57.627136 -9.796028 39,000 133 508 0
2019-07-19 12:52:51 GMT 57.637527 -9.815168 39,000 133 508 0
2019-07-19 12:52:46 GMT 57.646381 -9.830637 39,000 133 508 0
2019-07-19 12:52:41 GMT 57.653961 -9.846582 39,000 133 508 0
2019-07-19 12:52:30 GMT 57.671101 -9.881139 39,000 133 508 64
2019-07-19 12:52:20 GMT 57.687580 -9.912680 39,000 133 508 -64
2019-07-19 12:52:10 GMT 57.704571 -9.944488 39,000 133 508 0
2019-07-19 12:52:00 GMT 57.721283 -9.976118 39,000 133 509 64
2019-07-19 12:51:49 GMT 57.738235 -10.011026 39,000 133 509 64
2019-07-19 12:51:39 GMT 57.754486 -10.042656 39,000 133 509 64
2019-07-19 12:51:29 GMT 57.771515 -10.074640 39,000 133 509 0
2019-07-19 12:51:19 GMT 57.787811 -10.106447 39,000 133 509 -64
2019-07-19 12:51:08 GMT 57.804752 -10.141205 39,000 133 509 0
2019-07-19 12:50:58 GMT 57.821789 -10.173431 39,000 133 509 64
2019-07-19 12:50:48 GMT 57.838455 -10.205200 39,000 133 509 0
2019-07-19 12:50:37 GMT 57.855286 -10.240144 39,000 133 509 64
2019-07-19 12:50:26 GMT 57.872810 -10.275421 39,000 133 509 0
2019-07-19 12:50:16 GMT 57.888920 -10.307465 39,000 133 509 0
2019-07-19 12:50:06 GMT 57.905628 -10.339600 39,000 133 509 0
2019-07-19 12:49:55 GMT 57.922852 -10.375081 39,000 131 509 0
2019-07-19 12:49:45 GMT 57.938919 -10.408483 39,000 131 510 0
2019-07-19 12:49:35 GMT 57.955078 -10.441973 39,000 130 510 0
2019-07-19 12:49:24 GMT 57.970245 -10.479675 39,000 128 510 -64
2019-07-19 12:49:14 GMT 57.985794 -10.514282 39,000 128 510 64
2019-07-19 12:49:04 GMT 58.000362 -10.549072 39,000 128 510 0
2019-07-19 12:48:53 GMT 58.015961 -10.587099 39,000 128 510 0
2019-07-19 12:48:43 GMT 58.030701 -10.622185 39,000 128 511 0
2019-07-19 12:48:33 GMT 58.046036 -10.656915 39,000 128 511 0
2019-07-19 12:48:22 GMT 58.061440 -10.695465 39,000 128 511 0
2019-07-19 12:48:12 GMT 58.076385 -10.730255 39,000 128 511 0
2019-07-19 12:48:02 GMT 58.091747 -10.765137 39,000 128 511 -64
2019-07-19 12:47:51 GMT 58.107010 -10.803813 39,000 128 511 0
2019-07-19 12:47:41 GMT 58.121429 -10.838987 39,000 128 512 0
2019-07-19 12:47:30 GMT 58.137554 -10.877289 39,000 128 511 0
2019-07-19 12:47:20 GMT 58.152077 -10.912445 39,000 128 512 0
2019-07-19 12:47:09 GMT 58.168030 -10.951331 39,000 128 512 0
2019-07-19 12:47:00 GMT 58.181870 -10.983032 39,000 127 512 0
2019-07-19 12:46:50 GMT 58.196907 -11.018188 39,000 127 512 0
2019-07-19 12:46:39 GMT 58.211929 -11.057119 39,000 128 511 0
2019-07-19 12:46:29 GMT 58.226898 -11.092913 39,000 125 511 0
2019-07-19 12:46:19 GMT 58.239899 -11.130125 39,000 122 512 -64
2019-07-19 12:46:08 GMT 58.252956 -11.172638 39,000 119 512 0
2019-07-19 12:45:58 GMT 58.264503 -11.212280 39,000 116 512 64
2019-07-19 12:45:48 GMT 58.274277 -11.253113 39,000 112 514 0
2019-07-19 12:45:37 GMT 58.283844 -11.298995 39,000 111 513 0
2019-07-19 12:45:26 GMT 58.293503 -11.345032 39,000 111 513 0
2019-07-19 12:45:17 GMT 58.301788 -11.382545 39,000 111 513 0
2019-07-19 12:45:06 GMT 58.311611 -11.428802 39,000 111 513 0
2019-07-19 12:44:56 GMT 58.320457 -11.470551 39,000 111 513 0
2019-07-19 12:44:45 GMT 58.329666 -11.516507 39,000 111 514 0
2019-07-19 12:44:35 GMT 58.338593 -11.558415 39,000 111 514 0
2019-07-19 12:44:25 GMT 58.347336 -11.600411 39,000 111 514 0
2019-07-19 12:44:14 GMT 58.356815 -11.646515 39,000 111 514 0
2019-07-19 12:44:04 GMT 58.365799 -11.688446 39,000 111 514 0
2019-07-19 12:43:53 GMT 58.374893 -11.734816 39,000 111 514 64
2019-07-19 12:43:43 GMT 58.383682 -11.776635 39,000 111 513 0
2019-07-19 12:43:33 GMT 58.392242 -11.818542 39,000 111 513 0
2019-07-19 12:43:23 GMT 58.401352 -11.860982 39,000 111 513 0
2019-07-19 12:43:13 GMT 58.410049 -11.902623 39,000 111 513 0
2019-07-19 12:43:03 GMT 58.418976 -11.944885 39,000 111 513 0
2019-07-19 12:42:52 GMT 58.427898 -11.991028 39,000 111 514 0
2019-07-19 12:42:42 GMT 58.437073 -12.033600 39,000 111 514 0
2019-07-19 12:42:31 GMT 58.446487 -12.079734 39,000 111 513 0
2019-07-19 12:42:21 GMT 58.455093 -12.121995 39,000 111 513 0
2019-07-19 12:42:10 GMT 58.463837 -12.168549 39,000 111 513 64
2019-07-19 12:42:00 GMT 58.473194 -12.210663 39,000 111 513 0
2019-07-19 12:41:50 GMT 58.481529 -12.252594 39,000 111 513 0
2019-07-19 12:41:39 GMT 58.490524 -12.299372 39,000 111 513 0
2019-07-19 12:41:28 GMT 58.499825 -12.345612 39,000 111 513 0
2019-07-19 12:41:18 GMT 58.509041 -12.388000 39,000 110 514 0
2019-07-19 12:41:06 GMT 58.518818 -12.438812 39,000 110 513 0
2019-07-19 12:40:58 GMT 58.525940 -12.472412 39,000 110 513 0
2019-07-19 12:40:48 GMT 58.534317 -12.514709 39,000 110 512 0
2019-07-19 12:40:38 GMT 58.542789 -12.557098 39,000 110 512 0
2019-07-19 12:40:27 GMT 58.551910 -12.603799 39,000 110 512 0
2019-07-19 12:40:16 GMT 58.561226 -12.650116 39,000 110 512 0
2019-07-19 12:40:02 GMT 58.572769 -12.709717 39,000 110 512 0
2019-07-19 12:39:56 GMT 58.577705 -12.735168 39,000 110 511 0
2019-07-19 12:39:46 GMT 58.586224 -12.777466 39,000 110 511 0
2019-07-19 12:39:35 GMT 58.595261 -12.824057 39,000 110 511 0
2019-07-19 12:39:25 GMT 58.603912 -12.866408 39,000 110 511 0
2019-07-19 12:39:14 GMT 58.612480 -12.912598 39,000 110 511 0
2019-07-19 12:39:04 GMT 58.620998 -12.954987 39,000 110 511 0
2019-07-19 12:38:53 GMT 58.630463 -13.001876 39,000 110 511 -64
2019-07-19 12:38:43 GMT 58.638016 -13.044138 39,000 110 510 -64
2019-07-19 12:38:33 GMT 58.646255 -13.086489 39,000 110 510 0
2019-07-19 12:38:23 GMT 58.654861 -13.128928 39,000 110 509 0
2019-07-19 12:38:13 GMT 58.663055 -13.171278 39,000 110 510 0
2019-07-19 12:38:03 GMT 58.671341 -13.213540 39,000 110 510 0
2019-07-19 12:37:52 GMT 58.679840 -13.260040 39,000 110 510 0
2019-07-19 12:37:42 GMT 58.688545 -13.302795 39,000 110 510 0
2019-07-19 12:37:31 GMT 58.697433 -13.349452 39,000 110 510 0
2019-07-19 12:37:21 GMT 58.705582 -13.391891 39,000 110 510 0
2019-07-19 12:37:11 GMT 58.713730 -13.434507 39,000 110 511 0
2019-07-19 12:37:00 GMT 58.722389 -13.481232 39,000 110 510 0
2019-07-19 12:36:50 GMT 58.730583 -13.523987 39,000 110 510 0
2019-07-19 12:36:39 GMT 58.738953 -13.570685 39,000 109 511 0
2019-07-19 12:36:29 GMT 58.746964 -13.613301 39,000 109 511 0
2019-07-19 12:36:19 GMT 58.755432 -13.656006 39,000 109 511 0
2019-07-19 12:36:09 GMT 58.763718 -13.698799 39,000 109 511 0
2019-07-19 12:35:58 GMT 58.772156 -13.746002 39,000 109 512 64
2019-07-19 12:35:46 GMT 58.781696 -13.797089 39,000 109 512 0
2019-07-19 12:35:33 GMT 58.792145 -13.853228 39,000 109 513 0
2019-07-19 12:35:27 GMT 58.796997 -13.878833 39,000 109 513 0
2019-07-19 12:35:17 GMT 58.804962 -13.921716 39,000 109 513 0
2019-07-19 12:35:07 GMT 58.813202 -13.964775 39,000 109 513 64
2019-07-19 12:34:57 GMT 58.821358 -14.007568 39,000 109 513 0
2019-07-19 12:34:46 GMT 58.829552 -14.054810 39,000 109 513 0
2019-07-19 12:34:36 GMT 58.837933 -14.098297 39,000 109 513 0
2019-07-19 12:34:24 GMT 58.847149 -14.149841 39,000 109 514 0
2019-07-19 12:34:15 GMT 58.854675 -14.188934 39,000 109 514 0
2019-07-19 12:34:05 GMT 58.862595 -14.232056 39,000 109 514 0
2019-07-19 12:33:54 GMT 58.870518 -14.279385 39,000 109 513 0
We lost coverage of the aircraft here for a total of 29 minutes
2019-07-19 12:05:22 GMT 60.404091 -21.665430 39,000 115 511 0
2019-07-19 12:05:06 GMT 60.419312 -21.734587 39,000 115 511 0
2019-07-19 12:05:01 GMT 60.425171 -21.756245 39,000 115 511 0
2019-07-19 12:02:19 GMT 60.585800 -22.457949 39,000 114 509 0
2019-07-19 12:02:15 GMT 60.588867 -22.475565 39,000 114 508 0
2019-07-19 12:01:39 GMT 60.624481 -22.631931 39,000 114 508 -64
2019-07-19 12:01:35 GMT 60.628372 -22.649548 39,000 114 508 -64
2019-07-19 12:01:09 GMT 60.653687 -22.762442 39,000 114 508 -64
2019-07-19 12:01:04 GMT 60.658497 -22.784369 39,000 114 508 0
2019-07-19 12:00:54 GMT 60.668087 -22.827824 39,000 114 508 0
2019-07-19 12:00:44 GMT 60.677631 -22.871572 39,000 114 508 0
2019-07-19 12:00:34 GMT 60.687267 -22.915321 39,000 114 507 0
2019-07-19 12:00:23 GMT 60.697266 -22.963320 39,000 114 508 0
2019-07-19 12:00:13 GMT 60.707245 -23.006601 39,000 114 507 0
2019-07-19 12:00:03 GMT 60.716629 -23.050169 39,000 113 507 0
2019-07-19 11:59:53 GMT 60.726334 -23.093925 39,000 113 506 0
2019-07-19 11:59:43 GMT 60.736221 -23.137491 39,000 113 506 0
2019-07-19 11:59:32 GMT 60.746292 -23.185566 39,000 113 506 0
2019-07-19 11:59:22 GMT 60.755836 -23.229317 39,000 113 506 0
2019-07-19 11:59:12 GMT 60.765240 -23.273163 39,000 113 506 0
2019-07-19 11:59:01 GMT 60.775314 -23.321039 39,000 113 505 0
2019-07-19 11:58:51 GMT 60.784836 -23.364889 39,000 113 506 64
2019-07-19 11:58:41 GMT 60.794632 -23.408646 39,000 113 506 0
2019-07-19 11:58:31 GMT 60.804298 -23.456694 39,000 113 506 0
2019-07-19 11:58:20 GMT 60.813980 -23.500639 39,000 113 506 0
2019-07-19 11:58:10 GMT 60.823429 -23.544682 39,000 113 506 -64
2019-07-19 11:57:59 GMT 60.833771 -23.592667 39,000 113 506 0
2019-07-19 11:57:32 GMT 60.859417 -23.711145 39,000 113 506 0
2019-07-19 11:57:23 GMT 60.867416 -23.750832 39,000 113 506 0
2019-07-19 11:55:55 GMT 60.948624 -24.139236 39,000 112 507 0
2019-07-19 11:55:44 GMT 60.958668 -24.188168 39,000 112 507 0
2019-07-19 11:55:29 GMT 60.972336 -24.254402 39,000 112 507 -64
2019-07-19 11:55:23 GMT 60.978012 -24.280922 39,000 112 507 0
2019-07-19 11:55:15 GMT 60.985840 -24.316439 39,000 112 507 64
2019-07-19 11:55:03 GMT 60.996735 -24.369759 39,000 112 507 0
2019-07-19 11:54:55 GMT 61.004059 -24.405655 39,000 112 507 -64
2019-07-19 11:54:44 GMT 61.013271 -24.454290 39,000 112 507 -64
2019-07-19 11:54:34 GMT 61.022488 -24.498922 39,000 112 508 0
2019-07-19 11:54:24 GMT 61.031891 -24.543554 39,000 112 508 0
2019-07-19 11:54:14 GMT 61.041157 -24.587992 39,000 112 507 0
2019-07-19 11:54:03 GMT 61.050476 -24.637234 39,000 112 508 -64
2019-07-19 11:53:53 GMT 61.060089 -24.681866 39,000 112 507 0
2019-07-19 11:53:42 GMT 61.069508 -24.730835 39,000 112 507 -64
2019-07-19 11:53:32 GMT 61.078491 -24.775391 39,000 112 507 0
2019-07-19 11:53:22 GMT 61.087753 -24.820047 39,000 112 507 0
2019-07-19 11:53:12 GMT 61.096878 -24.864704 39,000 112 507 0
2019-07-19 11:53:02 GMT 61.105911 -24.909363 39,000 112 507 0
2019-07-19 11:52:50 GMT 61.116104 -24.962870 39,000 112 507 0
2019-07-19 11:52:41 GMT 61.124359 -25.003410 39,000 112 507 0
2019-07-19 11:52:30 GMT 61.134075 -25.052591 39,000 112 507 -64
2019-07-19 11:52:20 GMT 61.142921 -25.097149 39,000 112 506 0
2019-07-19 11:52:10 GMT 61.152088 -25.142008 39,000 112 506 0
2019-07-19 11:52:00 GMT 61.161030 -25.186563 39,000 112 506 0
2019-07-19 11:51:49 GMT 61.170639 -25.235989 39,000 112 506 0
2019-07-19 11:51:38 GMT 61.179649 -25.285238 39,000 112 506 0
2019-07-19 11:51:29 GMT 61.187897 -25.325253 39,000 111 505 0
2019-07-19 11:51:18 GMT 61.197571 -25.374960 39,000 111 505 0
2019-07-19 11:51:08 GMT 61.205856 -25.419516 39,000 111 504 -64
2019-07-19 11:50:58 GMT 61.215168 -25.464273 39,000 111 504 0
2019-07-19 11:50:47 GMT 61.224289 -25.513884 39,000 111 504 0
2019-07-19 11:50:37 GMT 61.233032 -25.558613 39,000 111 503 0
2019-07-19 11:49:48 GMT 61.275967 -25.777994 39,000 111 503 0
2019-07-19 11:49:44 GMT 61.278713 -25.796000 39,000 111 503 0
2019-07-19 11:49:35 GMT 61.287140 -25.840555 39,000 111 503 0
2019-07-19 11:49:25 GMT 61.294876 -25.881142 39,000 111 503 64
2019-07-19 11:46:54 GMT 61.421860 -26.559549 39,000 110 501 -64
2019-07-19 11:46:47 GMT 61.427536 -26.591034 39,000 110 501 0
2019-07-19 11:46:41 GMT 61.432846 -26.618204 39,000 110 501 0
2019-07-19 11:46:31 GMT 61.441086 -26.663425 39,000 110 501 0
2019-07-19 11:46:20 GMT 61.449791 -26.713257 39,000 110 501 0
2019-07-19 11:46:10 GMT 61.458031 -26.758322 39,000 110 501 0
2019-07-19 11:45:59 GMT 61.467590 -26.807917 39,000 110 501 0
2019-07-19 11:45:50 GMT 61.474930 -26.848654 39,000 110 502 0
2019-07-19 11:45:40 GMT 61.483311 -26.894123 39,000 110 502 0
2019-07-19 11:45:29 GMT 61.491852 -26.943970 39,000 110 501 0
2019-07-19 11:45:19 GMT 61.500366 -26.989189 39,000 110 501 -64
2019-07-19 11:45:09 GMT 61.508560 -27.034704 39,000 110 502 0
2019-07-19 11:44:58 GMT 61.517059 -27.084351 39,000 110 501 0
2019-07-19 11:44:48 GMT 61.525532 -27.129925 39,000 110 502 0
2019-07-19 11:44:38 GMT 61.533680 -27.175598 39,000 110 502 0
2019-07-19 11:44:27 GMT 61.542297 -27.225592 39,000 110 502 -64
2019-07-19 11:44:17 GMT 61.550354 -27.270910 39,000 110 502 0
2019-07-19 11:44:06 GMT 61.559052 -27.321167 39,000 110 502 0
2019-07-19 11:43:57 GMT 61.566971 -27.362234 39,000 110 502 0
2019-07-19 11:43:46 GMT 61.575714 -27.412415 39,000 110 501 0
2019-07-19 11:43:36 GMT 61.583534 -27.457987 39,000 110 501 0
2019-07-19 11:43:26 GMT 61.591778 -27.503559 39,000 110 501 -64
2019-07-19 11:43:01 GMT 61.611420 -27.617373 39,000 110 501 0
2019-07-19 11:42:55 GMT 61.616135 -27.644938 39,000 110 501 0
2019-07-19 11:42:31 GMT 61.635315 -27.754408 39,000 109 501 0
2019-07-19 11:42:22 GMT 61.641914 -27.795410 39,000 109 500 0
2019-07-19 11:42:13 GMT 61.649048 -27.836706 39,000 109 500 0
2019-07-19 11:42:03 GMT 61.656967 -27.882614 39,000 109 500 0
2019-07-19 11:41:52 GMT 61.665562 -27.932739 39,000 109 501 0
2019-07-19 11:41:41 GMT 61.674133 -27.982962 39,000 109 500 0
We lost coverage of the aircraft here for a total of 262 minutes
2019-07-19 07:19:54 GMT 49.447273 -94.109108 35,000 53 581 0
2019-07-19 07:19:39 GMT 49.420925 -94.162445 35,000 53 581 0
2019-07-19 07:19:29 GMT 49.407303 -94.192131 35,000 53 581 0
2019-07-19 07:19:24 GMT 49.399605 -94.208557 35,000 53 580 0
2019-07-19 07:18:37 GMT 49.322746 -94.366272 35,000 53 578 -64
2019-07-19 07:18:31 GMT 49.314285 -94.382492 35,000 53 578 -64
2019-07-19 07:18:22 GMT 49.297577 -94.415237 35,000 53 578 -64
2019-07-19 07:18:09 GMT 49.276569 -94.457771 35,000 53 578 -64
2019-07-19 07:18:02 GMT 49.267303 -94.477287 35,000 53 577 -64
2019-07-19 07:17:57 GMT 49.257111 -94.500381 35,000 53 577 -64
2019-07-19 07:17:50 GMT 49.246994 -94.519958 35,000 53 577 0
2019-07-19 07:17:47 GMT 49.242119 -94.529472 35,000 53 577 0
2019-07-19 07:17:39 GMT 49.230148 -94.552498 35,000 53 576 0
2019-07-19 07:17:29 GMT 49.208633 -94.597847 35,000 52 576 0
2019-07-19 07:17:17 GMT 49.195862 -94.623695 35,000 52 575 0
2019-07-19 07:17:14 GMT 49.189407 -94.636650 35,000 52 575 0
2019-07-19 07:17:06 GMT 49.174061 -94.666008 35,000 52 575 0
2019-07-19 07:16:57 GMT 49.146606 -94.721024 35,000 52 575 0
2019-07-19 07:16:44 GMT 49.141708 -94.733841 35,000 52 575 0
2019-07-19 07:16:33 GMT 49.123829 -94.769440 35,000 52 574 0
2019-07-19 07:16:23 GMT 49.108383 -94.798210 35,000 52 574 -64
2019-07-19 07:16:20 GMT 49.103165 -94.811310 35,000 52 574 0
2019-07-19 07:16:14 GMT 49.094315 -94.827408 35,000 52 574 0
2019-07-19 07:16:11 GMT 49.088589 -94.840271 35,000 52 575 -64
2019-07-19 07:16:04 GMT 49.077026 -94.862717 35,000 52 573 -64
2019-07-19 07:15:52 GMT 49.059635 -94.898239 35,000 52 573 -64
2019-07-19 07:15:43 GMT 49.042736 -94.930405 35,000 52 573 0
2019-07-19 07:15:40 GMT 49.036125 -94.943054 35,000 52 573 0
2019-07-19 07:15:32 GMT 49.026676 -94.962639 35,000 52 574 0
2019-07-19 07:15:28 GMT 49.020111 -94.975433 35,000 52 574 64
2019-07-19 07:15:22 GMT 49.008820 -94.997932 35,000 52 574 0
2019-07-19 07:15:09 GMT 48.988178 -95.039474 35,000 52 575 -64
2019-07-19 07:14:58 GMT 48.972675 -95.071854 35,000 52 576 0
2019-07-19 07:14:48 GMT 48.954437 -95.107231 35,000 52 576 0
2019-07-19 07:14:38 GMT 48.938461 -95.139206 35,000 52 577 -64
2019-07-19 07:14:28 GMT 48.921753 -95.171394 35,000 52 577 0
2019-07-19 07:14:19 GMT 48.907314 -95.200294 35,000 52 578 -64
2019-07-19 07:14:07 GMT 48.886093 -95.242172 35,000 52 578 0
2019-07-19 07:13:55 GMT 48.869476 -95.274284 35,000 52 578 0
2019-07-19 07:13:46 GMT 48.852768 -95.306679 35,000 52 578 -64
2019-07-19 07:13:34 GMT 48.835625 -95.341812 35,000 52 579 0
2019-07-19 07:13:25 GMT 48.819286 -95.373978 35,000 52 579 0
2019-07-19 07:13:16 GMT 48.805298 -95.403091 35,000 52 579 0
2019-07-19 07:13:05 GMT 48.788040 -95.434990 35,000 52 579 64
2019-07-19 07:13:02 GMT 48.783161 -95.444595 35,000 52 579 0
2019-07-19 07:12:52 GMT 48.767284 -95.476685 35,000 52 579 64
2019-07-19 07:12:42 GMT 48.750061 -95.508850 35,000 52 578 -64
2019-07-19 07:12:31 GMT 48.732330 -95.544083 35,000 52 578 0
2019-07-19 07:12:22 GMT 48.715485 -95.575981 35,000 52 578 64
2019-07-19 07:12:13 GMT 48.702484 -95.601334 34,975 52 578 0
2019-07-19 07:12:10 GMT 48.697598 -95.610832 35,000 52 578 -64
2019-07-19 07:12:01 GMT 48.681351 -95.642853 35,000 52 578 -64
2019-07-19 07:11:52 GMT 48.668179 -95.668442 35,000 52 577 0
2019-07-19 07:11:40 GMT 48.646912 -95.709724 35,000 52 578 0
2019-07-19 07:11:29 GMT 48.629864 -95.744835 35,000 52 578 0
2019-07-19 07:11:21 GMT 48.616085 -95.770279 35,000 52 578 -64
2019-07-19 07:11:18 GMT 48.613571 -95.776711 35,000 52 579 -64
2019-07-19 07:11:08 GMT 48.595642 -95.811768 35,000 52 579 -64
2019-07-19 07:10:58 GMT 48.579071 -95.843529 35,000 52 578 0
2019-07-19 07:10:48 GMT 48.561905 -95.875435 35,000 52 578 -64
2019-07-19 07:10:36 GMT 48.543602 -95.910355 35,000 52 578 0
2019-07-19 07:10:26 GMT 48.525513 -95.945152 35,000 51 579 0
2019-07-19 07:10:16 GMT 48.508804 -95.976982 35,000 51 578 -64
2019-07-19 07:10:06 GMT 48.490627 -96.011909 35,000 52 578 -64
2019-07-19 07:09:57 GMT 48.478012 -96.037132 35,000 51 578 -64
2019-07-19 07:09:46 GMT 48.460880 -96.068642 35,000 51 578 0
2019-07-19 07:09:36 GMT 48.443024 -96.103470 35,000 51 578 -64
2019-07-19 07:09:33 GMT 48.439819 -96.109665 35,000 51 578 -64
2019-07-19 07:09:23 GMT 48.422474 -96.144394 35,000 51 577 0
2019-07-19 07:09:13 GMT 48.405437 -96.176048 35,000 51 577 0
2019-07-19 07:09:04 GMT 48.391285 -96.201424 35,000 51 577 0
2019-07-19 07:08:57 GMT 48.379761 -96.223404 35,000 51 577 0
2019-07-19 07:08:53 GMT 48.372337 -96.239151 35,000 51 577 0
2019-07-19 07:08:46 GMT 48.360123 -96.261223 35,000 51 577 0
2019-07-19 07:08:43 GMT 48.356918 -96.267281 35,000 51 577 0
2019-07-19 07:08:33 GMT 48.339565 -96.301964 35,000 51 576 -64
2019-07-19 07:08:25 GMT 48.325832 -96.327042 35,000 51 575 0
2019-07-19 07:08:21 GMT 48.321579 -96.336365 35,000 51 575 0
2019-07-19 07:08:15 GMT 48.309586 -96.358482 35,000 51 575 0
2019-07-19 07:08:11 GMT 48.303581 -96.370842 35,000 51 574 0
2019-07-19 07:08:01 GMT 48.285049 -96.405312 35,000 51 573 0
2019-07-19 07:07:50 GMT 48.268478 -96.436295 35,000 51 573 0
2019-07-19 07:07:40 GMT 48.252182 -96.467422 35,000 51 573 0
2019-07-19 07:07:29 GMT 48.234558 -96.498695 35,000 51 573 0
2019-07-19 07:07:18 GMT 48.215881 -96.535881 35,000 51 573 0
2019-07-19 07:07:08 GMT 48.198349 -96.566940 35,000 51 572 -64
2019-07-19 07:06:56 GMT 48.180401 -96.600761 35,000 51 572 0
2019-07-19 07:06:47 GMT 48.163967 -96.631912 35,000 51 571 0
2019-07-19 07:06:39 GMT 48.152481 -96.653458 35,000 51 571 0
2019-07-19 07:06:35 GMT 48.146118 -96.665749 35,000 51 571 0
2019-07-19 07:06:25 GMT 48.129547 -96.696510 35,000 51 571 0
2019-07-19 07:06:15 GMT 48.113571 -96.727615 35,000 51 571 0
2019-07-19 07:06:05 GMT 48.082970 -96.785957 35,000 51 571 64
2019-07-19 07:05:59 GMT 48.082970 -96.785957 35,000 51 570 0
2019-07-19 07:05:55 GMT 48.078499 -96.792160 35,000 51 570 0
2019-07-19 07:05:48 GMT 48.067978 -96.813583 35,000 51 570 0
2019-07-19 07:05:43 GMT 48.060425 -96.825943 35,000 51 570 -64
2019-07-19 07:05:39 GMT 48.051590 -96.844482 35,000 51 569 0
2019-07-19 07:05:34 GMT 48.044357 -96.856773 35,000 51 570 -64
2019-07-19 07:05:27 GMT 48.033482 -96.878143 35,000 51 570 -64
2019-07-19 07:05:22 GMT 48.024765 -96.893440 35,000 51 569 0
2019-07-19 07:05:18 GMT 48.017303 -96.905800 35,000 51 569 0
2019-07-19 07:05:13 GMT 48.009556 -96.921104 35,000 51 569 0
2019-07-19 07:05:07 GMT 48.000687 -96.936356 35,000 51 569 0
2019-07-19 07:05:01 GMT 47.992218 -96.954689 35,000 51 569 0
2019-07-19 07:04:56 GMT 47.983486 -96.969978 35,000 51 569 0
2019-07-19 07:04:52 GMT 47.974731 -96.985245 35,000 51 569 0
2019-07-19 07:04:46 GMT 47.966309 -97.000542 35,000 51 568 -64
2019-07-19 07:04:41 GMT 47.958069 -97.015800 35,000 51 568 -64
2019-07-19 07:04:36 GMT 47.948959 -97.034134 35,000 51 568 0
2019-07-19 07:04:31 GMT 47.940750 -97.049278 35,000 51 568 0
2019-07-19 07:04:26 GMT 47.931839 -97.064484 35,000 51 568 -64
2019-07-19 07:04:22 GMT 47.925842 -97.076706 35,000 51 568 0
2019-07-19 07:04:18 GMT 47.920502 -97.085686 35,000 51 569 0
2019-07-19 07:04:15 GMT 47.914764 -97.095039 35,000 51 569 0
2019-07-19 07:04:09 GMT 47.904922 -97.113167 35,000 51 569 0
2019-07-19 07:04:05 GMT 47.896408 -97.131569 35,000 51 568 0
2019-07-19 07:03:59 GMT 47.887077 -97.146675 35,000 51 568 -128
2019-07-19 07:03:52 GMT 47.874928 -97.171188 35,000 51 568 64
2019-07-19 07:03:48 GMT 47.870041 -97.180183 35,000 51 568 0
2019-07-19 07:03:43 GMT 47.861565 -97.195549 35,000 51 569 64
2019-07-19 07:03:37 GMT 47.851959 -97.210739 35,025 50 569 -320
2019-07-19 07:03:32 GMT 47.844200 -97.225838 35,000 50 568 0
2019-07-19 07:03:27 GMT 47.834614 -97.244148 35,000 50 568 64
2019-07-19 07:03:22 GMT 47.826965 -97.259354 35,000 50 568 0
2019-07-19 07:03:15 GMT 47.816666 -97.277618 35,000 51 569 0
2019-07-19 07:03:12 GMT 47.810028 -97.289772 35,000 51 569 -64
2019-07-19 07:03:05 GMT 47.798950 -97.308037 35,000 51 569 -64
2019-07-19 07:03:01 GMT 47.792725 -97.319984 35,000 50 568 -64
2019-07-19 07:02:55 GMT 47.781731 -97.341331 35,000 50 568 -64
2019-07-19 07:02:52 GMT 47.775352 -97.353233 35,000 50 568 -64
2019-07-19 07:02:44 GMT 47.763153 -97.374641 35,000 50 568 0
2019-07-19 07:02:40 GMT 47.757942 -97.383514 35,000 50 568 0
2019-07-19 07:02:36 GMT 47.748119 -97.401756 35,000 50 568 64
2019-07-19 07:02:30 GMT 47.739716 -97.416664 35,000 50 568 0
2019-07-19 07:02:25 GMT 47.731358 -97.431900 35,000 50 568 64
2019-07-19 07:02:20 GMT 47.723419 -97.447083 35,000 50 568 0
2019-07-19 07:02:15 GMT 47.714973 -97.462181 35,000 50 568 0
2019-07-19 07:02:12 GMT 47.706482 -97.477364 35,000 50 568 -64
2019-07-19 07:02:04 GMT 47.697235 -97.495422 35,000 50 568 -64
2019-07-19 07:02:01 GMT 47.693161 -97.501602 35,000 50 568 -64
2019-07-19 07:01:51 GMT 47.675171 -97.534576 35,000 50 568 64
2019-07-19 07:01:43 GMT 47.662136 -97.558945 35,000 50 568 0
2019-07-19 07:01:39 GMT 47.657181 -97.567863 35,000 50 568 -64
2019-07-19 07:01:34 GMT 47.646515 -97.586060 35,000 50 568 -64
2019-07-19 07:01:30 GMT 47.640701 -97.598076 35,000 50 568 -64
2019-07-19 07:01:23 GMT 47.627975 -97.619225 35,000 50 567 0
2019-07-19 07:01:18 GMT 47.622475 -97.631058 35,000 50 567 0
2019-07-19 07:01:12 GMT 47.610535 -97.652321 35,000 50 568 0
2019-07-19 07:01:09 GMT 47.605949 -97.661278 35,000 50 567 0
2019-07-19 07:01:02 GMT 47.594284 -97.682259 35,000 50 567 0
2019-07-19 07:00:57 GMT 47.587555 -97.694138 35,000 50 567 0
2019-07-19 07:00:50 GMT 47.575970 -97.715363 35,000 50 567 -64
2019-07-19 07:00:40 GMT 47.557846 -97.748314 35,000 50 567 0
2019-07-19 07:00:29 GMT 47.540497 -97.778320 35,000 50 566 -128
2019-07-19 07:00:26 GMT 47.534729 -97.790199 35,000 50 566 -64
2019-07-19 07:00:19 GMT 47.522991 -97.811279 35,000 50 567 -64
2019-07-19 07:00:15 GMT 47.517883 -97.820068 35,000 50 566 -64
2019-07-19 07:00:10 GMT 47.506668 -97.838058 35,000 50 567 -64
2019-07-19 07:00:05 GMT 47.499668 -97.853043 35,000 50 567 0
2019-07-19 06:59:58 GMT 47.488495 -97.871002 35,000 50 567 -64
2019-07-19 06:59:49 GMT 47.471737 -97.900650 35,000 50 566 -64
2019-07-19 06:59:41 GMT 47.458611 -97.924805 35,000 50 566 0
2019-07-19 06:59:38 GMT 47.455257 -97.930580 35,000 50 566 0
2019-07-19 06:59:34 GMT 47.448322 -97.942619 35,000 50 566 0
2019-07-19 06:59:28 GMT 47.436447 -97.963509 35,000 50 566 -64
2019-07-19 06:59:20 GMT 47.423401 -97.987267 35,000 50 566 64
2019-07-19 06:59:17 GMT 47.418945 -97.996147 35,000 50 566 -64
2019-07-19 06:59:13 GMT 47.413284 -98.004982 35,000 50 566 0
2019-07-19 06:59:07 GMT 47.401489 -98.025726 35,000 50 566 0
2019-07-19 06:58:55 GMT 47.382824 -98.061287 35,000 50 566 64
2019-07-19 06:58:45 GMT 47.365368 -98.091148 35,000 50 566 -64
2019-07-19 06:58:34 GMT 47.347870 -98.123772 35,000 50 567 -64
2019-07-19 06:58:25 GMT 47.331242 -98.150589 35,000 50 567 -64
2019-07-19 06:58:19 GMT 47.322258 -98.168335 35,000 50 567 -64
2019-07-19 06:58:13 GMT 47.313538 -98.183167 35,000 50 567 0
2019-07-19 06:58:09 GMT 47.306992 -98.195045 35,000 50 567 0
2019-07-19 06:58:03 GMT 47.295349 -98.215942 35,000 50 568 0
2019-07-19 06:57:52 GMT 47.278965 -98.245590 35,000 50 568 -64
2019-07-19 06:57:42 GMT 47.261276 -98.275383 35,000 50 568 0
2019-07-19 06:57:32 GMT 47.243729 -98.308136 35,000 50 568 -128
2019-07-19 06:57:22 GMT 47.226562 -98.337799 35,025 50 568 0
2019-07-19 06:57:18 GMT 47.219696 -98.349609 35,000 50 568 0
2019-07-19 06:57:11 GMT 47.209030 -98.367256 35,000 50 567 0
2019-07-19 06:57:01 GMT 47.189896 -98.402893 35,000 50 567 0
2019-07-19 06:56:56 GMT 47.181160 -98.417427 35,000 50 567 0
2019-07-19 06:56:45 GMT 47.164726 -98.447151 35,000 50 567 0
2019-07-19 06:56:39 GMT 47.153507 -98.464828 35,000 50 567 0
2019-07-19 06:56:34 GMT 47.145355 -98.479660 35,000 50 567 0
2019-07-19 06:56:23 GMT 47.128738 -98.509048 35,000 50 567 64
2019-07-19 06:56:19 GMT 47.120407 -98.523979 35,000 50 567 0
2019-07-19 06:56:14 GMT 47.111252 -98.538506 35,000 50 567 -128
2019-07-19 06:56:07 GMT 47.101044 -98.556358 35,000 50 567 -128
2019-07-19 06:56:02 GMT 47.092617 -98.570816 35,000 50 567 -64
2019-07-19 06:55:58 GMT 47.084198 -98.585815 35,000 50 567 -64
2019-07-19 06:55:52 GMT 47.076138 -98.600464 35,000 50 566 -64
2019-07-19 06:55:47 GMT 47.066502 -98.618141 35,025 50 566 -64
2019-07-19 06:55:41 GMT 47.057739 -98.632851 35,000 49 566 0
2019-07-19 06:55:36 GMT 47.049416 -98.647301 35,000 50 566 0
2019-07-19 06:55:31 GMT 47.040848 -98.661964 35,000 49 565 0
2019-07-19 06:55:26 GMT 47.031189 -98.679543 35,000 49 566 -64
2019-07-19 06:55:21 GMT 47.022415 -98.694267 35,000 49 566 0
2019-07-19 06:55:16 GMT 47.013103 -98.711876 35,000 49 566 0
2019-07-19 06:55:11 GMT 47.005096 -98.723358 35,000 49 565 0
2019-07-19 06:55:04 GMT 46.995369 -98.741104 35,000 49 566 0
2019-07-19 06:55:00 GMT 46.986511 -98.755692 35,000 49 566 0
2019-07-19 06:54:54 GMT 46.978516 -98.770401 35,000 49 565 -128
2019-07-19 06:54:49 GMT 46.969803 -98.784943 35,000 49 565 -128
2019-07-19 06:54:44 GMT 46.960922 -98.802383 35,000 49 565 0
2019-07-19 06:54:38 GMT 46.951797 -98.817024 35,000 49 566 0
2019-07-19 06:54:33 GMT 46.943253 -98.831566 35,000 49 565 0
2019-07-19 06:54:28 GMT 46.934338 -98.846390 35,000 49 565 0
2019-07-19 06:54:23 GMT 46.925495 -98.863716 35,000 49 565 0
2019-07-19 06:54:18 GMT 46.914696 -98.881180 35,000 49 565 -64
2019-07-19 06:54:13 GMT 46.908085 -98.892937 35,000 49 565 0
2019-07-19 06:54:07 GMT 46.896286 -98.913277 35,000 49 565 0
2019-07-19 06:54:03 GMT 46.890533 -98.922096 35,000 49 565 0
2019-07-19 06:53:54 GMT 46.877731 -98.945335 35,000 49 565 0
2019-07-19 06:53:51 GMT 46.871750 -98.954201 35,000 49 565 0
2019-07-19 06:53:45 GMT 46.861156 -98.974525 35,000 49 564 0
2019-07-19 06:53:40 GMT 46.854221 -98.986130 35,000 49 564 0
2019-07-19 06:53:34 GMT 46.844120 -99.003433 35,000 49 564 0
2019-07-19 06:53:30 GMT 46.836159 -99.015106 35,000 49 564 0
2019-07-19 06:53:25 GMT 46.826801 -99.032616 35,000 49 564 0
2019-07-19 06:53:20 GMT 46.818466 -99.046974 35,000 49 564 0
2019-07-19 06:53:13 GMT 46.807480 -99.064392 35,000 49 564 0
2019-07-19 06:53:09 GMT 46.801437 -99.075912 35,000 49 564 -64
2019-07-19 06:53:04 GMT 46.790165 -99.096336 35,000 49 564 0
2019-07-19 06:53:00 GMT 46.783604 -99.107872 35,000 49 564 0
2019-07-19 06:52:53 GMT 46.773315 -99.125313 35,000 49 564 0
2019-07-19 06:52:49 GMT 46.766563 -99.136848 35,000 49 564 0
2019-07-19 06:52:43 GMT 46.754974 -99.154358 35,000 49 564 -64
2019-07-19 06:52:39 GMT 46.748016 -99.168556 35,000 49 564 -64
2019-07-19 06:52:32 GMT 46.736755 -99.186043 35,000 49 564 0
2019-07-19 06:52:28 GMT 46.731510 -99.194733 35,000 49 563 0
2019-07-19 06:52:21 GMT 46.719452 -99.217735 35,000 49 563 -64
2019-07-19 06:52:18 GMT 46.713913 -99.226570 35,000 49 563 -64
2019-07-19 06:52:11 GMT 46.701672 -99.246574 35,000 49 563 -64
2019-07-19 06:52:07 GMT 46.696381 -99.255379 35,000 49 562 -64
2019-07-19 06:52:01 GMT 46.684727 -99.275414 35,000 49 562 0
2019-07-19 06:51:56 GMT 46.676880 -99.289612 35,000 49 563 0
2019-07-19 06:51:49 GMT 46.665939 -99.307098 35,000 49 562 0
2019-07-19 06:51:45 GMT 46.659164 -99.318352 35,000 49 562 0
2019-07-19 06:51:39 GMT 46.649231 -99.335831 35,000 49 562 0
2019-07-19 06:51:35 GMT 46.641666 -99.350121 35,000 49 562 -64
2019-07-19 06:51:30 GMT 46.631004 -99.367287 35,000 49 562 0
2019-07-19 06:51:24 GMT 46.624161 -99.378891 35,000 49 562 -64
2019-07-19 06:51:18 GMT 46.612244 -99.398872 35,000 49 562 0
2019-07-19 06:51:14 GMT 46.606239 -99.407524 35,000 49 562 0
2019-07-19 06:51:09 GMT 46.595764 -99.427544 35,000 49 562 0
2019-07-19 06:51:05 GMT 46.588669 -99.438934 35,000 49 562 0
2019-07-19 06:50:58 GMT 46.578323 -99.456146 35,000 49 562 -64
2019-07-19 06:50:52 GMT 46.569649 -99.470284 35,000 49 562 -64
2019-07-19 06:50:47 GMT 46.559826 -99.487656 35,000 49 562 0
2019-07-19 06:50:44 GMT 46.552608 -99.499054 35,000 49 562 0
2019-07-19 06:50:36 GMT 46.542927 -99.516151 35,000 49 562 0
2019-07-19 06:50:32 GMT 46.534241 -99.530571 35,000 49 562 0
2019-07-19 06:50:27 GMT 46.524353 -99.547523 35,000 49 562 0
2019-07-19 06:50:15 GMT 46.505501 -99.578911 35,000 49 562 0
2019-07-19 06:50:04 GMT 46.487904 -99.607681 35,000 49 561 -64
2019-07-19 06:49:55 GMT 46.470474 -99.639030 35,000 49 561 -64
2019-07-19 06:49:44 GMT 46.453537 -99.667503 35,000 49 561 0
2019-07-19 06:49:33 GMT 46.434135 -99.698593 35,000 49 560 -64
2019-07-19 06:49:22 GMT 46.416138 -99.730003 35,000 49 560 -64
2019-07-19 06:49:12 GMT 46.398193 -99.758339 35,000 49 560 0
2019-07-19 06:49:01 GMT 46.380646 -99.789642 35,000 49 560 0
2019-07-19 06:48:51 GMT 46.362583 -99.817863 35,000 49 560 -64
2019-07-19 06:48:39 GMT 46.343811 -99.849045 35,000 49 559 0
2019-07-19 06:48:30 GMT 46.325249 -99.880074 35,000 49 560 -64
2019-07-19 06:48:19 GMT 46.309189 -99.908157 35,000 49 560 0
2019-07-19 06:48:09 GMT 46.291405 -99.936310 35,000 49 558 0
2019-07-19 06:47:57 GMT 46.272041 -99.970161 35,000 48 557 0
2019-07-19 06:47:47 GMT 46.254398 -99.998314 35,000 48 557 -64
2019-07-19 06:47:36 GMT 46.237823 -100.026329 35,000 48 557 0
2019-07-19 06:47:26 GMT 46.218842 -100.057312 35,000 48 557 0
2019-07-19 06:47:15 GMT 46.202042 -100.085312 35,000 48 557 -64
2019-07-19 06:47:05 GMT 46.183964 -100.116142 35,000 48 557 -64
2019-07-19 06:46:56 GMT 46.167110 -100.144157 35,000 48 557 64
2019-07-19 06:46:45 GMT 46.150074 -100.171829 35,000 48 557 0
2019-07-19 06:46:35 GMT 46.131226 -100.202545 35,000 48 557 -64
2019-07-19 06:46:24 GMT 46.114059 -100.230415 35,000 48 557 0
2019-07-19 06:46:13 GMT 46.095467 -100.260887 35,000 48 556 -64
2019-07-19 06:46:03 GMT 46.078941 -100.288834 35,000 48 555 -64
2019-07-19 06:45:52 GMT 46.061253 -100.316437 35,000 48 555 0
2019-07-19 06:45:41 GMT 46.041794 -100.347198 35,000 48 554 0
2019-07-19 06:45:30 GMT 46.023216 -100.377617 35,000 48 554 64
2019-07-19 06:45:20 GMT 46.004791 -100.408005 35,000 48 554 0
2019-07-19 06:45:09 GMT 45.988037 -100.435539 35,000 48 554 -64
2019-07-19 06:44:57 GMT 45.968262 -100.468903 35,000 48 554 0
2019-07-19 06:44:48 GMT 45.950958 -100.496231 35,000 48 554 0
2019-07-19 06:44:38 GMT 45.934113 -100.523964 35,000 48 554 0
2019-07-19 06:44:21 GMT 45.905163 -100.570839 35,000 48 555 0
2019-07-19 06:44:15 GMT 45.894875 -100.587524 35,000 48 555 0
2019-07-19 06:44:05 GMT 45.876205 -100.617950 35,000 48 556 0
2019-07-19 06:43:52 GMT 45.856018 -100.651047 35,000 48 556 0
2019-07-19 06:43:33 GMT 45.823883 -100.703430 35,000 48 556 0
2019-07-19 06:43:21 GMT 45.805161 -100.733978 35,000 48 557 -64
2019-07-19 06:43:13 GMT 45.788921 -100.758911 35,000 48 557 -64
2019-07-19 06:43:01 GMT 45.769741 -100.791870 35,000 48 557 0
2019-07-19 06:42:51 GMT 45.754257 -100.816841 35,000 48 558 0
2019-07-19 06:42:40 GMT 45.733795 -100.849739 35,000 48 558 -64
2019-07-19 06:42:31 GMT 45.717697 -100.874748 35,000 48 558 0
2019-07-19 06:42:20 GMT 45.697540 -100.907433 35,000 47 556 0
2019-07-19 06:42:10 GMT 45.681610 -100.931328 35,000 44 554 -64
2019-07-19 06:42:00 GMT 45.661182 -100.958794 35,000 41 551 0
2019-07-19 06:41:49 GMT 45.640511 -100.982346 35,000 39 548 0
2019-07-19 06:41:38 GMT 45.619812 -101.006493 35,000 36 546 0
2019-07-19 06:41:24 GMT 45.591537 -101.032745 35,000 32 541 -64
2019-07-19 06:41:17 GMT 45.576874 -101.046150 35,000 32 541 0
2019-07-19 06:41:07 GMT 45.553600 -101.067352 35,000 32 542 0
2019-07-19 06:40:57 GMT 45.532791 -101.086746 35,000 33 541 64
2019-07-19 06:40:47 GMT 45.509537 -101.108620 35,000 34 543 0
2019-07-19 06:40:35 GMT 45.489716 -101.129349 35,000 36 544 64
2019-07-19 06:40:26 GMT 45.467804 -101.152802 35,000 36 544 64
2019-07-19 06:40:14 GMT 45.445129 -101.176498 35,000 37 545 -128
We lost coverage of the aircraft here for a total of 19 minutes
2019-07-19 06:21:01 GMT 43.344086 -103.935516 35,000 46 538 0
2019-07-19 06:20:53 GMT 43.330215 -103.955193 35,000 46 538 0
2019-07-19 06:20:44 GMT 43.312775 -103.979912 35,000 46 538 -64
2019-07-19 06:20:32 GMT 43.294048 -104.007111 35,000 46 538 0
2019-07-19 06:20:22 GMT 43.273865 -104.034012 35,000 46 537 0
2019-07-19 06:20:12 GMT 43.258343 -104.056221 35,000 46 538 0
2019-07-19 06:20:01 GMT 43.238602 -104.085846 35,000 46 537 0
2019-07-19 06:19:50 GMT 43.221378 -104.110367 35,000 46 538 -64
2019-07-19 06:19:40 GMT 43.203316 -104.134895 35,000 46 537 -64
2019-07-19 06:19:29 GMT 43.185516 -104.161888 35,000 46 536 0
2019-07-19 06:19:19 GMT 43.167435 -104.186157 35,000 46 536 0
2019-07-19 06:19:09 GMT 43.148712 -104.213234 35,000 46 536 0
2019-07-19 06:18:58 GMT 43.130787 -104.237564 35,000 46 536 -64
2019-07-19 06:18:47 GMT 43.112320 -104.264404 35,000 46 536 0
2019-07-19 06:18:37 GMT 43.093311 -104.291054 35,000 46 534 0
2019-07-19 06:18:25 GMT 43.075424 -104.317871 35,000 46 534 0
2019-07-19 06:18:15 GMT 43.057114 -104.342270 35,000 45 534 0
2019-07-19 06:18:03 GMT 43.037384 -104.371330 35,000 46 534 -64
2019-07-19 06:17:53 GMT 43.018642 -104.398041 35,000 46 534 0
2019-07-19 06:17:41 GMT 42.998886 -104.424728 35,000 45 533 -64
2019-07-19 06:17:30 GMT 42.980053 -104.451271 35,000 45 533 0
2019-07-19 06:17:18 GMT 42.960407 -104.480309 35,000 45 532 -64
2019-07-19 06:17:08 GMT 42.940292 -104.506744 35,000 45 533 0
2019-07-19 06:16:57 GMT 42.922325 -104.533409 35,000 45 532 0
2019-07-19 06:16:46 GMT 42.903351 -104.559822 35,000 45 532 0
2019-07-19 06:16:34 GMT 42.884338 -104.586182 35,000 45 532 0
2019-07-19 06:16:24 GMT 42.865677 -104.612778 35,000 45 532 -64
2019-07-19 06:16:13 GMT 42.846821 -104.639153 35,000 45 531 -64
2019-07-19 06:16:02 GMT 42.828804 -104.663086 35,000 45 531 0
2019-07-19 06:15:52 GMT 42.810791 -104.689484 35,000 45 531 0
2019-07-19 06:15:41 GMT 42.792355 -104.715675 35,000 45 531 0
2019-07-19 06:15:31 GMT 42.774570 -104.739502 35,000 45 531 0
2019-07-19 06:15:19 GMT 42.756134 -104.765877 35,000 45 531 0
2019-07-19 06:15:08 GMT 42.733978 -104.796921 35,000 45 531 0
2019-07-19 06:14:57 GMT 42.717453 -104.818436 35,000 45 531 -64
2019-07-19 06:14:48 GMT 42.701950 -104.839973 35,000 45 531 64
2019-07-19 06:14:37 GMT 42.683624 -104.866188 35,000 45 531 0
2019-07-19 06:14:27 GMT 42.665680 -104.890099 35,000 45 531 0
2019-07-19 06:14:16 GMT 42.646832 -104.916237 35,000 45 531 -64
2019-07-19 06:14:06 GMT 42.629513 -104.939934 35,000 45 531 64
2019-07-19 06:13:55 GMT 42.611069 -104.966248 35,000 45 531 -64
2019-07-19 06:13:44 GMT 42.592876 -104.992317 35,000 45 530 -64
2019-07-19 06:13:34 GMT 42.575047 -105.015945 35,000 45 530 0
2019-07-19 06:13:23 GMT 42.556229 -105.042152 35,000 45 530 0
2019-07-19 06:13:14 GMT 42.539902 -105.063530 35,000 45 531 -64
2019-07-19 06:13:02 GMT 42.519371 -105.091957 35,000 45 530 -64
2019-07-19 06:12:53 GMT 42.503544 -105.115593 35,000 45 530 0
2019-07-19 06:12:37 GMT 42.477219 -105.150894 35,000 45 529 64
2019-07-19 06:12:31 GMT 42.465744 -105.167587 35,000 45 528 -64
2019-07-19 06:12:20 GMT 42.448193 -105.191216 35,025 45 528 -64
2019-07-19 06:12:09 GMT 42.429245 -105.217003 35,000 45 528 128
2019-07-19 06:11:59 GMT 42.412170 -105.240532 35,000 45 529 64
2019-07-19 06:11:55 GMT 42.403084 -105.252281 35,000 45 529 64
2019-07-19 06:11:45 GMT 42.387543 -105.273491 34,975 45 529 128
2019-07-19 06:11:34 GMT 42.366943 -105.301643 35,000 45 530 -128
2019-07-19 06:11:26 GMT 42.354202 -105.318199 35,000 45 530 -64
2019-07-19 06:11:14 GMT 42.333675 -105.346367 35,000 45 530 0
2019-07-19 06:11:07 GMT 42.321442 -105.363007 35,000 45 529 -64
2019-07-19 06:11:00 GMT 42.306953 -105.383926 35,000 45 529 -64
2019-07-19 06:10:57 GMT 42.302811 -105.388649 35,000 45 529 -64
2019-07-19 06:10:50 GMT 42.291229 -105.405144 35,000 45 529 -64
2019-07-19 06:10:45 GMT 42.283951 -105.414505 35,000 45 529 -64
2019-07-19 06:10:35 GMT 42.266830 -105.438042 35,000 45 528 -64
2019-07-19 06:10:23 GMT 42.246185 -105.466125 35,000 45 528 0
2019-07-19 06:10:12 GMT 42.227768 -105.491806 35,000 45 526 -64
2019-07-19 06:10:02 GMT 42.208878 -105.517380 35,000 45 526 -64
2019-07-19 06:09:51 GMT 42.189316 -105.542908 35,000 45 525 0
2019-07-19 06:09:40 GMT 42.171021 -105.568375 35,000 45 524 -64
2019-07-19 06:09:29 GMT 42.152027 -105.593880 35,000 45 524 -64
2019-07-19 06:09:18 GMT 42.133438 -105.619247 35,000 45 523 64
2019-07-19 06:09:06 GMT 42.114738 -105.644722 35,000 45 523 64
2019-07-19 06:08:58 GMT 42.100121 -105.663246 35,000 45 523 0
2019-07-19 06:08:55 GMT 42.094940 -105.670059 35,000 45 523 0
2019-07-19 06:08:48 GMT 42.080757 -105.690773 35,000 45 523 -64
2019-07-19 06:08:44 GMT 42.076286 -105.695442 35,000 45 523 0
2019-07-19 06:08:33 GMT 42.057175 -105.720810 35,000 45 523 0
2019-07-19 06:08:27 GMT 42.044952 -105.739349 35,000 45 523 0
2019-07-19 06:08:22 GMT 42.039139 -105.746155 35,000 45 523 0
2019-07-19 06:08:16 GMT 42.027191 -105.762260 35,000 45 523 0
2019-07-19 06:08:12 GMT 42.021168 -105.769341 35,000 45 523 0
2019-07-19 06:08:05 GMT 42.007996 -105.787674 35,000 45 523 0
2019-07-19 06:08:02 GMT 42.003067 -105.794472 35,000 45 523 0
2019-07-19 06:07:54 GMT 41.988350 -105.815201 35,000 45 523 0
2019-07-19 06:07:50 GMT 41.984344 -105.819740 35,000 45 523 0
2019-07-19 06:07:44 GMT 41.972992 -105.835793 35,000 45 523 0
2019-07-19 06:07:41 GMT 41.967216 -105.842667 35,000 45 523 0
2019-07-19 06:07:34 GMT 41.953808 -105.861061 35,000 45 523 0
2019-07-19 06:07:30 GMT 41.949619 -105.865791 35,000 45 523 0
2019-07-19 06:07:20 GMT 41.931473 -105.890976 35,000 44 524 0
2019-07-19 06:07:12 GMT 41.917786 -105.909386 35,000 44 524 0
2019-07-19 06:07:07 GMT 41.911057 -105.918381 35,000 44 524 0
2019-07-19 06:07:02 GMT 41.899063 -105.934647 35,000 45 525 0
2019-07-19 06:06:58 GMT 41.894825 -105.939178 35,000 44 524 -64
2019-07-19 06:06:50 GMT 41.881790 -105.957451 35,000 43 524 0
2019-07-19 06:06:46 GMT 41.873783 -105.966263 35,000 43 523 0
2019-07-19 06:06:39 GMT 41.861801 -105.981613 35,000 42 522 0
2019-07-19 06:06:36 GMT 41.857166 -105.988304 35,000 41 521 0
2019-07-19 06:06:30 GMT 41.842735 -106.005226 35,000 39 520 0
2019-07-19 06:06:27 GMT 41.838825 -106.009506 35,000 40 521 0
2019-07-19 06:06:16 GMT 41.818993 -106.030075 35,000 39 520 0
2019-07-19 06:06:09 GMT 41.804050 -106.045982 35,000 37 519 -64
2019-07-19 06:06:06 GMT 41.799362 -106.051964 35,000 37 518 -64
2019-07-19 06:05:55 GMT 41.778900 -106.071251 35,000 36 517 0
2019-07-19 06:05:45 GMT 41.758568 -106.092354 35,000 36 517 0
2019-07-19 06:05:37 GMT 41.743439 -106.107742 35,000 36 517 0
2019-07-19 06:05:31 GMT 41.731380 -106.119240 35,000 36 517 0
2019-07-19 06:05:24 GMT 41.717972 -106.132675 35,000 36 517 0
2019-07-19 06:05:16 GMT 41.702053 -106.150032 35,000 36 517 0
2019-07-19 06:05:12 GMT 41.698002 -106.153862 35,000 36 518 0
2019-07-19 06:05:07 GMT 41.684052 -106.167259 35,000 36 518 0
2019-07-19 06:05:02 GMT 41.676956 -106.174934 35,000 36 518 0
2019-07-19 06:04:52 GMT 41.657776 -106.194283 35,000 36 518 -64
2019-07-19 06:04:48 GMT 41.647400 -106.203873 35,000 36 518 -64
2019-07-19 06:04:44 GMT 41.640373 -106.211411 35,000 36 518 0
2019-07-19 06:04:41 GMT 41.637589 -106.213264 35,000 36 519 0
2019-07-19 06:04:36 GMT 41.626099 -106.224869 35,000 36 518 0
2019-07-19 06:04:33 GMT 41.621471 -106.230705 35,000 36 518 -64
2019-07-19 06:04:30 GMT 41.616909 -106.234474 35,000 36 518 -64
2019-07-19 06:04:23 GMT 41.596798 -106.253632 35,000 36 517 -64
2019-07-19 06:04:15 GMT 41.586510 -106.265068 35,000 36 517 0
2019-07-19 06:04:09 GMT 41.575653 -106.274750 35,000 36 517 0
2019-07-19 06:04:02 GMT 41.559837 -106.291832 35,000 36 516 64
2019-07-19 06:03:59 GMT 41.556702 -106.293785 35,000 36 516 0
2019-07-19 06:03:49 GMT 41.536140 -106.314827 35,000 36 517 0
2019-07-19 06:03:38 GMT 41.516075 -106.333923 35,000 36 515 0
2019-07-19 06:03:30 GMT 41.498249 -106.352898 35,000 36 516 0
2019-07-19 06:03:27 GMT 41.495087 -106.354836 35,000 36 516 0
2019-07-19 06:03:16 GMT 41.474693 -106.375694 35,000 36 515 64
2019-07-19 06:03:09 GMT 41.458054 -106.392792 35,000 36 515 0
2019-07-19 06:03:06 GMT 41.454758 -106.396469 35,000 36 515 0
2019-07-19 06:02:55 GMT 41.433586 -106.417404 35,000 36 514 0
2019-07-19 06:02:45 GMT 41.414684 -106.436119 35,000 36 514 0
2019-07-19 06:02:37 GMT 41.397583 -106.451401 35,000 36 513 0
2019-07-19 06:02:34 GMT 41.394577 -106.455093 35,000 36 513 0
2019-07-19 06:02:24 GMT 41.374886 -106.473999 35,000 36 513 0
2019-07-19 06:02:16 GMT 41.357010 -106.492851 35,000 36 514 0
2019-07-19 06:02:13 GMT 41.353775 -106.494751 35,000 36 514 0
2019-07-19 06:02:03 GMT 41.335281 -106.513733 35,000 36 514 0
2019-07-19 06:01:52 GMT 41.315159 -106.534302 35,000 36 516 0
2019-07-19 06:01:42 GMT 41.294537 -106.553276 35,000 36 515 0
2019-07-19 06:01:31 GMT 41.271629 -106.575874 35,000 36 515 0
2019-07-19 06:01:20 GMT 41.248775 -106.598534 35,000 36 515 0
2019-07-19 06:01:09 GMT 41.230106 -106.617256 35,000 36 515 0
2019-07-19 06:01:00 GMT 41.213379 -106.634277 35,000 36 515 0
2019-07-19 06:00:57 GMT 41.208298 -106.638123 35,000 36 515 0
2019-07-19 06:00:49 GMT 41.192261 -106.654961 35,000 36 515 0
2019-07-19 06:00:43 GMT 41.180389 -106.666260 35,000 36 515 0
2019-07-19 06:00:40 GMT 41.173920 -106.671997 35,000 36 516 0
2019-07-19 06:00:34 GMT 41.161442 -106.685234 35,000 36 515 0
2019-07-19 06:00:28 GMT 41.153622 -106.692726 35,000 36 516 0
2019-07-19 06:00:18 GMT 41.132721 -106.713379 35,000 36 516 -64
2019-07-19 06:00:08 GMT 41.112049 -106.733925 35,000 36 514 -64
2019-07-19 05:59:57 GMT 41.092873 -106.752655 35,000 36 514 64
2019-07-19 05:59:46 GMT 41.071152 -106.773315 35,000 36 513 0
2019-07-19 05:59:36 GMT 41.051468 -106.791931 35,000 36 512 0
2019-07-19 05:59:24 GMT 41.030582 -106.812263 35,000 36 513 -64
2019-07-19 05:59:15 GMT 41.010681 -106.832825 35,000 36 513 0
2019-07-19 05:59:03 GMT 40.988220 -106.853279 35,000 36 513 -64
2019-07-19 05:58:52 GMT 40.968567 -106.873840 35,000 36 512 0
2019-07-19 05:58:42 GMT 40.947487 -106.894226 35,000 36 512 -64
2019-07-19 05:58:31 GMT 40.926315 -106.914612 35,000 36 512 -64
2019-07-19 05:58:19 GMT 40.906174 -106.933228 35,000 36 511 128
2019-07-19 05:58:09 GMT 40.886181 -106.953529 35,000 36 511 64
2019-07-19 05:57:59 GMT 40.865616 -106.973755 35,000 36 510 -64
2019-07-19 05:57:48 GMT 40.844788 -106.992371 35,000 36 511 0
2019-07-19 05:57:36 GMT 40.824867 -107.012642 35,000 36 512 0
2019-07-19 05:57:14 GMT 40.782322 -107.053276 35,000 36 512 0
2019-07-19 05:57:00 GMT 40.751968 -107.082802 35,000 36 512 -64
2019-07-19 05:56:51 GMT 40.737026 -107.097656 35,000 36 512 -64
2019-07-19 05:56:31 GMT 40.696884 -107.136414 35,000 36 513 64
2019-07-19 05:56:22 GMT 40.682053 -107.151245 35,000 36 513 -64
2019-07-19 05:56:10 GMT 40.656860 -107.175125 35,000 36 513 0
2019-07-19 05:56:01 GMT 40.642639 -107.188110 35,000 36 513 -64
2019-07-19 05:55:49 GMT 40.618408 -107.212021 35,000 36 512 -64
2019-07-19 05:55:40 GMT 40.600937 -107.228577 35,000 35 512 64
2019-07-19 05:55:28 GMT 40.579075 -107.248787 35,000 36 512 0
2019-07-19 05:55:18 GMT 40.559464 -107.268677 35,000 34 511 0
2019-07-19 05:55:08 GMT 40.538040 -107.285828 35,000 32 509 0
2019-07-19 05:54:58 GMT 40.520092 -107.300407 35,000 30 509 -64
2019-07-19 05:54:51 GMT 40.497757 -107.317444 35,000 28 508 64
2019-07-19 05:54:42 GMT 40.483547 -107.327621 35,000 27 508 0
2019-07-19 05:54:32 GMT 40.463486 -107.341354 35,000 25 507 0
2019-07-19 05:54:23 GMT 40.445843 -107.351845 35,000 25 507 0
2019-07-19 05:54:20 GMT 40.441463 -107.354530 35,000 25 507 0
2019-07-19 05:54:13 GMT 40.424473 -107.365013 35,000 25 507 0
2019-07-19 05:54:10 GMT 40.418289 -107.369019 35,000 25 507 64
2019-07-19 05:54:00 GMT 40.396866 -107.382263 35,000 25 507 0
2019-07-19 05:53:52 GMT 40.379086 -107.394295 35,000 25 508 0
2019-07-19 05:53:47 GMT 40.369495 -107.399475 35,000 25 508 -64
2019-07-19 05:53:39 GMT 40.350861 -107.411499 35,000 25 508 0
2019-07-19 05:53:27 GMT 40.327274 -107.426064 35,000 25 508 64
2019-07-19 05:53:18 GMT 40.306324 -107.439171 35,000 25 508 -64
2019-07-19 05:53:06 GMT 40.284538 -107.452469 35,000 25 508 0
2019-07-19 05:52:55 GMT 40.259026 -107.468262 35,000 25 508 64
2019-07-19 05:52:45 GMT 40.235962 -107.482727 35,000 25 508 64
2019-07-19 05:52:34 GMT 40.215134 -107.495911 35,000 25 508 0
2019-07-19 05:52:26 GMT 40.195297 -107.507774 35,000 25 507 0
2019-07-19 05:52:19 GMT 40.184189 -107.514282 35,000 25 507 0
2019-07-19 05:52:14 GMT 40.173138 -107.520943 35,000 25 507 64
2019-07-19 05:52:00 GMT 40.143173 -107.540649 35,000 25 507 -64
2019-07-19 05:51:31 GMT 40.081924 -107.577393 35,000 25 506 64
2019-07-19 05:51:22 GMT 40.059132 -107.591736 35,000 25 506 0
2019-07-19 05:51:09 GMT 40.034737 -107.607460 35,000 25 506 -64
2019-07-19 05:50:58 GMT 40.011929 -107.620506 35,000 25 506 64
2019-07-19 05:50:48 GMT 39.989731 -107.634888 35,000 25 506 64
2019-07-19 05:50:37 GMT 39.967529 -107.647949 35,000 25 506 -64
2019-07-19 05:50:27 GMT 39.944847 -107.662270 35,000 25 506 0
2019-07-19 05:50:14 GMT 39.919521 -107.677979 35,000 25 506 0
2019-07-19 05:50:08 GMT 39.903088 -107.688354 35,000 25 505 0
2019-07-19 05:49:56 GMT 39.881908 -107.701355 35,000 25 505 0
2019-07-19 05:49:50 GMT 39.869061 -107.709045 35,000 25 505 64
2019-07-19 05:49:45 GMT 39.855011 -107.718201 35,000 25 505 0
2019-07-19 05:49:33 GMT 39.833221 -107.731155 35,000 25 504 0
2019-07-19 05:49:24 GMT 39.810791 -107.744118 35,000 25 504 0
2019-07-19 05:49:13 GMT 39.789410 -107.758240 35,000 25 504 -64
2019-07-19 05:49:03 GMT 39.767204 -107.771118 35,000 25 504 0
2019-07-19 05:48:51 GMT 39.744507 -107.785431 35,000 25 504 0
2019-07-19 05:48:41 GMT 39.722580 -107.798271 35,000 25 503 0
2019-07-19 05:48:31 GMT 39.700771 -107.812317 35,000 25 504 -64
2019-07-19 05:48:20 GMT 39.678844 -107.825317 35,000 25 503 0
2019-07-19 05:48:11 GMT 39.657246 -107.838074 35,000 25 503 0
2019-07-19 05:48:00 GMT 39.635239 -107.852249 35,000 25 503 64
2019-07-19 05:47:49 GMT 39.613632 -107.865143 35,000 25 503 -64
2019-07-19 05:47:38 GMT 39.590443 -107.879211 35,000 25 503 -64
2019-07-19 05:47:29 GMT 39.568333 -107.892029 35,000 25 502 64
2019-07-19 05:47:18 GMT 39.546204 -107.906105 35,000 25 502 0
2019-07-19 05:47:07 GMT 39.523819 -107.918823 35,000 25 502 -64
2019-07-19 05:46:55 GMT 39.499878 -107.934105 35,000 25 502 -64
2019-07-19 05:46:45 GMT 39.478226 -107.946884 35,000 25 502 0
2019-07-19 05:46:35 GMT 39.456280 -107.960938 35,000 25 502 64
2019-07-19 05:46:25 GMT 39.435146 -107.973572 35,000 25 501 0
2019-07-19 05:46:15 GMT 39.413406 -107.986389 35,000 25 501 0
2019-07-19 05:46:04 GMT 39.391113 -108.000320 35,000 24 501 0
2019-07-19 05:45:53 GMT 39.369095 -108.012924 35,000 25 501 64
2019-07-19 05:45:42 GMT 39.346275 -108.026978 35,000 25 502 -128
2019-07-19 05:45:33 GMT 39.325703 -108.039673 35,000 25 502 256
2019-07-19 05:45:22 GMT 39.302078 -108.053642 34,950 25 502 256
2019-07-19 05:45:12 GMT 39.281204 -108.066360 34,900 24 502 320
2019-07-19 05:45:01 GMT 39.256664 -108.080322 34,850 25 503 384
2019-07-19 05:44:51 GMT 39.237625 -108.091736 34,800 24 504 384
2019-07-19 05:44:41 GMT 39.213867 -108.107018 34,725 25 505 384
2019-07-19 05:44:30 GMT 39.192719 -108.119736 34,650 24 506 448
2019-07-19 05:44:20 GMT 39.170242 -108.132515 34,600 25 507 384
2019-07-19 05:44:09 GMT 39.147873 -108.146545 34,525 24 508 576
2019-07-19 05:43:57 GMT 39.122818 -108.160637 34,425 24 509 320
2019-07-19 05:43:47 GMT 39.100342 -108.174683 34,375 24 509 512
2019-07-19 05:43:34 GMT 39.073761 -108.190125 34,275 25 510 320
2019-07-19 05:43:24 GMT 39.052719 -108.202942 34,200 24 511 384
2019-07-19 05:43:13 GMT 39.028610 -108.217064 34,125 24 512 320
2019-07-19 05:43:03 GMT 39.005051 -108.231262 34,075 24 512 448
2019-07-19 05:42:50 GMT 38.979958 -108.246582 34,000 24 513 384
2019-07-19 05:42:40 GMT 38.956604 -108.260712 33,925 24 514 384
2019-07-19 05:42:29 GMT 38.933395 -108.273605 33,850 24 513 448
2019-07-19 05:42:19 GMT 38.909664 -108.287781 33,775 25 513 448
2019-07-19 05:42:07 GMT 38.885971 -108.301910 33,700 24 512 384
2019-07-19 05:41:57 GMT 38.861801 -108.317139 33,625 24 511 448
2019-07-19 05:41:45 GMT 38.838593 -108.329849 33,550 24 510 384
2019-07-19 05:41:35 GMT 38.816189 -108.343933 33,475 24 510 384
2019-07-19 05:41:24 GMT 38.792313 -108.357796 33,400 24 509 448
2019-07-19 05:41:13 GMT 38.768562 -108.371765 33,325 24 508 448
2019-07-19 05:41:02 GMT 38.745209 -108.385742 33,250 24 508 384
2019-07-19 05:40:50 GMT 38.722198 -108.399597 33,200 24 507 320
2019-07-19 05:40:40 GMT 38.699760 -108.412170 33,125 24 508 384
2019-07-19 05:40:29 GMT 38.676498 -108.426041 33,050 24 510 384
2019-07-19 05:40:19 GMT 38.654617 -108.438698 33,000 24 510 128
2019-07-19 05:40:08 GMT 38.632168 -108.452637 33,000 24 510 0
2019-07-19 05:39:58 GMT 38.608841 -108.466522 33,000 24 510 0
2019-07-19 05:39:48 GMT 38.587601 -108.479179 33,000 24 510 0
2019-07-19 05:39:38 GMT 38.564575 -108.491844 33,000 24 511 0
2019-07-19 05:39:26 GMT 38.542274 -108.505859 33,000 24 510 0
2019-07-19 05:39:16 GMT 38.520161 -108.518433 33,000 24 510 -64
2019-07-19 05:39:06 GMT 38.497723 -108.531006 33,000 24 510 0
2019-07-19 05:38:55 GMT 38.475128 -108.544922 33,000 24 510 0
2019-07-19 05:38:49 GMT 38.459129 -108.553650 33,000 24 510 0
2019-07-19 05:38:45 GMT 38.452427 -108.558777 33,000 24 510 0
2019-07-19 05:38:41 GMT 38.443909 -108.562599 33,000 24 510 -64
2019-07-19 05:38:34 GMT 38.428619 -108.572624 33,000 24 509 0
2019-07-19 05:38:31 GMT 38.424042 -108.575134 33,000 24 510 0
2019-07-19 05:38:25 GMT 38.407288 -108.585182 33,000 24 509 0
2019-07-19 05:38:21 GMT 38.402023 -108.587639 33,000 24 509 0
2019-07-19 05:38:14 GMT 38.385544 -108.597694 33,000 24 509 0
2019-07-19 05:38:11 GMT 38.379959 -108.600204 33,000 24 509 64
2019-07-19 05:38:04 GMT 38.363937 -108.610313 33,000 24 509 0
2019-07-19 05:38:01 GMT 38.356529 -108.614067 33,000 24 509 -64
2019-07-19 05:37:53 GMT 38.340424 -108.624039 33,000 24 509 0
2019-07-19 05:37:50 GMT 38.335209 -108.626602 33,000 24 509 0
2019-07-19 05:37:43 GMT 38.318962 -108.636513 33,000 24 508 0
2019-07-19 05:37:40 GMT 38.312897 -108.640236 33,000 24 508 0
2019-07-19 05:37:30 GMT 38.290283 -108.652855 33,000 24 508 0
2019-07-19 05:37:19 GMT 38.267986 -108.666611 33,000 24 509 0
2019-07-19 05:37:09 GMT 38.245876 -108.679085 33,000 24 508 0
2019-07-19 05:36:58 GMT 38.223438 -108.691566 33,000 24 508 0
2019-07-19 05:36:47 GMT 38.200882 -108.705162 33,000 24 508 0
2019-07-19 05:36:38 GMT 38.179504 -108.717606 33,000 24 508 64
2019-07-19 05:36:26 GMT 38.155750 -108.731453 33,000 24 508 0
2019-07-19 05:36:15 GMT 38.130424 -108.746262 33,000 24 507 0
2019-07-19 05:36:04 GMT 38.106216 -108.759857 33,000 24 506 0
2019-07-19 05:35:54 GMT 38.085022 -108.772301 33,000 24 506 64
2019-07-19 05:35:46 GMT 38.067764 -108.782181 33,000 24 506 0
2019-07-19 05:35:41 GMT 38.059433 -108.787148 33,000 24 506 0
2019-07-19 05:35:34 GMT 38.043365 -108.796906 33,000 24 506 0
2019-07-19 05:35:19 GMT 38.010181 -108.815460 33,000 24 506 64
2019-07-19 05:35:10 GMT 37.989979 -108.827759 33,000 24 505 0
We lost coverage of the aircraft here for a total of 14 minutes
2019-07-19 05:21:37 GMT 36.351654 -109.961243 33,000 29 501 0
2019-07-19 05:21:32 GMT 36.338287 -109.969597 33,000 29 501 0
2019-07-19 05:21:22 GMT 36.317635 -109.984947 33,000 29 501 0
2019-07-19 05:20:24 GMT 36.200134 -110.064583 33,000 29 502 0
2019-07-19 05:19:10 GMT 36.052753 -110.166458 33,000 28 504 128
2019-07-19 05:19:04 GMT 36.037537 -110.176277 32,975 29 503 0
2019-07-19 05:18:54 GMT 36.016663 -110.190292 32,975 29 503 -192
2019-07-19 05:18:40 GMT 35.989105 -110.209747 33,000 29 503 0
2019-07-19 05:18:31 GMT 35.969936 -110.222321 33,000 29 503 0
2019-07-19 05:18:02 GMT 35.909840 -110.264168 33,000 29 503 0
2019-07-19 05:17:57 GMT 35.901180 -110.269661 33,000 29 503 0
2019-07-19 05:17:40 GMT 35.868778 -110.291862 33,000 29 503 0
2019-07-19 05:17:35 GMT 35.857605 -110.298935 33,000 29 502 0
2019-07-19 05:17:25 GMT 35.833237 -110.315552 33,000 29 502 64
2019-07-19 05:17:12 GMT 35.808495 -110.333473 33,000 28 502 -64
2019-07-19 05:17:00 GMT 35.782284 -110.350243 33,000 29 502 -64
2019-07-19 05:16:48 GMT 35.761368 -110.365501 33,000 28 502 0
2019-07-19 05:16:37 GMT 35.740082 -110.379181 33,000 28 502 0
2019-07-19 05:16:27 GMT 35.716690 -110.395775 33,000 28 502 64
2019-07-19 05:16:16 GMT 35.694809 -110.409569 33,000 28 501 0
2019-07-19 05:16:05 GMT 35.673862 -110.424751 33,000 28 501 0
2019-07-19 05:15:51 GMT 35.641937 -110.445328 33,000 28 501 0
2019-07-19 05:15:42 GMT 35.623493 -110.457710 33,000 28 502 0
2019-07-19 05:15:30 GMT 35.601059 -110.472733 33,000 28 502 0
2019-07-19 05:15:17 GMT 35.573776 -110.491852 33,025 28 502 -64
2019-07-19 05:15:07 GMT 35.554783 -110.504173 33,000 28 501 64
2019-07-19 05:14:56 GMT 35.529327 -110.521950 33,000 28 501 0
2019-07-19 05:14:43 GMT 35.506836 -110.537010 33,000 28 502 0
2019-07-19 05:14:32 GMT 35.480484 -110.554848 33,000 28 501 0
2019-07-19 05:14:20 GMT 35.453999 -110.572540 33,025 28 502 -64
2019-07-19 05:14:07 GMT 35.431793 -110.586159 33,025 28 502 -64
2019-07-19 05:13:57 GMT 35.410904 -110.601135 33,025 28 502 -64
2019-07-19 05:13:43 GMT 35.382866 -110.618881 33,025 28 502 192
2019-07-19 05:13:32 GMT 35.362476 -110.632500 32,925 28 503 1024
2019-07-19 05:13:20 GMT 35.337803 -110.648918 32,675 28 504 1216
2019-07-19 05:13:11 GMT 35.319534 -110.661224 32,475 28 504 1664
2019-07-19 05:13:01 GMT 35.294907 -110.677696 32,225 28 507 1344
2019-07-19 05:12:48 GMT 35.270370 -110.694122 31,975 28 507 1408
2019-07-19 05:12:37 GMT 35.245926 -110.710655 31,700 28 509 1472
2019-07-19 05:12:26 GMT 35.220795 -110.727219 31,450 28 510 1408
2019-07-19 05:12:08 GMT 35.185345 -110.750603 31,050 28 511 1472
2019-07-19 05:11:52 GMT 35.152431 -110.772743 30,825 28 512 1472
2019-07-19 05:11:44 GMT 35.136932 -110.782486 30,550 28 513 1472
2019-07-19 05:11:25 GMT 35.096375 -110.810181 30,350 28 514 896
2019-07-19 05:11:16 GMT 35.077484 -110.822639 30,025 28 513 1408
2019-07-19 05:11:11 GMT 35.069012 -110.828133 29,925 28 513 1472
2019-07-19 05:11:02 GMT 35.048576 -110.842155 29,675 28 514 1536
2019-07-19 05:10:43 GMT 35.011093 -110.865616 29,400 28 513 1024
2019-07-19 05:10:40 GMT 35.002487 -110.872597 29,250 28 516 1024
2019-07-19 05:10:18 GMT 34.956215 -110.903030 28,900 28 514 1152
2019-07-19 05:10:10 GMT 34.941696 -110.912643 28,775 28 513 960
2019-07-19 05:10:06 GMT 34.931122 -110.919571 28,700 28 512 832
2019-07-19 05:09:58 GMT 34.916611 -110.929123 28,600 28 511 768
2019-07-19 05:09:55 GMT 34.908279 -110.934616 28,575 28 510 704
2019-07-19 05:09:49 GMT 34.898438 -110.940109 28,500 28 509 960
2019-07-19 05:09:44 GMT 34.885941 -110.948349 28,425 28 509 960
2019-07-19 05:09:39 GMT 34.875072 -110.955215 28,325 28 509 896
2019-07-19 05:09:32 GMT 34.854450 -110.968781 28,175 28 506 896
2019-07-19 05:09:28 GMT 34.854450 -110.968781 28,225 28 506 832
2019-07-19 05:09:21 GMT 34.838623 -110.979591 28,100 28 504 1216
2019-07-19 05:09:15 GMT 34.826054 -110.987663 27,975 28 505 1280
2019-07-19 05:09:07 GMT 34.809715 -110.998535 27,825 28 504 896
2019-07-19 05:08:59 GMT 34.791458 -111.010628 27,725 28 502 640
2019-07-19 05:08:56 GMT 34.787247 -111.013260 27,700 28 502 640
2019-07-19 05:08:48 GMT 34.770721 -111.024078 27,600 28 497 1216
2019-07-19 05:08:44 GMT 34.765209 -111.028114 27,550 28 500 1344
2019-07-19 05:08:39 GMT 34.753342 -111.036018 27,425 28 499 1216
2019-07-19 05:08:34 GMT 34.743797 -111.041512 27,350 28 499 1024
2019-07-19 05:08:27 GMT 34.728806 -111.052094 27,225 28 498 896
2019-07-19 05:08:23 GMT 34.720615 -111.057472 27,000 28 497 1152
2019-07-19 05:08:17 GMT 34.706497 -111.066788 27,050 28 497 1216
2019-07-19 05:08:13 GMT 34.699993 -111.070808 27,000 28 497 1152
2019-07-19 05:08:05 GMT 34.685898 -111.080017 26,750 28 496 1152
2019-07-19 05:08:02 GMT 34.677750 -111.085342 26,800 28 495 1216
2019-07-19 05:07:54 GMT 34.663914 -111.094780 26,675 28 495 1280
2019-07-19 05:07:50 GMT 34.655861 -111.100098 26,600 29 495 1216
2019-07-19 05:07:44 GMT 34.641998 -111.109779 26,450 29 495 1152
2019-07-19 05:07:40 GMT 34.633347 -111.115334 26,375 30 494 1088
2019-07-19 05:07:31 GMT 34.618195 -111.126709 26,275 30 493 1216
2019-07-19 05:07:27 GMT 34.609772 -111.132256 26,175 31 493 1216
2019-07-19 05:07:23 GMT 34.599670 -111.139587 26,075 31 492 1152
2019-07-19 05:07:18 GMT 34.590546 -111.146889 26,000 32 491 1024
2019-07-19 05:07:13 GMT 34.580677 -111.154289 25,925 32 491 1024
2019-07-19 05:07:07 GMT 34.570251 -111.163048 25,775 32 490 1152
2019-07-19 05:07:01 GMT 34.558914 -111.170601 25,600 32 489 1216
2019-07-19 05:06:56 GMT 34.548248 -111.179512 25,625 32 489 1152
2019-07-19 05:06:52 GMT 34.534103 -111.189934 25,475 32 488 1152
2019-07-19 05:06:44 GMT 34.526676 -111.195831 25,325 32 487 1152
2019-07-19 05:06:40 GMT 34.516808 -111.204697 25,325 32 487 1088
2019-07-19 05:06:34 GMT 34.506683 -111.211967 25,225 32 486 1152
2019-07-19 05:06:27 GMT 34.494827 -111.220818 25,075 32 485 1216
2019-07-19 05:06:22 GMT 34.484024 -111.229675 25,025 32 485 1216
2019-07-19 05:06:19 GMT 34.477798 -111.234116 24,950 32 484 1408
2019-07-19 05:06:11 GMT 34.465393 -111.244308 24,825 32 484 1408
2019-07-19 05:06:08 GMT 34.456970 -111.250191 24,725 32 484 1280
2019-07-19 05:06:03 GMT 34.447960 -111.257462 24,625 32 484 1152
2019-07-19 05:05:59 GMT 34.439716 -111.263412 24,550 32 483 1088
2019-07-19 05:05:56 GMT 34.434174 -111.267738 24,550 32 483 1088
2019-07-19 05:05:51 GMT 34.425194 -111.275192 24,425 32 481 1152
2019-07-19 05:05:46 GMT 34.415268 -111.282478 24,325 32 481 1344
2019-07-19 05:05:39 GMT 34.403915 -111.291168 24,200 32 481 1216
2019-07-19 05:05:34 GMT 34.394840 -111.298431 24,125 32 479 960
2019-07-19 05:05:29 GMT 34.384647 -111.307068 24,050 32 479 1088
2019-07-19 05:05:23 GMT 34.372215 -111.315826 23,975 32 476 448
2019-07-19 05:05:19 GMT 34.365326 -111.321548 23,850 32 477 640
2019-07-19 05:05:14 GMT 34.353783 -111.330185 23,800 32 474 704
2019-07-19 05:05:10 GMT 34.347794 -111.334549 23,750 32 474 1088
2019-07-19 05:05:07 GMT 34.344772 -111.337410 23,750 32 474 1088
2019-07-19 05:05:02 GMT 34.333786 -111.345932 23,625 32 473 1280
2019-07-19 05:04:57 GMT 34.326279 -111.351646 23,550 32 471 960
2019-07-19 05:04:51 GMT 34.312630 -111.361603 23,450 32 470 896
2019-07-19 05:04:47 GMT 34.306160 -111.367317 23,375 32 469 1408
2019-07-19 05:04:42 GMT 34.289017 -111.380013 23,175 32 469 1664
2019-07-19 05:04:38 GMT 34.289017 -111.380013 23,150 32 469 1664
2019-07-19 05:04:32 GMT 34.278717 -111.388535 23,025 32 467 1088
2019-07-19 05:04:27 GMT 34.269569 -111.395592 22,900 32 468 1088
2019-07-19 05:04:24 GMT 34.264023 -111.399857 22,900 32 468 1088
2019-07-19 05:04:18 GMT 34.253677 -111.408264 22,775 32 466 1408
2019-07-19 05:04:14 GMT 34.247223 -111.412521 22,675 32 466 1536
2019-07-19 05:04:11 GMT 34.239258 -111.419472 22,575 32 466 1664
2019-07-19 05:04:08 GMT 34.233948 -111.422333 22,500 32 466 1664
2019-07-19 05:04:04 GMT 34.224701 -111.430740 22,375 32 465 1536
2019-07-19 05:03:59 GMT 34.219246 -111.434959 22,200 32 464 1024
2019-07-19 05:03:56 GMT 34.215244 -111.437759 22,200 32 464 1024
2019-07-19 05:03:52 GMT 34.204536 -111.446053 22,175 32 464 1024
2019-07-19 05:03:47 GMT 34.198196 -111.450249 22,125 32 462 1024
2019-07-19 05:03:42 GMT 34.188663 -111.457153 22,025 32 461 1152
2019-07-19 05:03:39 GMT 34.181820 -111.462822 21,950 32 459 1344
2019-07-19 05:03:32 GMT 34.169174 -111.472389 21,800 32 459 1344
2019-07-19 05:03:28 GMT 34.163086 -111.477936 21,750 32 458 1280
2019-07-19 05:03:20 GMT 34.149094 -111.487541 21,625 32 456 1280
2019-07-19 05:03:16 GMT 34.139923 -111.495728 21,475 32 455 1408
2019-07-19 05:03:10 GMT 34.131496 -111.501221 21,400 32 454 1536
2019-07-19 05:03:07 GMT 34.123947 -111.508095 21,275 32 454 1664
2019-07-19 05:03:04 GMT 34.121441 -111.509338 21,225 32 454 1728
2019-07-19 05:03:00 GMT 34.111816 -111.516273 21,100 32 454 1600
2019-07-19 05:02:55 GMT 34.102203 -111.524345 20,975 32 453 1216
2019-07-19 05:02:49 GMT 34.092392 -111.531197 20,850 32 451 1536
2019-07-19 05:02:44 GMT 34.081871 -111.539330 20,775 32 451 1984
2019-07-19 05:02:40 GMT 34.076477 -111.543404 20,325 32 452 2304
2019-07-19 05:02:37 GMT 34.072906 -111.546150 20,475 32 452 2368
2019-07-19 05:02:32 GMT 34.062561 -111.554276 20,275 32 451 2304
2019-07-19 05:02:28 GMT 34.056519 -111.559715 20,100 32 452 2432
2019-07-19 05:02:24 GMT 34.050171 -111.563759 20,025 32 452 2496
2019-07-19 05:02:19 GMT 34.039555 -111.572113 19,800 34 452 2304
2019-07-19 05:02:12 GMT 34.027267 -111.582191 19,550 35 451 2240
2019-07-19 05:02:06 GMT 34.016838 -111.592651 19,325 37 451 2048
2019-07-19 05:02:01 GMT 34.009155 -111.598839 19,175 38 449 2112
2019-07-19 05:01:58 GMT 34.004105 -111.603546 19,075 39 448 2176
2019-07-19 05:01:55 GMT 33.999847 -111.608215 19,000 39 448 2176
2019-07-19 05:01:52 GMT 33.995682 -111.613022 18,900 40 447 2176
2019-07-19 05:01:49 GMT 33.991882 -111.616219 18,825 40 447 2112
2019-07-19 05:01:46 GMT 33.985336 -111.622719 18,700 41 446 1984
2019-07-19 05:01:42 GMT 33.980118 -111.629387 18,575 42 445 1920
2019-07-19 05:01:38 GMT 33.974941 -111.634483 18,475 43 444 1856
2019-07-19 05:01:34 GMT 33.967255 -111.643066 18,325 44 442 1920
2019-07-19 05:01:29 GMT 33.960232 -111.651878 18,175 45 440 2176
2019-07-19 05:01:24 GMT 33.954365 -111.658745 18,050 45 440 2176
2019-07-19 05:01:20 GMT 33.947296 -111.667397 17,875 45 438 2048
2019-07-19 05:01:12 GMT 33.936722 -111.679520 17,650 45 436 1920
2019-07-19 05:01:07 GMT 33.929535 -111.688248 17,500 45 434 1920
2019-07-19 05:01:03 GMT 33.924271 -111.695084 17,325 45 432 2048
2019-07-19 05:01:00 GMT 33.918228 -111.701866 17,250 45 432 2112
2019-07-19 05:00:57 GMT 33.914051 -111.706924 17,150 45 431 2112
2019-07-19 05:00:52 GMT 33.909443 -111.713791 16,975 45 429 2176
2019-07-19 05:00:49 GMT 33.897476 -111.727348 16,775 45 427 2176
2019-07-19 05:00:41 GMT 33.886955 -111.740913 16,600 45 427 2176
2019-07-19 05:00:37 GMT 33.886955 -111.740913 16,500 45 426 2176
2019-07-19 05:00:32 GMT 33.879913 -111.749229 16,325 45 424 2304
2019-07-19 05:00:25 GMT 33.870804 -111.759209 16,100 45 423 2368
2019-07-19 05:00:22 GMT 33.864799 -111.767578 15,925 45 422 2368
2019-07-19 05:00:19 GMT 33.861492 -111.770897 15,850 45 422 2304
2019-07-19 05:00:15 GMT 33.857803 -111.775803 15,750 45 421 2176
2019-07-19 05:00:11 GMT 33.850647 -111.784225 15,575 45 420 2240
2019-07-19 05:00:08 GMT 33.847046 -111.789085 15,500 45 418 2240
2019-07-19 05:00:05 GMT 33.842407 -111.794014 15,375 45 417 2240
2019-07-19 05:00:00 GMT 33.836262 -111.800652 15,200 45 417 2432
2019-07-19 04:59:54 GMT 33.828114 -111.810555 14,975 45 415 2560
2019-07-19 04:59:49 GMT 33.821320 -111.818794 14,775 45 415 2432
2019-07-19 04:59:44 GMT 33.813629 -111.828491 14,575 44 413 2176
2019-07-19 04:59:41 GMT 33.809586 -111.833321 14,425 44 412 2240
2019-07-19 04:59:38 GMT 33.806702 -111.836586 14,425 44 412 2240
2019-07-19 04:59:33 GMT 33.798740 -111.846252 14,275 45 410 2560
2019-07-19 04:59:28 GMT 33.792664 -111.854332 13,900 45 409 2304
2019-07-19 04:59:22 GMT 33.784729 -111.862450 13,775 45 408 2176
2019-07-19 04:59:17 GMT 33.778107 -111.870415 13,625 45 406 2112
2019-07-19 04:59:12 GMT 33.770691 -111.879944 13,425 45 403 2304
2019-07-19 04:59:06 GMT 33.763824 -111.888023 13,275 45 402 2240
2019-07-19 04:59:02 GMT 33.757141 -111.895866 13,075 45 400 1920
2019-07-19 04:58:59 GMT 33.755035 -111.899002 12,900 45 395 1280
2019-07-19 04:58:56 GMT 33.750275 -111.905334 12,950 45 397 1344
2019-07-19 04:58:50 GMT 33.742737 -111.913094 12,825 45 393 1088
2019-07-19 04:58:45 GMT 33.736034 -111.922188 12,750 45 388 1216
2019-07-19 04:58:40 GMT 33.728806 -111.929718 12,625 45 383 1088
2019-07-19 04:58:34 GMT 33.721985 -111.938797 12,175 44 374 1152
2019-07-19 04:58:30 GMT 33.714066 -111.947655 12,450 44 374 1152
2019-07-19 04:58:23 GMT 33.708427 -111.954918 12,350 44 369 1152
2019-07-19 04:58:18 GMT 33.703030 -111.960640 12,275 44 364 960
2019-07-19 04:58:15 GMT 33.698326 -111.966248 12,175 45 356 1024
2019-07-19 04:58:07 GMT 33.689529 -111.977409 12,075 44 352 1152
2019-07-19 04:58:03 GMT 33.685272 -111.981514 12,025 44 347 1280
2019-07-19 04:58:00 GMT 33.682129 -111.985641 11,950 44 346 1344
2019-07-19 04:57:56 GMT 33.677982 -111.990967 11,875 44 342 1344
2019-07-19 04:57:53 GMT 33.673920 -111.994965 11,800 44 338 1280
2019-07-19 04:57:50 GMT 33.671093 -111.998917 11,625 44 332 1664
2019-07-19 04:57:46 GMT 33.666206 -112.004189 11,650 44 333 1664
2019-07-19 04:57:41 GMT 33.659737 -112.012024 11,500 44 323 1280
2019-07-19 04:57:35 GMT 33.649261 -112.024673 11,300 45 319 1984
2019-07-19 04:57:30 GMT 33.648148 -112.025848 11,250 44 318 2240
2019-07-19 04:57:25 GMT 33.643070 -112.032166 11,075 44 317 2944
2019-07-19 04:57:21 GMT 33.639450 -112.035828 10,900 44 317 2816
2019-07-19 04:57:18 GMT 33.636600 -112.039604 10,700 44 316 2560
2019-07-19 04:57:14 GMT 33.631622 -112.045807 10,600 44 316 2560
2019-07-19 04:57:11 GMT 33.628544 -112.049446 10,475 45 315 2560
2019-07-19 04:57:08 GMT 33.625938 -112.051964 10,375 45 314 2496
2019-07-19 04:57:04 GMT 33.620728 -112.058083 10,150 45 313 2560
2019-07-19 04:57:01 GMT 33.617790 -112.061867 10,050 45 312 2624
2019-07-19 04:56:58 GMT 33.614822 -112.066711 9,950 45 311 2688
2019-07-19 04:56:54 GMT 33.610748 -112.070412 9,775 45 311 2688
2019-07-19 04:56:50 GMT 33.606995 -112.075287 9,625 45 310 2688
2019-07-19 04:56:47 GMT 33.603195 -112.080162 9,475 45 309 2624
2019-07-19 04:56:42 GMT 33.599449 -112.083839 9,325 45 309 2624
2019-07-19 04:56:39 GMT 33.596466 -112.087456 9,150 45 308 2752
2019-07-19 04:56:36 GMT 33.592667 -112.092438 9,050 45 307 2752
2019-07-19 04:56:28 GMT 33.579163 -112.109428 8,450 45 305 2816
2019-07-19 04:56:22 GMT 33.578613 -112.109367 8,425 45 306 2816
2019-07-19 04:56:18 GMT 33.574768 -112.114304 8,250 45 304 2816
2019-07-19 04:56:14 GMT 33.571152 -112.119064 8,100 45 304 2816
2019-07-19 04:56:10 GMT 33.567261 -112.123940 7,875 45 303 2752
2019-07-19 04:56:07 GMT 33.564423 -112.126411 7,800 45 303 2752
2019-07-19 04:56:04 GMT 33.560440 -112.132416 7,625 45 302 2816
2019-07-19 04:56:00 GMT 33.557053 -112.136047 7,475 45 301 2816
2019-07-19 04:55:57 GMT 33.554016 -112.139565 7,350 46 301 2816
2019-07-19 04:55:53 GMT 33.549778 -112.144485 7,150 46 301 2816
2019-07-19 04:55:49 GMT 33.546192 -112.149239 7,000 45 300 2752
2019-07-19 04:55:46 GMT 33.543274 -112.152809 6,650 44 297 2688
2019-07-19 04:55:41 GMT 33.539795 -112.157555 6,725 45 298 2624
2019-07-19 04:55:38 GMT 33.536793 -112.161049 6,525 44 296 2688
2019-07-19 04:55:34 GMT 33.532646 -112.165703 6,425 44 296 2496
2019-07-19 04:55:30 GMT 33.529018 -112.170296 6,275 44 294 1600
2019-07-19 04:55:27 GMT 33.525513 -112.173706 6,175 44 290 1152
2019-07-19 04:55:24 GMT 33.522640 -112.177078 6,175 44 290 1152
2019-07-19 04:55:20 GMT 33.518681 -112.181564 5,875 39 280 1280
2019-07-19 04:55:17 GMT 33.514957 -112.185936 5,975 42 282 1408
2019-07-19 04:55:14 GMT 33.512054 -112.188919 5,900 38 279 1216
2019-07-19 04:55:08 GMT 33.505371 -112.193756 5,800 21 269 768
2019-07-19 04:55:05 GMT 33.502621 -112.195351 5,750 10 261 832
2019-07-19 04:55:02 GMT 33.499737 -112.196083 5,750 12 262 896

Making use of Plane Finder data

You are free to use the raw flight data, aircraft information and images provided in this report for your own purposes provided the data is correctly attributed to Plane Finder. We ask that you please credit Plane Finder and link to planefinder.net in close proximity to the content.

Optionally one of the following logos (no smaller then 150x24px) can be used and must link to planefinder.net

Embedding the Plane Finder map

You are welcome to embed the Plane Finder playback map on your website to offer visitors a more interactive experience. We suggest using the following HTML code:

<iframe src="//planefinder.net/data/report/BA288-G-CIVN-7700-squawk-2019-07-19/map" width="800" height="600" seamless="seamless"></iframe>

Where our data comes from

Plane Finder has a global network of data feeds and antenna radars that receive data broadcast directly from aircraft. The primary technologies used are ADS-B and MLAT. We also show feeds from the FAA and a FLARM glider feed.

Click here to find out more about the Plane Finder network.

How we collect our data